Darstellungsparameter: Aktuell verwendete Einstellungen:
Skalierung der Graphiken ... ?
xyx+y,   Skalierungsfaktor:      Skalierung: Modus: x, Faktor: 1
Darstellungszeitraum ... ?
Vom - - bis: - -   Zeitraum: 30.10.2010 - 29.11.2010
Min/Max/Avg-Anzeige ... ?
Zeige MMA aktuell
Zeige MMA Monat
Zeige MMA alles
Zeige --A aktuell
Zeige --A Monat
Zeige --A alles
Keine MMA-Anzeige
MMA:
Average (ber die Originaldaten)
MMA-Basis: 30.10.2010 - 29.11.2010
Quicknavigation für Darstellung... ?
Tage:      1T, 2T, 3T, 5T -1T -2T -3T -5T +1T +2T +3T +5T
Wochen: 1W, 2W, 3W -1W -2W -3W +1W +2W +3W
Monate: 1M, 3M, 6M -1M -3M -6M +1M +3M +6M
Jahre:    1J, 3J, 5J, 10J -1J -3J -5J -10J +1J +3J +5J +10J
Nutze für die Darstellung ... ?
Originaldaten oder Mittelwerte auf ...
Stundenbasis Tagesbasis Wochenbasis
Monatsbasis Jahresbasis      Datenbasis: Original-Daten
Darstellen als:
Statistik (Auto) Statistik J:M      Darstellung:
Zur Graphik,    zurück zur Übersicht aller Sensoren.
 
Tabellarische Datenbersicht: ?
 
Sensor: Nr:Datum:Temp:Abs-Feuchte:Windchill:Wind:
Aussen-T/F 1 02-11-2010 08:03:09 8.6 C 7.05 g/m*3 8.6 C 0 km/h
2 02-11-2010 08:15:01 8.4 C 6.96 g/m*3 8.4 C 0 km/h
3 02-11-2010 08:15:09 8.9 C 7.1 g/m*3 8.9 C 0 km/h
4 02-11-2010 08:27:01 8.5 C 7 g/m*3 8.5 C 0 km/h
5 02-11-2010 08:27:09 9 C 6.96 g/m*3 9 C 0 km/h
6 02-11-2010 08:39:02 8.5 C 7 g/m*3 8.5 C 0 km/h
7 02-11-2010 08:39:09 9.2 C 6.88 g/m*3 9.2 C 0 km/h
8 02-11-2010 08:51:01 8.6 C 7.05 g/m*3 8.6 C 0 km/h
9 02-11-2010 08:51:42 9.3 C 6.83 g/m*3 9.3 C 0 km/h
10 02-11-2010 09:03:59 9.5 C 6.92 g/m*3 9.5 C 0 km/h
11 02-11-2010 09:15:59 9.7 C 6.91 g/m*3 9.7 C 0 km/h
12 02-11-2010 09:27:26 9.8 C 6.87 g/m*3 9.8 C 0 km/h
13 02-11-2010 09:39:43 10.1 C 6.81 g/m*3 10.1 C 0 km/h
14 02-11-2010 09:51:10 10.4 C 6.75 g/m*3 10.4 C 0 km/h
15 02-11-2010 10:03:10 10.9 C 6.86 g/m*3 10.9 C 0 km/h
16 02-11-2010 10:15:26 10.8 C 6.72 g/m*3 10.8 C 0 km/h
17 02-11-2010 10:27:53 11 C 6.71 g/m*3 11 C 0 km/h
18 02-11-2010 10:39:10 11 C 6.71 g/m*3 11 C 0 km/h
19 02-11-2010 10:51:10 11.5 C 6.71 g/m*3 11.5 C 0 km/h
20 02-11-2010 11:03:37 11.8 C 6.42 g/m*3 11.8 C 0 km/h
21 02-11-2010 11:15:54 12.1 C 6.33 g/m*3 12.1 C 0 km/h
22 02-11-2010 11:27:22 11.8 C 6.42 g/m*3 11.8 C 0 km/h
23 02-11-2010 11:39:22 11.7 C 6.48 g/m*3 11.7 C 0 km/h
24 02-11-2010 11:51:38 12 C 6.5 g/m*3 12 C 0 km/h
25 02-11-2010 12:03:06 12.2 C 6.58 g/m*3 12.2 C 0 km/h
Sensor: Nr:Datum:Temp:Abs-Feuchte:Windchill:Wind:
Aussen-T/F 26 02-11-2010 12:15:06 12.5 C 6.49 g/m*3 12.5 C 0 km/h
27 02-11-2010 12:27:21 12.7 C 6.57 g/m*3 12.7 C 0 km/h
28 02-11-2010 12:39:49 12.8 C 6.5 g/m*3 12.8 C 0 km/h
29 02-11-2010 12:51:06 12.4 C 6.34 g/m*3 12.4 C 0 km/h
30 02-11-2010 13:03:06 12.4 C 6.34 g/m*3 12.4 C 0 km/h
31 02-11-2010 13:15:33 12.7 C 6.35 g/m*3 12.7 C 0 km/h
32 02-11-2010 13:27:49 12.7 C 6.23 g/m*3 12.7 C 0 km/h
33 02-11-2010 13:39:16 12.9 C 6.42 g/m*3 12.9 C 0 km/h
34 02-11-2010 13:51:16 12.9 C 6.31 g/m*3 12.9 C 0 km/h
35 02-11-2010 14:03:33 12.6 C 6.31 g/m*3 12.6 C 0 km/h
36 02-11-2010 14:15:00 12.9 C 6.31 g/m*3 12.9 C 0 km/h
37 02-11-2010 14:27:00 12.7 C 6.35 g/m*3 12.7 C 0 km/h
38 02-11-2010 14:39:16 12.7 C 6.46 g/m*3 12.7 C 0 km/h
39 02-11-2010 14:51:43 13.1 C 6.39 g/m*3 13.1 C 0 km/h
40 02-11-2010 15:03:00 13.2 C 6.2 g/m*3 13.2 C 0 km/h
41 02-11-2010 15:15:00 13 C 6.24 g/m*3 13 C 0 km/h
42 02-11-2010 15:27:27 13 C 6.35 g/m*3 13 C 0 km/h
43 02-11-2010 15:39:43 12.7 C 6.57 g/m*3 12.7 C 0 km/h
44 02-11-2010 15:51:11 12.7 C 6.57 g/m*3 12.7 C 0 km/h
45 02-11-2010 16:03:11 12.8 C 6.5 g/m*3 12.8 C 0 km/h
46 02-11-2010 16:15:27 12.4 C 6.45 g/m*3 12.4 C 0 km/h
47 02-11-2010 16:27:54 12.2 C 6.47 g/m*3 12.2 C 0 km/h
48 02-11-2010 16:39:10 12.2 C 6.37 g/m*3 12.2 C 0 km/h
49 02-11-2010 16:51:10 12.1 C 6.43 g/m*3 12.1 C 0 km/h
50 02-11-2010 17:03:38 12.2 C 6.47 g/m*3 12.2 C 0 km/h
Sensor: Nr:Datum:Temp:Abs-Feuchte:Windchill:Wind:
Aussen-T/F 51 02-11-2010 17:15:54 11.6 C 6.55 g/m*3 11.6 C 0 km/h
52 02-11-2010 17:27:21 11 C 6.61 g/m*3 11 C 0 km/h
53 02-11-2010 17:39:21 11 C 6.71 g/m*3 11 C 0 km/h
54 02-11-2010 17:51:37 10.9 C 6.66 g/m*3 10.9 C 0 km/h
55 02-11-2010 18:03:05 11 C 6.61 g/m*3 11 C 0 km/h
56 02-11-2010 18:15:05 10.9 C 6.66 g/m*3 10.9 C 0 km/h
57 02-11-2010 18:27:21 11.2 C 6.69 g/m*3 11.2 C 0 km/h
58 02-11-2010 18:39:48 11.4 C 6.67 g/m*3 11.4 C 0 km/h
59 02-11-2010 18:51:05 11.6 C 6.65 g/m*3 11.6 C 0 km/h
60 02-11-2010 19:03:05 11.4 C 6.57 g/m*3 11.4 C 0 km/h
61 02-11-2010 19:15:32 11.5 C 6.71 g/m*3 11.5 C 0 km/h
62 02-11-2010 19:27:48 11.7 C 6.69 g/m*3 11.7 C 0 km/h
63 02-11-2010 19:39:15 11.7 C 6.69 g/m*3 11.7 C 0 km/h
64 02-11-2010 19:51:15 11 C 6.61 g/m*3 11 C 0 km/h
65 02-11-2010 20:03:32 10.5 C 6.79 g/m*3 10.5 C 0 km/h
66 02-11-2010 20:15:00 10.7 C 7.07 g/m*3 10.7 C 0 km/h
67 02-11-2010 20:27:00 11.1 C 7.15 g/m*3 11.1 C 0 km/h
68 02-11-2010 20:39:15 11.3 C 7.04 g/m*3 11.3 C 0 km/h
69 02-11-2010 20:51:02 11.4 C 6.98 g/m*3 11.4 C 0 km/h
70 02-11-2010 21:03:02 11.2 C 6.99 g/m*3 11.2 C 0 km/h
71 02-11-2010 21:15:02 11 C 7.11 g/m*3 11 C 0 km/h
72 02-11-2010 21:27:03 10.8 C 7.22 g/m*3 10.8 C 0 km/h
73 02-11-2010 21:39:02 10.9 C 7.26 g/m*3 10.9 C 0 km/h
74 02-11-2010 21:51:02 10.8 C 7.31 g/m*3 10.8 C 0 km/h
75 02-11-2010 22:03:02 10.8 C 7.41 g/m*3 10.8 C 0 km/h
Sensor: Nr:Datum:Temp:Abs-Feuchte:Windchill:Wind:
Aussen-T/F 76 02-11-2010 22:15:01 11 C 7.41 g/m*3 11 C 0 km/h
77 02-11-2010 22:27:01 11.3 C 7.45 g/m*3 11.3 C 0 km/h
78 02-11-2010 22:39:02 11.2 C 7.4 g/m*3 11.2 C 0 km/h
79 02-11-2010 22:51:02 11.1 C 7.45 g/m*3 11.1 C 0 km/h
80 02-11-2010 23:03:02 11 C 7.51 g/m*3 11 C 0 km/h
81 02-11-2010 23:15:02 11.1 C 7.55 g/m*3 11.1 C 0 km/h
82 02-11-2010 23:27:02 11.5 C 7.64 g/m*3 11.5 C 0 km/h
83 02-11-2010 23:39:02 11.2 C 7.5 g/m*3 11.2 C 0 km/h
84 02-11-2010 23:51:02 10.9 C 7.66 g/m*3 10.9 C 0 km/h
85 03-11-2010 00:03:02 10.8 C 7.71 g/m*3 10.8 C 0 km/h
86 03-11-2010 00:15:02 11.3 C 7.85 g/m*3 11.3 C 0 km/h
87 03-11-2010 00:27:02 11.4 C 7.6 g/m*3 11.4 C 0 km/h
88 03-11-2010 00:39:02 11.4 C 7.49 g/m*3 11.4 C 0 km/h
89 03-11-2010 00:51:02 11.7 C 7.64 g/m*3 11.7 C 0 km/h
90 03-11-2010 01:03:02 10.9 C 7.56 g/m*3 10.9 C 0 km/h
91 03-11-2010 01:15:02 11.4 C 7.6 g/m*3 11.4 C 0 km/h
92 03-11-2010 01:27:02 11 C 7.41 g/m*3 11 C 0 km/h
93 03-11-2010 01:39:02 10.5 C 7.27 g/m*3 10.5 C 0 km/h
94 03-11-2010 01:51:02 10.6 C 7.61 g/m*3 10.6 C 0 km/h
95 03-11-2010 02:03:02 11.4 C 7.7 g/m*3 11.4 C 0 km/h
96 03-11-2010 02:15:01 11.8 C 7.58 g/m*3 11.8 C 0 km/h
97 03-11-2010 02:27:01 12 C 7.57 g/m*3 12 C 0 km/h
98 03-11-2010 02:39:02 11.9 C 7.63 g/m*3 11.9 C 0 km/h
99 03-11-2010 02:52:03 11.3 C 7.34 g/m*3 11.3 C 0 km/h
100 03-11-2010 03:04:03 11.8 C 7.58 g/m*3 11.8 C 0 km/h
Sensor: Nr:Datum:Temp:Abs-Feuchte:Windchill:Wind:
Aussen-T/F 101 03-11-2010 03:16:04 12.1 C 7.29 g/m*3 12.1 C 0 km/h
102 03-11-2010 03:28:04 12.1 C 7.18 g/m*3 12.1 C 0 km/h
103 03-11-2010 03:40:02 12.1 C 7.29 g/m*3 12.1 C 0 km/h
104 03-11-2010 03:52:02 12.2 C 7.34 g/m*3 12.2 C 0 km/h
105 03-11-2010 04:04:02 12.2 C 7.34 g/m*3 12.2 C 0 km/h
106 03-11-2010 04:16:02 12.2 C 7.45 g/m*3 12.2 C 0 km/h
107 03-11-2010 04:28:02 12.6 C 7.63 g/m*3 12.6 C 0 km/h
108 03-11-2010 04:40:02 12.5 C 7.48 g/m*3 12.5 C 0 km/h
109 03-11-2010 04:52:02 12.7 C 7.46 g/m*3 12.7 C 0 km/h
110 03-11-2010 05:04:03 12.8 C 7.5 g/m*3 12.8 C 0 km/h
111 03-11-2010 05:16:02 12.7 C 7.46 g/m*3 12.7 C 0 km/h
112 03-11-2010 05:28:02 12.7 C 7.46 g/m*3 12.7 C 0 km/h
113 03-11-2010 05:40:02 12.8 C 7.5 g/m*3 12.8 C 0 km/h
114 03-11-2010 05:52:01 12.6 C 7.52 g/m*3 12.6 C 0 km/h
115 03-11-2010 06:04:01 12.7 C 7.57 g/m*3 12.7 C 0 km/h
116 03-11-2010 06:16:02 12.6 C 7.63 g/m*3 12.6 C 0 km/h
117 03-11-2010 06:28:02 12.7 C 7.57 g/m*3 12.7 C 0 km/h
118 03-11-2010 06:40:01 12.6 C 7.63 g/m*3 12.6 C 0 km/h
119 03-11-2010 06:52:01 12.7 C 7.68 g/m*3 12.7 C 0 km/h
120 03-11-2010 07:04:01 12.7 C 7.68 g/m*3 12.7 C 0 km/h
121 03-11-2010 07:16:02 12.6 C 7.63 g/m*3 12.6 C 0 km/h
122 03-11-2010 07:28:02 12.8 C 7.73 g/m*3 12.8 C 0 km/h
123 03-11-2010 07:40:01 12.9 C 7.66 g/m*3 12.9 C 0 km/h
124 03-11-2010 07:52:02 12.8 C 7.62 g/m*3 12.8 C 0 km/h
125 03-11-2010 08:04:02 13 C 7.6 g/m*3 13 C 0 km/h
Sensor: Nr:Datum:Temp:Abs-Feuchte:Windchill:Wind:
Aussen-T/F 126 03-11-2010 08:16:02 13.2 C 7.58 g/m*3 13.2 C 0 km/h
127 03-11-2010 08:28:02 13.3 C 7.51 g/m*3 13.3 C 0 km/h
128 03-11-2010 08:40:01 13.4 C 7.56 g/m*3 13.4 C 0 km/h
129 03-11-2010 08:52:02 13.5 C 7.6 g/m*3 13.5 C 0 km/h
130 03-11-2010 09:04:01 13.6 C 7.65 g/m*3 13.6 C 0 km/h
131 03-11-2010 09:16:01 13.7 C 7.7 g/m*3 13.7 C 0 km/h
132 03-11-2010 09:28:01 13.7 C 7.58 g/m*3 13.7 C 0 km/h
133 03-11-2010 09:40:02 14 C 7.6 g/m*3 14 C 0 km/h
134 03-11-2010 09:52:02 13.9 C 7.67 g/m*3 13.9 C 0 km/h
135 03-11-2010 10:04:03 14 C 7.6 g/m*3 14 C 0 km/h
136 03-11-2010 10:16:02 14.2 C 7.57 g/m*3 14.2 C 0 km/h
137 03-11-2010 10:28:02 14.2 C 7.57 g/m*3 14.2 C 0 km/h
138 03-11-2010 10:40:01 14.3 C 7.49 g/m*3 14.3 C 0 km/h
139 03-11-2010 10:52:02 14.3 C 7.49 g/m*3 14.3 C 0 km/h
140 03-11-2010 11:04:01 14.4 C 7.54 g/m*3 14.4 C 0 km/h
141 03-11-2010 11:16:02 14.4 C 7.54 g/m*3 14.4 C 0 km/h
142 03-11-2010 11:28:02 14.6 C 7.76 g/m*3 14.6 C 0 km/h
143 03-11-2010 11:40:01 14.4 C 7.66 g/m*3 14.4 C 0 km/h
144 03-11-2010 11:52:02 14.3 C 7.74 g/m*3 14.3 C 0 km/h
145 03-11-2010 12:04:02 14.1 C 7.65 g/m*3 14.1 C 0 km/h
146 03-11-2010 12:16:02 14.1 C 7.77 g/m*3 14.1 C 0 km/h
147 03-11-2010 12:28:02 14 C 7.72 g/m*3 14 C 0 km/h
148 03-11-2010 12:40:02 13.8 C 7.74 g/m*3 13.8 C 0 km/h
149 03-11-2010 12:52:02 13.7 C 7.82 g/m*3 13.7 C 0 km/h
150 03-11-2010 13:04:02 13.6 C 7.77 g/m*3 13.6 C 0 km/h
Sensor: Nr:Datum:Temp:Abs-Feuchte:Windchill:Wind:
Aussen-T/F 151 03-11-2010 13:16:01 13.5 C 7.84 g/m*3 13.5 C 0 km/h
152 03-11-2010 13:28:01 13.6 C 7.89 g/m*3 13.6 C 0 km/h
153 03-11-2010 13:40:02 13.5 C 7.84 g/m*3 13.5 C 0 km/h
154 03-11-2010 13:52:02 13.5 C 7.84 g/m*3 13.5 C 0 km/h
155 03-11-2010 14:04:02 13.5 C 7.95 g/m*3 13.5 C 0 km/h
156 03-11-2010 14:16:01 13.7 C 7.93 g/m*3 13.7 C 0 km/h
157 03-11-2010 14:28:01 13.6 C 7.89 g/m*3 13.6 C 0 km/h
158 03-11-2010 14:40:02 13.7 C 7.93 g/m*3 13.7 C 0 km/h
159 03-11-2010 14:52:02 13.8 C 7.98 g/m*3 13.8 C 0 km/h
160 03-11-2010 15:04:02 13.8 C 7.98 g/m*3 13.8 C 0 km/h
161 03-11-2010 15:16:02 13.8 C 8.1 g/m*3 13.8 C 0 km/h
162 03-11-2010 15:28:02 13.8 C 8.1 g/m*3 13.8 C 0 km/h
163 03-11-2010 15:40:02 13.8 C 8.1 g/m*3 13.8 C 0 km/h
164 03-11-2010 15:52:02 13.7 C 8.05 g/m*3 13.7 C 0 km/h
165 03-11-2010 16:04:02 13.7 C 8.17 g/m*3 13.7 C 0 km/h
166 03-11-2010 16:16:02 13.7 C 8.17 g/m*3 13.7 C 0 km/h
167 03-11-2010 16:28:02 13.4 C 8.02 g/m*3 13.4 C 0 km/h
168 03-11-2010 16:40:02 13.4 C 8.14 g/m*3 13.4 C 0 km/h
169 03-11-2010 16:52:01 13.1 C 7.99 g/m*3 13.1 C 0 km/h
170 03-11-2010 17:04:01 13.1 C 8.33 g/m*3 13.1 C 0 km/h
171 03-11-2010 17:16:02 13 C 8.17 g/m*3 13 C 0 km/h
172 03-11-2010 17:28:02 13 C 8.17 g/m*3 13 C 0 km/h
173 03-11-2010 17:40:01 13.1 C 8.1 g/m*3 13.1 C 0 km/h
174 03-11-2010 17:52:02 13.1 C 8.22 g/m*3 13.1 C 0 km/h
175 03-11-2010 18:04:02 12.8 C 8.29 g/m*3 12.8 C 0 km/h
Sensor: Nr:Datum:Temp:Abs-Feuchte:Windchill:Wind:
Aussen-T/F 176 03-11-2010 18:16:03 12.7 C 8.35 g/m*3 12.7 C 0 km/h
177 03-11-2010 18:28:03 12.5 C 8.25 g/m*3 12.5 C 0 km/h
178 03-11-2010 18:40:02 12.6 C 8.3 g/m*3 12.6 C 0 km/h
179 03-11-2010 18:52:02 12.7 C 8.35 g/m*3 12.7 C 0 km/h
180 03-11-2010 19:04:02 12.7 C 8.35 g/m*3 12.7 C 0 km/h
181 03-11-2010 19:16:02 12.8 C 8.29 g/m*3 12.8 C 0 km/h
182 03-11-2010 19:28:02 13 C 8.17 g/m*3 13 C 0 km/h
183 03-11-2010 19:40:02 13.3 C 8.32 g/m*3 13.3 C 0 km/h
184 03-11-2010 19:52:02 13 C 8.17 g/m*3 13 C 0 km/h
185 03-11-2010 20:04:01 13.2 C 8.15 g/m*3 13.2 C 0 km/h
186 03-11-2010 20:16:02 13.3 C 8.32 g/m*3 13.3 C 0 km/h
187 03-11-2010 20:28:02 13.4 C 8.25 g/m*3 13.4 C 0 km/h
188 03-11-2010 20:40:02 13.5 C 8.19 g/m*3 13.5 C 0 km/h
189 03-11-2010 20:52:01 13.5 C 8.07 g/m*3 13.5 C 0 km/h
190 03-11-2010 21:04:02 13.5 C 8.19 g/m*3 13.5 C 0 km/h
191 03-11-2010 21:16:01 13.5 C 8.19 g/m*3 13.5 C 0 km/h
192 03-11-2010 21:28:01 13.6 C 8.12 g/m*3 13.6 C 0 km/h
193 03-11-2010 21:40:02 13.3 C 8.09 g/m*3 13.3 C 0 km/h
194 03-11-2010 21:53:23 13.8 C 8.22 g/m*3 13.8 C 0 km/h
195 03-11-2010 22:05:23 13.9 C 8.15 g/m*3 13.9 C 0 km/h
196 03-11-2010 22:17:23 14 C 8.08 g/m*3 14 C 0 km/h
197 03-11-2010 22:29:23 14.2 C 8.18 g/m*3 14.2 C 0 km/h
198 03-11-2010 22:41:23 14.2 C 8.18 g/m*3 14.2 C 0 km/h
199 03-11-2010 22:53:23 14.2 C 8.18 g/m*3 14.2 C 0 km/h
200 03-11-2010 23:05:23 14.2 C 8.18 g/m*3 14.2 C 0 km/h
Sensor: Nr:Datum:Temp:Abs-Feuchte:Windchill:Wind:
Aussen-T/F 201 03-11-2010 23:17:23 14.2 C 8.3 g/m*3 14.2 C 0 km/h
202 03-11-2010 23:29:23 14.2 C 8.43 g/m*3 14.2 C 0 km/h
203 03-11-2010 23:41:23 14.2 C 8.55 g/m*3 14.2 C 0 km/h
204 03-11-2010 23:53:23 14.2 C 8.55 g/m*3 14.2 C 0 km/h
205 04-11-2010 00:05:23 14.2 C 8.67 g/m*3 14.2 C 0 km/h
206 04-11-2010 00:17:23 14.2 C 8.67 g/m*3 14.2 C 0 km/h
207 04-11-2010 00:29:24 14.1 C 8.74 g/m*3 14.1 C 0 km/h
208 04-11-2010 00:41:24 14.4 C 8.9 g/m*3 14.4 C 0 km/h
209 04-11-2010 00:53:24 14.6 C 8.88 g/m*3 14.6 C 0 km/h
210 04-11-2010 01:05:24 14.7 C 9.07 g/m*3 14.7 C 0 km/h
211 04-11-2010 01:17:24 14.7 C 9.07 g/m*3 14.7 C 0 km/h
212 04-11-2010 01:29:24 14.8 C 8.99 g/m*3 14.8 C 0 km/h
213 04-11-2010 01:41:24 14.8 C 9.12 g/m*3 14.8 C 0 km/h
214 04-11-2010 01:53:24 14.7 C 9.07 g/m*3 14.7 C 0 km/h
215 04-11-2010 02:05:24 14.8 C 9.12 g/m*3 14.8 C 0 km/h
216 04-11-2010 02:17:24 14.9 C 9.18 g/m*3 14.9 C 0 km/h
217 04-11-2010 02:29:24 15 C 8.98 g/m*3 15 C 0 km/h
218 04-11-2010 02:41:24 15.1 C 9.03 g/m*3 15.1 C 0 km/h
219 04-11-2010 02:53:24 15 C 8.98 g/m*3 15 C 0 km/h
220 04-11-2010 03:05:24 15.1 C 9.03 g/m*3 15.1 C 0 km/h
221 04-11-2010 03:17:24 15.2 C 9.09 g/m*3 15.2 C 0 km/h
222 04-11-2010 03:29:24 15.1 C 9.16 g/m*3 15.1 C 0 km/h
223 04-11-2010 03:41:24 15.2 C 9.09 g/m*3 15.2 C 0 km/h
224 04-11-2010 03:53:24 15.2 C 9.22 g/m*3 15.2 C 0 km/h
225 04-11-2010 04:05:24 15.2 C 9.22 g/m*3 15.2 C 0 km/h
Sensor: Nr:Datum:Temp:Abs-Feuchte:Windchill:Wind:
Aussen-T/F 226 04-11-2010 04:17:24 15.1 C 9.29 g/m*3 15.1 C 0 km/h
227 04-11-2010 04:29:24 15.2 C 9.35 g/m*3 15.2 C 0 km/h
228 04-11-2010 04:41:25 15.3 C 9.27 g/m*3 15.3 C 0 km/h
229 04-11-2010 04:53:25 15.3 C 9.4 g/m*3 15.3 C 0 km/h
230 04-11-2010 05:05:25 15.4 C 9.33 g/m*3 15.4 C 0 km/h
231 04-11-2010 05:17:25 15.5 C 9.39 g/m*3 15.5 C 0 km/h
232 04-11-2010 05:29:25 15.6 C 9.44 g/m*3 15.6 C 0 km/h
233 04-11-2010 05:41:25 15.6 C 9.44 g/m*3 15.6 C 0 km/h
234 04-11-2010 05:53:25 15.6 C 9.44 g/m*3 15.6 C 0 km/h
235 04-11-2010 06:05:25 15.7 C 9.5 g/m*3 15.7 C 0 km/h
236 04-11-2010 06:17:25 15.7 C 9.63 g/m*3 15.7 C 0 km/h
237 04-11-2010 06:29:25 15.6 C 9.58 g/m*3 15.6 C 0 km/h
238 04-11-2010 06:41:25 15.8 C 9.69 g/m*3 15.8 C 0 km/h
239 04-11-2010 06:53:25 15.7 C 9.63 g/m*3 15.7 C 0 km/h
240 04-11-2010 07:05:25 15.7 C 9.63 g/m*3 15.7 C 0 km/h
241 04-11-2010 07:17:03 15.8 C 9.56 g/m*3 15.8 C 0 km/h
242 04-11-2010 07:29:03 16.1 C 9.6 g/m*3 16.1 C 0 km/h
243 04-11-2010 07:41:02 16 C 9.4 g/m*3 16 C 0 km/h
244 04-11-2010 07:53:02 16 C 9.4 g/m*3 16 C 0 km/h
245 04-11-2010 08:05:01 16.1 C 9.46 g/m*3 16.1 C 0 km/h
246 04-11-2010 08:17:02 16.1 C 9.46 g/m*3 16.1 C 0 km/h
247 04-11-2010 08:29:03 16.2 C 9.52 g/m*3 16.2 C 0 km/h
248 04-11-2010 08:41:01 16.2 C 9.38 g/m*3 16.2 C 0 km/h
249 04-11-2010 08:53:02 16.4 C 9.35 g/m*3 16.4 C 0 km/h
250 04-11-2010 09:05:02 16.6 C 9.18 g/m*3 16.6 C 0 km/h
Sensor: Nr:Datum:Temp:Abs-Feuchte:Windchill:Wind:
Aussen-T/F 251 04-11-2010 09:17:02 16.6 C 9.04 g/m*3 16.6 C 0 km/h
252 04-11-2010 09:29:02 16.6 C 9.04 g/m*3 16.6 C 0 km/h
253 04-11-2010 09:41:02 16.6 C 9.04 g/m*3 16.6 C 0 km/h
254 04-11-2010 09:53:02 16.8 C 9.01 g/m*3 16.8 C 0 km/h
255 04-11-2010 10:05:02 17 C 8.97 g/m*3 17 C 0 km/h
256 04-11-2010 10:17:01 17.1 C 8.88 g/m*3 17.1 C 0 km/h
257 04-11-2010 10:29:01 17.3 C 8.84 g/m*3 17.3 C 0 km/h
258 04-11-2010 10:41:02 17.5 C 8.8 g/m*3 17.5 C 0 km/h
259 04-11-2010 10:53:02 17.3 C 8.69 g/m*3 17.3 C 0 km/h
260 04-11-2010 11:05:02 17.5 C 8.65 g/m*3 17.5 C 0 km/h
261 04-11-2010 11:17:01 17.7 C 8.6 g/m*3 17.7 C 0 km/h
262 04-11-2010 11:29:01 17.8 C 8.5 g/m*3 17.8 C 0 km/h
263 04-11-2010 11:41:02 18 C 8.29 g/m*3 18 C 0 km/h
264 04-11-2010 11:53:02 18.1 C 8.19 g/m*3 18.1 C 0 km/h
265 04-11-2010 12:05:02 18.3 C 8.13 g/m*3 18.3 C 0 km/h
266 04-11-2010 12:17:02 18.5 C 8.23 g/m*3 18.5 C 0 km/h
267 04-11-2010 12:29:02 18.5 C 8.23 g/m*3 18.5 C 0 km/h
268 04-11-2010 12:41:02 18.3 C 8.13 g/m*3 18.3 C 0 km/h
269 04-11-2010 12:53:02 18.6 C 8.12 g/m*3 18.6 C 0 km/h
270 04-11-2010 13:05:02 18.7 C 8.17 g/m*3 18.7 C 0 km/h
271 04-11-2010 13:17:02 18.5 C 8.23 g/m*3 18.5 C 0 km/h
272 04-11-2010 13:29:02 18.5 C 8.23 g/m*3 18.5 C 0 km/h
273 04-11-2010 13:41:01 18.5 C 8.23 g/m*3 18.5 C 0 km/h
274 04-11-2010 13:53:02 18.5 C 8.07 g/m*3 18.5 C 0 km/h
275 04-11-2010 14:05:01 18.3 C 7.97 g/m*3 18.3 C 0 km/h
Sensor: Nr:Datum:Temp:Abs-Feuchte:Windchill:Wind:
Aussen-T/F 276 04-11-2010 14:17:02 18.3 C 7.97 g/m*3 18.3 C 0 km/h
277 04-11-2010 14:29:02 18.5 C 8.07 g/m*3 18.5 C 0 km/h
278 04-11-2010 14:41:02 18.6 C 7.96 g/m*3 18.6 C 0 km/h
279 04-11-2010 14:53:02 18.5 C 8.07 g/m*3 18.5 C 0 km/h
280 04-11-2010 15:05:02 18.4 C 8.02 g/m*3 18.4 C 0 km/h
281 04-11-2010 15:17:02 18.4 C 8.18 g/m*3 18.4 C 0 km/h
282 04-11-2010 15:29:02 18.4 C 8.18 g/m*3 18.4 C 0 km/h
283 04-11-2010 15:41:02 18.1 C 8.03 g/m*3 18.1 C 0 km/h
284 04-11-2010 15:53:02 17.9 C 8.24 g/m*3 17.9 C 0 km/h
285 04-11-2010 16:05:02 17.9 C 8.4 g/m*3 17.9 C 0 km/h
286 04-11-2010 16:17:01 17.7 C 8.45 g/m*3 17.7 C 0 km/h
287 04-11-2010 16:29:01 17.5 C 8.5 g/m*3 17.5 C 0 km/h
288 04-11-2010 16:41:02 17.4 C 8.45 g/m*3 17.4 C 0 km/h
289 04-11-2010 16:53:02 17.1 C 8.3 g/m*3 17.1 C 0 km/h
290 04-11-2010 17:05:02 17.1 C 8.44 g/m*3 17.1 C 0 km/h
291 04-11-2010 17:17:01 16.8 C 8.44 g/m*3 16.8 C 0 km/h
292 04-11-2010 17:29:01 16.9 C 8.49 g/m*3 16.9 C 0 km/h
293 04-11-2010 17:41:02 16.8 C 8.44 g/m*3 16.8 C 0 km/h
294 04-11-2010 17:53:01 17 C 8.39 g/m*3 17 C 0 km/h
295 04-11-2010 18:05:02 16.7 C 8.38 g/m*3 16.7 C 0 km/h
296 04-11-2010 18:17:02 16.8 C 8.44 g/m*3 16.8 C 0 km/h
297 04-11-2010 18:29:02 16.8 C 8.44 g/m*3 16.8 C 0 km/h
298 04-11-2010 18:41:01 16.8 C 8.44 g/m*3 16.8 C 0 km/h
299 04-11-2010 18:53:02 16.8 C 8.44 g/m*3 16.8 C 0 km/h
300 04-11-2010 19:05:02 16.9 C 8.49 g/m*3 16.9 C 0 km/h
Sensor: Nr:Datum:Temp:Abs-Feuchte:Windchill:Wind:
Aussen-T/F 301 04-11-2010 19:17:02 16.9 C 8.49 g/m*3 16.9 C 0 km/h
302 04-11-2010 19:29:02 16.9 C 8.49 g/m*3 16.9 C 0 km/h
303 04-11-2010 19:41:01 16.9 C 8.49 g/m*3 16.9 C 0 km/h
304 04-11-2010 19:53:01 17 C 8.39 g/m*3 17 C 0 km/h
305 04-11-2010 20:05:02 16.5 C 8.28 g/m*3 16.5 C 0 km/h
306 04-11-2010 20:17:02 16.3 C 8.05 g/m*3 16.3 C 0 km/h
307 04-11-2010 20:29:02 16.1 C 8.09 g/m*3 16.1 C 0 km/h
308 04-11-2010 20:41:01 15.9 C 8.13 g/m*3 15.9 C 0 km/h
309 04-11-2010 20:53:01 15.8 C 8.08 g/m*3 15.8 C 0 km/h
310 04-11-2010 21:05:02 15.8 C 8.08 g/m*3 15.8 C 0 km/h
311 04-11-2010 21:17:01 15.9 C 8.13 g/m*3 15.9 C 0 km/h
312 04-11-2010 21:29:01 15.8 C 8.08 g/m*3 15.8 C 0 km/h
313 04-11-2010 21:41:02 15.7 C 8.03 g/m*3 15.7 C 0 km/h
314 04-11-2010 21:53:02 15.5 C 7.93 g/m*3 15.5 C 0 km/h
315 04-11-2010 22:05:02 15.4 C 7.88 g/m*3 15.4 C 0 km/h
316 04-11-2010 22:18:04 15.4 C 7.88 g/m*3 15.4 C 0 km/h
317 04-11-2010 22:30:04 15.4 C 7.88 g/m*3 15.4 C 0 km/h
318 04-11-2010 22:42:04 15.4 C 7.88 g/m*3 15.4 C 0 km/h
319 04-11-2010 22:54:04 15.3 C 7.84 g/m*3 15.3 C 0 km/h
320 04-11-2010 23:06:04 15.4 C 7.88 g/m*3 15.4 C 0 km/h
321 04-11-2010 23:18:04 15.3 C 7.84 g/m*3 15.3 C 0 km/h
322 04-11-2010 23:30:04 15.4 C 7.88 g/m*3 15.4 C 0 km/h
323 04-11-2010 23:42:04 15.4 C 7.88 g/m*3 15.4 C 0 km/h
324 04-11-2010 23:54:05 15.5 C 7.93 g/m*3 15.5 C 0 km/h
325 05-11-2010 00:06:05 15.5 C 7.93 g/m*3 15.5 C 0 km/h
Sensor: Nr:Datum:Temp:Abs-Feuchte:Windchill:Wind:
Aussen-T/F 326 05-11-2010 00:18:05 15.4 C 7.88 g/m*3 15.4 C 0 km/h
327 05-11-2010 00:30:05 15.3 C 7.84 g/m*3 15.3 C 0 km/h
328 05-11-2010 00:42:05 15.2 C 7.92 g/m*3 15.2 C 0 km/h
329 05-11-2010 00:54:05 15.3 C 7.84 g/m*3 15.3 C 0 km/h
330 05-11-2010 01:06:05 15.2 C 7.79 g/m*3 15.2 C 0 km/h
331 05-11-2010 01:18:05 15.2 C 7.53 g/m*3 15.2 C 0 km/h
332 05-11-2010 01:30:05 15.2 C 7.4 g/m*3 15.2 C 0 km/h
333 05-11-2010 01:42:05 15.1 C 7.48 g/m*3 15.1 C 0 km/h
334 05-11-2010 01:54:05 15 C 7.44 g/m*3 15 C 0 km/h
335 05-11-2010 02:06:05 14.9 C 7.52 g/m*3 14.9 C 0 km/h
336 05-11-2010 02:18:05 14.9 C 7.39 g/m*3 14.9 C 0 km/h
337 05-11-2010 02:30:05 14.7 C 7.43 g/m*3 14.7 C 0 km/h
338 05-11-2010 02:42:05 14.7 C 7.43 g/m*3 14.7 C 0 km/h
339 05-11-2010 02:54:05 14.5 C 7.46 g/m*3 14.5 C 0 km/h
340 05-11-2010 03:06:05 14.5 C 7.46 g/m*3 14.5 C 0 km/h
341 05-11-2010 03:18:05 14.6 C 7.38 g/m*3 14.6 C 0 km/h
342 05-11-2010 03:30:05 14.4 C 7.42 g/m*3 14.4 C 0 km/h
343 05-11-2010 03:42:05 14.4 C 7.29 g/m*3 14.4 C 0 km/h
344 05-11-2010 03:54:05 14.4 C 7.29 g/m*3 14.4 C 0 km/h
345 05-11-2010 04:06:05 14.4 C 7.29 g/m*3 14.4 C 0 km/h
346 05-11-2010 04:18:05 14.2 C 7.33 g/m*3 14.2 C 0 km/h
347 05-11-2010 04:30:06 14.1 C 7.4 g/m*3 14.1 C 0 km/h
348 05-11-2010 04:42:06 14.1 C 7.4 g/m*3 14.1 C 0 km/h
349 05-11-2010 04:54:06 14.2 C 7.45 g/m*3 14.2 C 0 km/h
350 05-11-2010 05:06:06 14.1 C 7.28 g/m*3 14.1 C 0 km/h
Sensor: Nr:Datum:Temp:Abs-Feuchte:Windchill:Wind:
Aussen-T/F 351 05-11-2010 05:18:06 14 C 7.24 g/m*3 14 C 0 km/h
352 05-11-2010 05:30:06 14.3 C 7.25 g/m*3 14.3 C 0 km/h
353 05-11-2010 05:42:06 14.2 C 7.08 g/m*3 14.2 C 0 km/h
354 05-11-2010 05:54:06 14.1 C 7.04 g/m*3 14.1 C 0 km/h
355 05-11-2010 06:06:06 14 C 7 g/m*3 14 C 0 km/h
356 05-11-2010 06:18:06 13.9 C 7.19 g/m*3 13.9 C 0 km/h
357 05-11-2010 06:30:06 13.8 C 7.15 g/m*3 13.8 C 0 km/h
358 05-11-2010 06:42:06 13.8 C 7.15 g/m*3 13.8 C 0 km/h
359 05-11-2010 06:54:02 13.6 C 7.18 g/m*3 13.6 C 0 km/h
360 05-11-2010 07:06:02 13.5 C 7.02 g/m*3 13.5 C 0 km/h
361 05-11-2010 07:18:02 13.3 C 7.05 g/m*3 13.3 C 0 km/h
362 05-11-2010 07:30:02 13.5 C 6.9 g/m*3 13.5 C 0 km/h
363 05-11-2010 07:42:02 13.5 C 6.9 g/m*3 13.5 C 0 km/h
364 05-11-2010 07:54:02 13.5 C 6.9 g/m*3 13.5 C 0 km/h
365 05-11-2010 08:06:02 13.5 C 6.78 g/m*3 13.5 C 0 km/h
366 05-11-2010 08:18:02 13.7 C 6.63 g/m*3 13.7 C 0 km/h
367 05-11-2010 08:30:02 14 C 6.51 g/m*3 14 C 0 km/h
368 05-11-2010 08:42:02 14.1 C 6.55 g/m*3 14.1 C 0 km/h
369 05-11-2010 08:54:02 14.1 C 6.55 g/m*3 14.1 C 0 km/h
370 05-11-2010 09:06:02 14.2 C 6.59 g/m*3 14.2 C 0 km/h
371 05-11-2010 09:18:01 14.4 C 6.68 g/m*3 14.4 C 0 km/h
372 05-11-2010 09:30:01 14.6 C 6.76 g/m*3 14.6 C 0 km/h
373 05-11-2010 09:42:02 14.7 C 6.8 g/m*3 14.7 C 0 km/h
374 05-11-2010 09:54:02 14.7 C 6.8 g/m*3 14.7 C 0 km/h
375 05-11-2010 10:06:02 14.8 C 6.84 g/m*3 14.8 C 0 km/h
Sensor: Nr:Datum:Temp:Abs-Feuchte:Windchill:Wind:
Aussen-T/F 376 05-11-2010 10:18:02 14.9 C 6.88 g/m*3 14.9 C 0 km/h
377 05-11-2010 10:30:02 15 C 6.8 g/m*3 15 C 0 km/h
378 05-11-2010 10:42:02 15 C 6.92 g/m*3 15 C 0 km/h
379 05-11-2010 10:54:01 14.8 C 6.97 g/m*3 14.8 C 0 km/h
380 05-11-2010 11:06:01 14.7 C 7.05 g/m*3 14.7 C 0 km/h
381 05-11-2010 11:18:01 15 C 6.92 g/m*3 15 C 0 km/h
382 05-11-2010 11:30:01 15.6 C 7.05 g/m*3 15.6 C 0 km/h
383 05-11-2010 11:42:02 15.5 C 7.01 g/m*3 15.5 C 0 km/h
384 05-11-2010 11:54:02 15.3 C 6.92 g/m*3 15.3 C 0 km/h
385 05-11-2010 12:06:01 15.4 C 6.96 g/m*3 15.4 C 0 km/h
386 05-11-2010 12:18:02 15 C 7.05 g/m*3 15 C 0 km/h
387 05-11-2010 12:30:02 15.1 C 7.1 g/m*3 15.1 C 0 km/h
388 05-11-2010 12:42:02 15.2 C 7.14 g/m*3 15.2 C 0 km/h
389 05-11-2010 12:54:02 15 C 7.18 g/m*3 15 C 0 km/h
390 05-11-2010 13:06:01 15 C 7.05 g/m*3 15 C 0 km/h
391 05-11-2010 13:18:01 15 C 7.05 g/m*3 15 C 0 km/h
392 05-11-2010 13:30:01 15.2 C 7.14 g/m*3 15.2 C 0 km/h
393 05-11-2010 13:42:01 15.1 C 7.1 g/m*3 15.1 C 0 km/h
394 05-11-2010 13:54:02 15.2 C 7.14 g/m*3 15.2 C 0 km/h
395 05-11-2010 14:06:02 14.9 C 7.26 g/m*3 14.9 C 0 km/h
396 05-11-2010 14:18:02 14.7 C 7.43 g/m*3 14.7 C 0 km/h
397 05-11-2010 14:30:02 14.8 C 7.47 g/m*3 14.8 C 0 km/h
398 05-11-2010 14:42:01 14.8 C 7.35 g/m*3 14.8 C 0 km/h
399 05-11-2010 14:54:01 14.8 C 7.47 g/m*3 14.8 C 0 km/h
400 05-11-2010 15:06:02 14.7 C 7.43 g/m*3 14.7 C 0 km/h
Sensor: Nr:Datum:Temp:Abs-Feuchte:Windchill:Wind:
Aussen-T/F 401 05-11-2010 15:18:02 14.7 C 7.55 g/m*3 14.7 C 0 km/h
402 05-11-2010 15:30:02 14.7 C 7.43 g/m*3 14.7 C 0 km/h
403 05-11-2010 15:42:02 14.4 C 7.54 g/m*3 14.4 C 0 km/h
404 05-11-2010 15:54:01 14.5 C 7.46 g/m*3 14.5 C 0 km/h
405 05-11-2010 16:06:02 14.6 C 7.51 g/m*3 14.6 C 0 km/h
406 05-11-2010 16:18:01 14.6 C 7.51 g/m*3 14.6 C 0 km/h
407 05-11-2010 16:30:01 14.6 C 7.51 g/m*3 14.6 C 0 km/h
408 05-11-2010 16:42:02 14.5 C 7.46 g/m*3 14.5 C 0 km/h
409 05-11-2010 16:54:01 14.5 C 7.46 g/m*3 14.5 C 0 km/h
410 05-11-2010 17:06:02 14.5 C 7.59 g/m*3 14.5 C 0 km/h
411 05-11-2010 17:18:01 14.6 C 7.51 g/m*3 14.6 C 0 km/h
412 05-11-2010 17:30:01 14.7 C 7.55 g/m*3 14.7 C 0 km/h
413 05-11-2010 17:42:02 14.7 C 7.55 g/m*3 14.7 C 0 km/h
414 05-11-2010 17:54:02 14.7 C 7.55 g/m*3 14.7 C 0 km/h
415 05-11-2010 18:06:02 14.7 C 7.55 g/m*3 14.7 C 0 km/h
416 05-11-2010 18:18:02 14.7 C 7.55 g/m*3 14.7 C 0 km/h
417 05-11-2010 18:30:02 14.8 C 7.6 g/m*3 14.8 C 0 km/h
418 05-11-2010 18:42:02 14.8 C 7.6 g/m*3 14.8 C 0 km/h
419 05-11-2010 18:54:02 14.8 C 7.6 g/m*3 14.8 C 0 km/h
420 05-11-2010 19:06:02 14.6 C 7.51 g/m*3 14.6 C 0 km/h
421 05-11-2010 19:18:02 14.4 C 7.54 g/m*3 14.4 C 0 km/h
422 05-11-2010 19:30:02 14.2 C 7.57 g/m*3 14.2 C 0 km/h
423 05-11-2010 19:42:02 14.3 C 7.62 g/m*3 14.3 C 0 km/h
424 05-11-2010 19:54:01 14.3 C 7.62 g/m*3 14.3 C 0 km/h
425 05-11-2010 20:06:02 14.3 C 7.62 g/m*3 14.3 C 0 km/h
Sensor: Nr:Datum:Temp:Abs-Feuchte:Windchill:Wind:
Aussen-T/F 426 05-11-2010 20:18:01 14.4 C 7.54 g/m*3 14.4 C 0 km/h
427 05-11-2010 20:30:01 14.5 C 7.59 g/m*3 14.5 C 0 km/h
428 05-11-2010 20:42:02 14.5 C 7.59 g/m*3 14.5 C 0 km/h
429 05-11-2010 20:54:02 14.5 C 7.59 g/m*3 14.5 C 0 km/h
430 05-11-2010 21:06:02 14.4 C 7.54 g/m*3 14.4 C 0 km/h
431 05-11-2010 21:18:02 14.2 C 7.57 g/m*3 14.2 C 0 km/h
432 05-11-2010 21:30:02 14.3 C 7.62 g/m*3 14.3 C 0 km/h
433 05-11-2010 21:42:02 14.1 C 7.65 g/m*3 14.1 C 0 km/h
434 05-11-2010 21:54:02 14.4 C 7.66 g/m*3 14.4 C 0 km/h
435 05-11-2010 22:06:02 14.2 C 7.57 g/m*3 14.2 C 0 km/h
436 05-11-2010 22:18:01 14.2 C 7.57 g/m*3 14.2 C 0 km/h
437 05-11-2010 22:30:01 14.1 C 7.52 g/m*3 14.1 C 0 km/h
438 05-11-2010 22:42:02 13.9 C 7.67 g/m*3 13.9 C 0 km/h
439 05-11-2010 22:54:02 13.7 C 7.58 g/m*3 13.7 C 0 km/h
440 05-11-2010 23:06:02 13.6 C 7.65 g/m*3 13.6 C 0 km/h
441 05-11-2010 23:18:02 14 C 7.6 g/m*3 14 C 0 km/h
442 05-11-2010 23:30:02 14 C 7.6 g/m*3 14 C 0 km/h
443 05-11-2010 23:42:02 14.1 C 7.52 g/m*3 14.1 C 0 km/h
444 05-11-2010 23:54:02 14 C 7.48 g/m*3 14 C 0 km/h
445 06-11-2010 00:06:01 13.9 C 7.67 g/m*3 13.9 C 0 km/h
446 06-11-2010 00:18:01 14.1 C 7.52 g/m*3 14.1 C 0 km/h
447 06-11-2010 00:30:01 14 C 7.6 g/m*3 14 C 0 km/h
448 06-11-2010 00:42:02 14.1 C 7.52 g/m*3 14.1 C 0 km/h
449 06-11-2010 00:54:02 14.1 C 7.52 g/m*3 14.1 C 0 km/h
450 06-11-2010 01:06:02 14 C 7.6 g/m*3 14 C 0 km/h
Sensor: Nr:Datum:Temp:Abs-Feuchte:Windchill:Wind:
Aussen-T/F 451 06-11-2010 01:18:02 14.1 C 7.65 g/m*3 14.1 C 0 km/h
452 06-11-2010 01:30:02 14.1 C 7.52 g/m*3 14.1 C 0 km/h
453 06-11-2010 01:42:02 14 C 7.6 g/m*3 14 C 0 km/h
454 06-11-2010 01:54:01 13.9 C 7.67 g/m*3 13.9 C 0 km/h
455 06-11-2010 02:06:02 13.9 C 7.67 g/m*3 13.9 C 0 km/h
456 06-11-2010 02:18:01 13.7 C 7.7 g/m*3 13.7 C 0 km/h
457 06-11-2010 02:30:01 13.3 C 7.63 g/m*3 13.3 C 0 km/h
458 06-11-2010 02:42:02 13.1 C 7.65 g/m*3 13.1 C 0 km/h
459 06-11-2010 02:55:03 12.9 C 7.78 g/m*3 12.9 C 0 km/h
460 06-11-2010 03:07:03 12.9 C 7.89 g/m*3 12.9 C 0 km/h
461 06-11-2010 03:19:03 13 C 7.94 g/m*3 13 C 0 km/h
462 06-11-2010 03:31:03 13 C 7.94 g/m*3 13 C 0 km/h
463 06-11-2010 03:43:03 12.8 C 8.06 g/m*3 12.8 C 0 km/h
464 06-11-2010 03:55:03 12.8 C 8.06 g/m*3 12.8 C 0 km/h
465 06-11-2010 04:07:02 12.7 C 8.13 g/m*3 12.7 C 0 km/h
466 06-11-2010 04:19:02 12.7 C 8.13 g/m*3 12.7 C 0 km/h
467 06-11-2010 04:31:02 12.7 C 8.13 g/m*3 12.7 C 0 km/h
468 06-11-2010 04:43:02 12.9 C 8.11 g/m*3 12.9 C 0 km/h
469 06-11-2010 04:55:02 12.9 C 8.11 g/m*3 12.9 C 0 km/h
470 06-11-2010 05:07:02 13 C 8.05 g/m*3 13 C 0 km/h
471 06-11-2010 05:19:03 13 C 8.05 g/m*3 13 C 0 km/h
472 06-11-2010 05:31:02 13.1 C 7.99 g/m*3 13.1 C 0 km/h
473 06-11-2010 05:43:02 13.2 C 7.92 g/m*3 13.2 C 0 km/h
474 06-11-2010 05:55:02 13.3 C 7.97 g/m*3 13.3 C 0 km/h
475 06-11-2010 06:07:02 13.4 C 7.9 g/m*3 13.4 C 0 km/h
Sensor: Nr:Datum:Temp:Abs-Feuchte:Windchill:Wind:
Aussen-T/F 476 06-11-2010 06:19:02 13.4 C 7.9 g/m*3 13.4 C 0 km/h
477 06-11-2010 06:31:02 13.4 C 7.9 g/m*3 13.4 C 0 km/h
478 06-11-2010 06:43:02 13.5 C 7.84 g/m*3 13.5 C 0 km/h
479 06-11-2010 06:55:02 13.6 C 7.77 g/m*3 13.6 C 0 km/h
480 06-11-2010 07:07:03 13.4 C 7.67 g/m*3 13.4 C 0 km/h
481 06-11-2010 07:19:02 13.5 C 7.6 g/m*3 13.5 C 0 km/h
482 06-11-2010 07:31:02 13.5 C 7.6 g/m*3 13.5 C 0 km/h
483 06-11-2010 07:43:02 13.5 C 7.49 g/m*3 13.5 C 0 km/h
484 06-11-2010 07:55:02 13.5 C 7.49 g/m*3 13.5 C 0 km/h
485 06-11-2010 08:07:01 13.4 C 7.44 g/m*3 13.4 C 0 km/h
486 06-11-2010 08:19:01 13.5 C 7.49 g/m*3 13.5 C 0 km/h
487 06-11-2010 08:31:02 13.4 C 7.44 g/m*3 13.4 C 0 km/h
488 06-11-2010 08:43:02 13.2 C 7.58 g/m*3 13.2 C 0 km/h
489 06-11-2010 08:55:02 13.2 C 7.58 g/m*3 13.2 C 0 km/h
490 06-11-2010 09:07:02 13.2 C 7.69 g/m*3 13.2 C 0 km/h
491 06-11-2010 09:19:02 13 C 7.71 g/m*3 13 C 0 km/h
492 06-11-2010 09:31:01 12.6 C 7.52 g/m*3 12.6 C 0 km/h
493 06-11-2010 09:43:01 10.7 C 7.27 g/m*3 10.7 C 0 km/h
494 06-11-2010 09:55:02 10.1 C 7.47 g/m*3 10.1 C 0 km/h
495 06-11-2010 10:07:01 10 C 7.71 g/m*3 10 C 0 km/h
496 06-11-2010 10:19:01 10.1 C 7.85 g/m*3 10.1 C 0 km/h
497 06-11-2010 10:31:01 10.2 C 7.99 g/m*3 10.2 C 0 km/h
498 06-11-2010 10:43:01 10.2 C 7.99 g/m*3 10.2 C 0 km/h
499 06-11-2010 10:55:01 10.4 C 8.1 g/m*3 10.4 C 0 km/h
500 06-11-2010 11:07:02 10.6 C 8.2 g/m*3 10.6 C 0 km/h
Sensor: Nr:Datum:Temp:Abs-Feuchte:Windchill:Wind:
Aussen-T/F 501 06-11-2010 11:19:02 10.6 C 8.2 g/m*3 10.6 C 0 km/h
502 06-11-2010 11:31:02 10.5 C 8.15 g/m*3 10.5 C 0 km/h
503 06-11-2010 11:43:02 10.7 C 8.25 g/m*3 10.7 C 0 km/h
504 06-11-2010 11:55:01 10.5 C 8.15 g/m*3 10.5 C 0 km/h
505 06-11-2010 12:07:02 10 C 7.89 g/m*3 10 C 0 km/h
506 06-11-2010 12:19:01 9.8 C 7.7 g/m*3 9.8 C 0 km/h
507 06-11-2010 12:31:02 9.8 C 7.7 g/m*3 9.8 C 0 km/h
508 06-11-2010 12:43:02 9.8 C 7.7 g/m*3 9.8 C 0 km/h
509 06-11-2010 12:55:02 9.5 C 7.37 g/m*3 9.5 C 0 km/h
510 06-11-2010 13:07:02 9.2 C 7.23 g/m*3 9.2 C 0 km/h
511 06-11-2010 13:19:02 8.9 C 7.27 g/m*3 8.9 C 0 km/h
512 06-11-2010 13:31:02 9 C 7.41 g/m*3 9 C 0 km/h
513 06-11-2010 13:43:02 9.2 C 7.68 g/m*3 9.2 C 0 km/h
514 06-11-2010 13:55:02 9.1 C 7.72 g/m*3 9.1 C 0 km/h
515 06-11-2010 14:07:02 9.1 C 7.72 g/m*3 9.1 C 0 km/h
516 06-11-2010 14:19:02 9 C 7.67 g/m*3 9 C 0 km/h
517 06-11-2010 14:31:02 9 C 7.67 g/m*3 9 C 0 km/h
518 06-11-2010 14:43:03 8.8 C 7.66 g/m*3 8.8 C 0 km/h
519 06-11-2010 14:55:02 8.7 C 7.61 g/m*3 8.7 C 0 km/h
520 06-11-2010 15:07:02 8.8 C 7.75 g/m*3 8.8 C 0 km/h
521 06-11-2010 15:19:01 8.7 C 7.7 g/m*3 8.7 C 0 km/h
522 06-11-2010 15:31:02 8.7 C 7.7 g/m*3 8.7 C 0 km/h
523 06-11-2010 15:43:02 8.5 C 7.6 g/m*3 8.5 C 0 km/h
524 06-11-2010 15:55:02 8.5 C 7.6 g/m*3 8.5 C 0 km/h
525 06-11-2010 16:07:03 8.4 C 7.55 g/m*3 8.4 C 0 km/h
Sensor: Nr:Datum:Temp:Abs-Feuchte:Windchill:Wind:
Aussen-T/F 526 06-11-2010 16:19:02 8.3 C 7.59 g/m*3 8.3 C 0 km/h
527 06-11-2010 16:31:02 8.2 C 7.54 g/m*3 8.2 C 0 km/h
528 06-11-2010 16:43:02 8.2 C 7.54 g/m*3 8.2 C 0 km/h
529 06-11-2010 16:55:02 7.9 C 7.47 g/m*3 7.9 C 0 km/h
530 06-11-2010 17:07:02 7.9 C 7.47 g/m*3 7.9 C 0 km/h
531 06-11-2010 17:19:02 8.1 C 7.57 g/m*3 8.1 C 0 km/h
532 06-11-2010 17:31:02 7.9 C 7.56 g/m*3 7.9 C 0 km/h
533 06-11-2010 17:43:02 7.8 C 7.51 g/m*3 7.8 C 0 km/h
534 06-11-2010 17:55:02 7.5 C 7.36 g/m*3 7.5 C 0 km/h
535 06-11-2010 18:07:01 7.6 C 7.41 g/m*3 7.6 C 0 km/h
536 06-11-2010 18:19:02 7.3 C 7.27 g/m*3 7.3 C 0 km/h
537 06-11-2010 18:31:01 7.5 C 7.36 g/m*3 7.5 C 0 km/h
538 06-11-2010 18:43:01 7.4 C 7.32 g/m*3 7.4 C 0 km/h
539 06-11-2010 18:55:02 7.4 C 7.32 g/m*3 7.4 C 0 km/h
540 06-11-2010 19:07:01 7.6 C 7.49 g/m*3 7.6 C 0 km/h
541 06-11-2010 19:19:02 7.3 C 7.35 g/m*3 7.3 C 0 km/h
542 06-11-2010 19:31:01 7.4 C 7.4 g/m*3 7.4 C 0 km/h
543 06-11-2010 19:43:01 7.3 C 7.35 g/m*3 7.3 C 0 km/h
544 06-11-2010 19:55:01 7.5 C 7.44 g/m*3 7.5 C 0 km/h
545 06-11-2010 20:07:01 7.3 C 7.35 g/m*3 7.3 C 0 km/h
546 06-11-2010 20:19:02 7.3 C 7.35 g/m*3 7.3 C 0 km/h
547 06-11-2010 20:31:01 7.1 C 7.25 g/m*3 7.1 C 0 km/h
548 06-11-2010 20:43:01 7.2 C 7.3 g/m*3 7.2 C 0 km/h
549 06-11-2010 20:55:01 7.1 C 7.25 g/m*3 7.1 C 0 km/h
550 06-11-2010 21:07:01 7.3 C 7.35 g/m*3 7.3 C 0 km/h
Sensor: Nr:Datum:Temp:Abs-Feuchte:Windchill:Wind:
Aussen-T/F 551 06-11-2010 21:19:01 7.2 C 7.3 g/m*3 7.2 C 0 km/h
552 06-11-2010 21:31:01 7.2 C 7.3 g/m*3 7.2 C 0 km/h
553 06-11-2010 21:43:01 7.2 C 7.3 g/m*3 7.2 C 0 km/h
554 06-11-2010 21:55:01 7.4 C 7.4 g/m*3 7.4 C 0 km/h
555 06-11-2010 22:07:02 7.5 C 7.44 g/m*3 7.5 C 0 km/h
556 06-11-2010 22:19:01 7.5 C 7.44 g/m*3 7.5 C 0 km/h
557 06-11-2010 22:32:02 7.4 C 7.4 g/m*3 7.4 C 0 km/h
558 06-11-2010 22:44:02 7.5 C 7.44 g/m*3 7.5 C 0 km/h
559 06-11-2010 22:56:02 7.5 C 7.44 g/m*3 7.5 C 0 km/h
560 06-11-2010 23:08:02 7.5 C 7.44 g/m*3 7.5 C 0 km/h
561 06-11-2010 23:20:02 7.3 C 7.35 g/m*3 7.3 C 0 km/h
562 06-11-2010 23:32:03 7.4 C 7.4 g/m*3 7.4 C 0 km/h
563 06-11-2010 23:44:03 7.3 C 7.35 g/m*3 7.3 C 0 km/h
564 06-11-2010 23:56:03 7.3 C 7.35 g/m*3 7.3 C 0 km/h
565 07-11-2010 00:08:03 7.2 C 7.3 g/m*3 7.2 C 0 km/h
566 07-11-2010 00:20:03 7.2 C 7.3 g/m*3 7.2 C 0 km/h
567 07-11-2010 00:32:03 7.2 C 7.3 g/m*3 7.2 C 0 km/h
568 07-11-2010 00:44:03 7.3 C 7.35 g/m*3 7.3 C 0 km/h
569 07-11-2010 00:56:03 7.2 C 7.3 g/m*3 7.2 C 0 km/h
570 07-11-2010 01:08:03 7.3 C 7.35 g/m*3 7.3 C 0 km/h
571 07-11-2010 01:20:03 7.3 C 7.35 g/m*3 7.3 C 0 km/h
572 07-11-2010 01:32:03 7.2 C 7.3 g/m*3 7.2 C 0 km/h
573 07-11-2010 01:44:03 7.1 C 7.25 g/m*3 7.1 C 0 km/h
574 07-11-2010 01:56:03 7 C 7.21 g/m*3 7 C 0 km/h
575 07-11-2010 02:08:03 6.7 C 7.14 g/m*3 6.7 C 0 km/h
Sensor: Nr:Datum:Temp:Abs-Feuchte:Windchill:Wind:
Aussen-T/F 576 07-11-2010 02:20:03 6.7 C 7.14 g/m*3 6.7 C 0 km/h
577 07-11-2010 02:32:03 7 C 7.21 g/m*3 7 C 0 km/h
578 07-11-2010 02:44:03 7.2 C 7.38 g/m*3 7.2 C 0 km/h
579 07-11-2010 02:56:03 7.3 C 7.35 g/m*3 7.3 C 0 km/h
580 07-11-2010 03:08:03 7.3 C 7.35 g/m*3 7.3 C 0 km/h
581 07-11-2010 03:20:03 7.3 C 7.35 g/m*3 7.3 C 0 km/h
582 07-11-2010 03:32:04 7.3 C 7.43 g/m*3 7.3 C 0 km/h
583 07-11-2010 03:44:04 7.3 C 7.43 g/m*3 7.3 C 0 km/h
584 07-11-2010 03:56:04 7.3 C 7.43 g/m*3 7.3 C 0 km/h
585 07-11-2010 04:08:04 7.3 C 7.43 g/m*3 7.3 C 0 km/h
586 07-11-2010 04:20:04 7.2 C 7.38 g/m*3 7.2 C 0 km/h
587 07-11-2010 04:32:04 7.2 C 7.38 g/m*3 7.2 C 0 km/h
588 07-11-2010 04:44:04 7.2 C 7.3 g/m*3 7.2 C 0 km/h
589 07-11-2010 04:56:04 7 C 7.21 g/m*3 7 C 0 km/h
590 07-11-2010 05:08:04 6.9 C 7.24 g/m*3 6.9 C 0 km/h
591 07-11-2010 05:20:04 6.8 C 7.19 g/m*3 6.8 C 0 km/h
592 07-11-2010 05:32:04 6.9 C 7.24 g/m*3 6.9 C 0 km/h
593 07-11-2010 05:44:04 6.8 C 7.19 g/m*3 6.8 C 0 km/h
594 07-11-2010 05:56:04 6.6 C 7.1 g/m*3 6.6 C 0 km/h
595 07-11-2010 06:08:04 6.4 C 7 g/m*3 6.4 C 0 km/h
596 07-11-2010 06:20:04 6.3 C 6.96 g/m*3 6.3 C 0 km/h
597 07-11-2010 06:32:04 6.4 C 7 g/m*3 6.4 C 0 km/h
598 07-11-2010 06:44:04 6.7 C 7.14 g/m*3 6.7 C 0 km/h
599 07-11-2010 06:56:04 6.6 C 7.1 g/m*3 6.6 C 0 km/h
600 07-11-2010 07:08:04 6.4 C 7 g/m*3 6.4 C 0 km/h
Sensor: Nr:Datum:Temp:Abs-Feuchte:Windchill:Wind:
Aussen-T/F 601 07-11-2010 07:20:04 6.7 C 7.14 g/m*3 6.7 C 0 km/h
602 07-11-2010 07:32:04 6.7 C 7.14 g/m*3 6.7 C 0 km/h
603 07-11-2010 07:44:05 6.8 C 7.19 g/m*3 6.8 C 0 km/h
604 07-11-2010 07:56:05 6.9 C 7.24 g/m*3 6.9 C 0 km/h
605 07-11-2010 08:08:01 7 C 7.21 g/m*3 7 C 0 km/h
606 07-11-2010 08:20:02 7.1 C 7.25 g/m*3 7.1 C 0 km/h
607 07-11-2010 08:32:01 7.2 C 7.3 g/m*3 7.2 C 0 km/h
608 07-11-2010 08:44:01 7.2 C 7.3 g/m*3 7.2 C 0 km/h
609 07-11-2010 08:56:01 7.3 C 7.35 g/m*3 7.3 C 0 km/h
610 07-11-2010 09:08:01 7.4 C 7.48 g/m*3 7.4 C 0 km/h
611 07-11-2010 09:20:02 7.4 C 7.48 g/m*3 7.4 C 0 km/h
612 07-11-2010 09:32:01 7.5 C 7.52 g/m*3 7.5 C 0 km/h
613 07-11-2010 09:44:01 7.4 C 7.4 g/m*3 7.4 C 0 km/h
614 07-11-2010 09:56:01 7.6 C 7.49 g/m*3 7.6 C 0 km/h
615 07-11-2010 10:08:02 7.8 C 7.67 g/m*3 7.8 C 0 km/h
616 07-11-2010 10:20:01 7.7 C 7.62 g/m*3 7.7 C 0 km/h
617 07-11-2010 10:32:02 7.9 C 7.72 g/m*3 7.9 C 0 km/h
618 07-11-2010 10:44:02 7.8 C 7.67 g/m*3 7.8 C 0 km/h
619 07-11-2010 10:56:02 7.9 C 7.72 g/m*3 7.9 C 0 km/h
620 07-11-2010 11:08:01 7.9 C 7.64 g/m*3 7.9 C 0 km/h
621 07-11-2010 11:20:02 8 C 7.69 g/m*3 8 C 0 km/h
622 07-11-2010 11:32:02 8 C 7.61 g/m*3 8 C 0 km/h
623 07-11-2010 11:44:02 8 C 7.61 g/m*3 8 C 0 km/h
624 07-11-2010 11:56:02 8.4 C 7.8 g/m*3 8.4 C 0 km/h
625 07-11-2010 12:08:01 8.5 C 7.85 g/m*3 8.5 C 0 km/h
Sensor: Nr:Datum:Temp:Abs-Feuchte:Windchill:Wind:
Aussen-T/F 626 07-11-2010 12:20:02 9 C 8.02 g/m*3 9 C 0 km/h
627 07-11-2010 12:32:02 8.9 C 7.97 g/m*3 8.9 C 0 km/h
628 07-11-2010 12:44:02 8.6 C 7.82 g/m*3 8.6 C 0 km/h
629 07-11-2010 12:56:02 8.7 C 7.7 g/m*3 8.7 C 0 km/h
630 07-11-2010 13:08:02 8.8 C 7.75 g/m*3 8.8 C 0 km/h
631 07-11-2010 13:20:02 8.6 C 7.56 g/m*3 8.6 C 0 km/h
632 07-11-2010 13:32:02 8.4 C 7.38 g/m*3 8.4 C 0 km/h
633 07-11-2010 13:44:02 8.4 C 7.47 g/m*3 8.4 C 0 km/h
634 07-11-2010 13:56:02 8.2 C 7.37 g/m*3 8.2 C 0 km/h
635 07-11-2010 14:08:02 8.2 C 7.37 g/m*3 8.2 C 0 km/h
636 07-11-2010 14:20:02 8.2 C 7.37 g/m*3 8.2 C 0 km/h
637 07-11-2010 14:32:02 8.2 C 7.45 g/m*3 8.2 C 0 km/h
638 07-11-2010 14:44:02 8.4 C 7.55 g/m*3 8.4 C 0 km/h
639 07-11-2010 14:56:02 8.1 C 7.41 g/m*3 8.1 C 0 km/h
640 07-11-2010 15:08:02 7.7 C 7.22 g/m*3 7.7 C 0 km/h
641 07-11-2010 15:20:02 7.5 C 7.12 g/m*3 7.5 C 0 km/h
642 07-11-2010 15:32:02 7.6 C 7.25 g/m*3 7.6 C 0 km/h
643 07-11-2010 15:44:02 7.5 C 7.2 g/m*3 7.5 C 0 km/h
644 07-11-2010 15:56:02 7.2 C 7.06 g/m*3 7.2 C 0 km/h
645 07-11-2010 16:08:01 7.1 C 7.02 g/m*3 7.1 C 0 km/h
646 07-11-2010 16:20:01 6.8 C 6.96 g/m*3 6.8 C 0 km/h
647 07-11-2010 16:32:02 6.7 C 6.91 g/m*3 6.7 C 0 km/h
648 07-11-2010 16:44:02 6.7 C 6.91 g/m*3 6.7 C 0 km/h
649 07-11-2010 16:56:02 6.8 C 7.04 g/m*3 6.8 C 0 km/h
650 07-11-2010 17:08:02 6.8 C 7.04 g/m*3 6.8 C 0 km/h
Sensor: Nr:Datum:Temp:Abs-Feuchte:Windchill:Wind:
Aussen-T/F 651 07-11-2010 17:20:02 6.7 C 6.99 g/m*3 6.7 C 0 km/h
652 07-11-2010 17:32:02 6.8 C 7.04 g/m*3 6.8 C 0 km/h
653 07-11-2010 17:44:02 6.7 C 6.99 g/m*3 6.7 C 0 km/h
654 07-11-2010 17:56:02 6.8 C 7.04 g/m*3 6.8 C 0 km/h
655 07-11-2010 18:08:01 6.5 C 6.9 g/m*3 6.5 C 0 km/h
656 07-11-2010 18:20:02 6.7 C 6.99 g/m*3 6.7 C 0 km/h
657 07-11-2010 18:32:01 6.8 C 7.04 g/m*3 6.8 C 0 km/h
658 07-11-2010 18:44:01 6.7 C 6.99 g/m*3 6.7 C 0 km/h
659 07-11-2010 18:56:02 6.2 C 6.77 g/m*3 6.2 C 0 km/h
660 07-11-2010 19:08:01 6 C 6.68 g/m*3 6 C 0 km/h
661 07-11-2010 19:20:02 5.9 C 6.71 g/m*3 5.9 C 0 km/h
662 07-11-2010 19:32:01 5.7 C 6.62 g/m*3 5.7 C 0 km/h
663 07-11-2010 19:44:01 5.7 C 6.62 g/m*3 5.7 C 0 km/h
664 07-11-2010 19:56:02 5.3 C 6.45 g/m*3 5.3 C 0 km/h
665 07-11-2010 20:08:01 5.2 C 6.4 g/m*3 5.2 C 0 km/h
666 07-11-2010 20:20:02 5.2 C 6.4 g/m*3 5.2 C 0 km/h
667 07-11-2010 20:32:01 5.2 C 6.4 g/m*3 5.2 C 0 km/h
668 07-11-2010 20:44:01 5.2 C 6.4 g/m*3 5.2 C 0 km/h
669 07-11-2010 20:56:01 5.1 C 6.36 g/m*3 5.1 C 0 km/h
670 07-11-2010 21:08:01 5.1 C 6.36 g/m*3 5.1 C 0 km/h
671 07-11-2010 21:20:01 5.1 C 6.36 g/m*3 5.1 C 0 km/h
672 07-11-2010 21:32:01 5 C 6.32 g/m*3 5 C 0 km/h
673 07-11-2010 21:44:01 4.9 C 6.28 g/m*3 4.9 C 0 km/h
674 07-11-2010 21:56:01 4.8 C 6.3 g/m*3 4.8 C 0 km/h
675 07-11-2010 22:08:02 4.8 C 6.3 g/m*3 4.8 C 0 km/h
Sensor: Nr:Datum:Temp:Abs-Feuchte:Windchill:Wind:
Aussen-T/F 676 07-11-2010 22:21:03 5 C 6.32 g/m*3 5 C 0 km/h
677 07-11-2010 22:33:03 5 C 6.32 g/m*3 5 C 0 km/h
678 07-11-2010 22:45:03 4.9 C 6.35 g/m*3 4.9 C 0 km/h
679 07-11-2010 22:57:03 4.8 C 6.3 g/m*3 4.8 C 0 km/h
680 07-11-2010 23:09:03 4.7 C 6.26 g/m*3 4.7 C 0 km/h
681 07-11-2010 23:21:03 4.7 C 6.26 g/m*3 4.7 C 0 km/h
682 07-11-2010 23:33:03 4.7 C 6.26 g/m*3 4.7 C 0 km/h
683 07-11-2010 23:45:03 4.6 C 6.22 g/m*3 4.6 C 0 km/h
684 07-11-2010 23:57:03 4.5 C 6.11 g/m*3 4.5 C 0 km/h
685 08-11-2010 00:09:03 4.4 C 6.07 g/m*3 4.4 C 0 km/h
686 08-11-2010 00:21:03 4.1 C 5.95 g/m*3 4.1 C 0 km/h
687 08-11-2010 00:33:03 3.9 C 5.94 g/m*3 3.9 C 0 km/h
688 08-11-2010 00:45:03 3.8 C 5.9 g/m*3 3.8 C 0 km/h
689 08-11-2010 00:57:04 4 C 5.91 g/m*3 4 C 0 km/h
690 08-11-2010 01:09:04 4.1 C 5.95 g/m*3 4.1 C 0 km/h
691 08-11-2010 01:21:04 4.3 C 6.03 g/m*3 4.3 C 0 km/h
692 08-11-2010 01:33:04 4.3 C 6.03 g/m*3 4.3 C 0 km/h
693 08-11-2010 01:45:04 4.1 C 5.95 g/m*3 4.1 C 0 km/h
694 08-11-2010 01:57:04 3.8 C 5.9 g/m*3 3.8 C 0 km/h
695 08-11-2010 02:09:04 3.5 C 5.78 g/m*3 3.5 C 0 km/h
696 08-11-2010 02:21:04 3.9 C 5.94 g/m*3 3.9 C 0 km/h
697 08-11-2010 02:33:04 4.1 C 5.95 g/m*3 4.1 C 0 km/h
698 08-11-2010 02:45:04 4.3 C 6.03 g/m*3 4.3 C 0 km/h
699 08-11-2010 02:57:04 4.4 C 6.14 g/m*3 4.4 C 0 km/h
700 08-11-2010 03:09:04 4.5 C 6.18 g/m*3 4.5 C 0 km/h
Sensor: Nr:Datum:Temp:Abs-Feuchte:Windchill:Wind:
Aussen-T/F 701 08-11-2010 03:21:04 4.5 C 6.18 g/m*3 4.5 C 0 km/h
702 08-11-2010 03:33:04 4.5 C 6.18 g/m*3 4.5 C 0 km/h
703 08-11-2010 03:45:04 4.4 C 6.14 g/m*3 4.4 C 0 km/h
704 08-11-2010 03:57:04 4.4 C 6.14 g/m*3 4.4 C 0 km/h
705 08-11-2010 04:09:04 4.4 C 6.14 g/m*3 4.4 C 0 km/h
706 08-11-2010 04:21:04 4.4 C 6.14 g/m*3 4.4 C 0 km/h
707 08-11-2010 04:33:04 4.4 C 6.14 g/m*3 4.4 C 0 km/h
708 08-11-2010 04:45:04 4.4 C 6.14 g/m*3 4.4 C 0 km/h
709 08-11-2010 04:57:04 4.4 C 6.14 g/m*3 4.4 C 0 km/h
710 08-11-2010 05:09:05 4.5 C 6.18 g/m*3 4.5 C 0 km/h
711 08-11-2010 05:21:05 4.5 C 6.18 g/m*3 4.5 C 0 km/h
712 08-11-2010 05:33:05 4.6 C 6.22 g/m*3 4.6 C 0 km/h
713 08-11-2010 05:45:05 4.7 C 6.26 g/m*3 4.7 C 0 km/h
714 08-11-2010 05:57:05 4.7 C 6.26 g/m*3 4.7 C 0 km/h
715 08-11-2010 06:09:05 4.8 C 6.3 g/m*3 4.8 C 0 km/h
716 08-11-2010 06:21:05 4.8 C 6.3 g/m*3 4.8 C 0 km/h
717 08-11-2010 06:33:05 4.9 C 6.35 g/m*3 4.9 C 0 km/h
718 08-11-2010 06:45:05 4.9 C 6.35 g/m*3 4.9 C 0 km/h
719 08-11-2010 06:57:05 4.9 C 6.35 g/m*3 4.9 C 0 km/h
720 08-11-2010 07:09:05 4.8 C 6.3 g/m*3 4.8 C 0 km/h
721 08-11-2010 07:21:03 4.4 C 6.14 g/m*3 4.4 C 0 km/h
722 08-11-2010 07:33:02 4.6 C 6.22 g/m*3 4.6 C 0 km/h
723 08-11-2010 07:45:01 4.9 C 6.35 g/m*3 4.9 C 0 km/h
724 08-11-2010 07:57:01 5 C 6.32 g/m*3 5 C 0 km/h
725 08-11-2010 08:09:02 4.9 C 6.35 g/m*3 4.9 C 0 km/h
Sensor: Nr:Datum:Temp:Abs-Feuchte:Windchill:Wind:
Aussen-T/F 726 08-11-2010 08:21:01 5 C 6.32 g/m*3 5 C 0 km/h
727 08-11-2010 08:33:02 4.9 C 6.35 g/m*3 4.9 C 0 km/h
728 08-11-2010 08:45:02 4.9 C 6.35 g/m*3 4.9 C 0 km/h
729 08-11-2010 08:57:02 5.1 C 6.36 g/m*3 5.1 C 0 km/h
730 08-11-2010 09:09:02 5.4 C 6.49 g/m*3 5.4 C 0 km/h
731 08-11-2010 09:21:02 5.6 C 6.57 g/m*3 5.6 C 0 km/h
732 08-11-2010 09:33:02 6 C 6.68 g/m*3 6 C 0 km/h
733 08-11-2010 09:45:02 6 C 6.6 g/m*3 6 C 0 km/h
734 08-11-2010 09:57:02 6.2 C 6.55 g/m*3 6.2 C 0 km/h
735 08-11-2010 10:09:02 7.1 C 6.86 g/m*3 7.1 C 0 km/h
736 08-11-2010 10:21:02 6.9 C 6.54 g/m*3 6.9 C 0 km/h
737 08-11-2010 10:33:02 7 C 6.43 g/m*3 7 C 0 km/h
738 08-11-2010 10:45:01 7.2 C 6.36 g/m*3 7.2 C 0 km/h
739 08-11-2010 10:57:01 7.2 C 6.28 g/m*3 7.2 C 0 km/h
740 08-11-2010 11:09:02 7.5 C 6.08 g/m*3 7.5 C 0 km/h
741 08-11-2010 11:21:01 7.6 C 5.88 g/m*3 7.6 C 0 km/h
742 08-11-2010 11:33:02 7.1 C 5.54 g/m*3 7.1 C 0 km/h
743 08-11-2010 11:45:02 7.2 C 5.65 g/m*3 7.2 C 0 km/h
744 08-11-2010 11:57:02 6.9 C 5.62 g/m*3 6.9 C 0 km/h
745 08-11-2010 12:09:02 7.4 C 5.65 g/m*3 7.4 C 0 km/h
746 08-11-2010 12:21:02 8 C 5.29 g/m*3 8 C 0 km/h
747 08-11-2010 12:33:02 6.3 C 5.03 g/m*3 6.3 C 0 km/h
748 08-11-2010 12:45:02 6.1 C 5.26 g/m*3 6.1 C 0 km/h
749 08-11-2010 12:57:02 6.1 C 5.26 g/m*3 6.1 C 0 km/h
750 08-11-2010 13:09:02 6.4 C 5.29 g/m*3 6.4 C 0 km/h
Sensor: Nr:Datum:Temp:Abs-Feuchte:Windchill:Wind:
Aussen-T/F 751 08-11-2010 13:21:02 7.4 C 5.33 g/m*3 7.4 C 0 km/h
752 08-11-2010 13:33:03 8 C 5.29 g/m*3 8 C 0 km/h
753 08-11-2010 13:45:02 7.4 C 4.85 g/m*3 7.4 C 0 km/h
754 08-11-2010 13:57:03 7 C 4.96 g/m*3 7 C 0 km/h
755 08-11-2010 14:09:01 7.1 C 4.84 g/m*3 7.1 C 0 km/h
756 08-11-2010 14:21:02 6.7 C 4.79 g/m*3 6.7 C 0 km/h
757 08-11-2010 14:33:01 7.1 C 4.68 g/m*3 7.1 C 0 km/h
758 08-11-2010 14:45:02 6.8 C 4.59 g/m*3 6.8 C 0 km/h
759 08-11-2010 14:57:02 6.7 C 4.79 g/m*3 6.7 C 0 km/h
760 08-11-2010 15:09:01 6.1 C 4.68 g/m*3 6.1 C 0 km/h
761 08-11-2010 15:21:02 6.6 C 4.53 g/m*3 6.6 C 0 km/h
762 08-11-2010 15:33:01 6.1 C 4.46 g/m*3 6.1 C 0 km/h
763 08-11-2010 15:45:02 4.8 C 4.76 g/m*3 4.8 C 0 km/h
764 08-11-2010 15:57:02 4.4 C 4.83 g/m*3 4.4 C 0 km/h
765 08-11-2010 16:09:02 3.7 C 4.92 g/m*3 3.7 C 0 km/h
766 08-11-2010 16:21:02 3.4 C 4.89 g/m*3 3.4 C 0 km/h
767 08-11-2010 16:33:02 2.9 C 4.84 g/m*3 2.9 C 0 km/h
768 08-11-2010 16:45:02 2.6 C 4.86 g/m*3 2.6 C 0 km/h
769 08-11-2010 16:57:02 2.3 C 4.82 g/m*3 2.3 C 0 km/h
770 08-11-2010 17:09:02 2.5 C 4.94 g/m*3 2.5 C 0 km/h
771 08-11-2010 17:21:02 2.3 C 4.88 g/m*3 2.3 C 0 km/h
772 08-11-2010 17:33:02 2 C 4.83 g/m*3 2 C 0 km/h
773 08-11-2010 17:45:02 2 C 4.83 g/m*3 2 C 0 km/h
774 08-11-2010 17:57:02 1.6 C 4.76 g/m*3 1.6 C 0 km/h
775 08-11-2010 18:09:02 1.6 C 4.81 g/m*3 1.6 C 0 km/h
Sensor: Nr:Datum:Temp:Abs-Feuchte:Windchill:Wind:
Aussen-T/F 776 08-11-2010 18:21:02 1.7 C 4.85 g/m*3 1.7 C 0 km/h
777 08-11-2010 18:33:02 1.5 C 4.78 g/m*3 1.5 C 0 km/h
778 08-11-2010 18:45:01 1.4 C 4.8 g/m*3 1.4 C 0 km/h
779 08-11-2010 18:57:01 1.1 C 4.7 g/m*3 1.1 C 0 km/h
780 08-11-2010 19:09:02 1.6 C 4.87 g/m*3 1.6 C 0 km/h
781 08-11-2010 19:21:02 2.1 C 5.04 g/m*3 2.1 C 0 km/h
782 08-11-2010 19:33:02 2.2 C 5.13 g/m*3 2.2 C 0 km/h
783 08-11-2010 19:45:01 2.6 C 5.27 g/m*3 2.6 C 0 km/h
784 08-11-2010 19:57:01 2.8 C 5.28 g/m*3 2.8 C 0 km/h
785 08-11-2010 20:09:02 3.2 C 5.36 g/m*3 3.2 C 0 km/h
786 08-11-2010 20:21:01 3.4 C 5.44 g/m*3 3.4 C 0 km/h
787 08-11-2010 20:33:02 3.5 C 5.41 g/m*3 3.5 C 0 km/h
788 08-11-2010 20:45:02 3.6 C 5.45 g/m*3 3.6 C 0 km/h
789 08-11-2010 20:57:02 3.8 C 5.46 g/m*3 3.8 C 0 km/h
790 08-11-2010 21:09:02 3.9 C 5.49 g/m*3 3.9 C 0 km/h
791 08-11-2010 21:21:03 3.9 C 5.56 g/m*3 3.9 C 0 km/h
792 08-11-2010 21:33:02 3.9 C 5.56 g/m*3 3.9 C 0 km/h
793 08-11-2010 21:45:03 3.9 C 5.56 g/m*3 3.9 C 0 km/h
794 08-11-2010 21:57:03 3.9 C 5.62 g/m*3 3.9 C 0 km/h
795 08-11-2010 22:09:02 3.9 C 5.62 g/m*3 3.9 C 0 km/h
796 08-11-2010 22:21:02 4 C 5.59 g/m*3 4 C 0 km/h
797 08-11-2010 22:33:02 4.2 C 5.73 g/m*3 4.2 C 0 km/h
798 08-11-2010 22:45:02 4.5 C 5.85 g/m*3 4.5 C 0 km/h
799 08-11-2010 22:57:02 4.5 C 5.78 g/m*3 4.5 C 0 km/h
800 08-11-2010 23:10:05 4.6 C 5.69 g/m*3 4.6 C 0 km/h
Sensor: Nr:Datum:Temp:Abs-Feuchte:Windchill:Wind:
Aussen-T/F 801 08-11-2010 23:22:05 4.5 C 5.65 g/m*3 4.5 C 0 km/h
802 08-11-2010 23:34:05 4.4 C 5.55 g/m*3 4.4 C 0 km/h
803 08-11-2010 23:46:05 4.4 C 5.62 g/m*3 4.4 C 0 km/h
804 08-11-2010 23:58:05 4.3 C 5.58 g/m*3 4.3 C 0 km/h
805 09-11-2010 00:10:05 4.3 C 5.58 g/m*3 4.3 C 0 km/h
806 09-11-2010 00:22:05 4.1 C 5.57 g/m*3 4.1 C 0 km/h
807 09-11-2010 00:34:05 4.1 C 5.63 g/m*3 4.1 C 0 km/h
808 09-11-2010 00:46:05 4.4 C 5.75 g/m*3 4.4 C 0 km/h
809 09-11-2010 00:58:06 4.3 C 5.71 g/m*3 4.3 C 0 km/h
810 09-11-2010 01:10:06 4.1 C 5.7 g/m*3 4.1 C 0 km/h
811 09-11-2010 01:22:06 4.2 C 5.73 g/m*3 4.2 C 0 km/h
812 09-11-2010 01:34:06 4.3 C 5.77 g/m*3 4.3 C 0 km/h
813 09-11-2010 01:46:06 4.3 C 5.77 g/m*3 4.3 C 0 km/h
814 09-11-2010 01:58:06 4.1 C 5.7 g/m*3 4.1 C 0 km/h
815 09-11-2010 02:10:06 4.1 C 5.7 g/m*3 4.1 C 0 km/h
816 09-11-2010 02:22:06 4.1 C 5.7 g/m*3 4.1 C 0 km/h
817 09-11-2010 02:34:06 4.1 C 5.76 g/m*3 4.1 C 0 km/h
818 09-11-2010 02:46:06 4.3 C 5.84 g/m*3 4.3 C 0 km/h
819 09-11-2010 02:58:06 4.4 C 5.94 g/m*3 4.4 C 0 km/h
820 09-11-2010 03:10:06 4.3 C 5.9 g/m*3 4.3 C 0 km/h
821 09-11-2010 03:22:06 4.5 C 5.98 g/m*3 4.5 C 0 km/h
822 09-11-2010 03:34:06 4.4 C 5.94 g/m*3 4.4 C 0 km/h
823 09-11-2010 03:46:06 4.4 C 5.94 g/m*3 4.4 C 0 km/h
824 09-11-2010 03:58:06 4.7 C 6.06 g/m*3 4.7 C 0 km/h
825 09-11-2010 04:10:06 4.3 C 5.9 g/m*3 4.3 C 0 km/h
Sensor: Nr:Datum:Temp:Abs-Feuchte:Windchill:Wind:
Aussen-T/F 826 09-11-2010 04:22:06 4.3 C 5.9 g/m*3 4.3 C 0 km/h
827 09-11-2010 04:34:06 4.6 C 6.02 g/m*3 4.6 C 0 km/h
828 09-11-2010 04:46:06 4.5 C 5.98 g/m*3 4.5 C 0 km/h
829 09-11-2010 04:58:06 4.5 C 5.98 g/m*3 4.5 C 0 km/h
830 09-11-2010 05:10:07 4.7 C 6.06 g/m*3 4.7 C 0 km/h
831 09-11-2010 05:22:07 4.7 C 6.06 g/m*3 4.7 C 0 km/h
832 09-11-2010 05:34:07 4.7 C 6.06 g/m*3 4.7 C 0 km/h
833 09-11-2010 05:46:07 4.8 C 6.1 g/m*3 4.8 C 0 km/h
834 09-11-2010 05:58:07 4.8 C 6.1 g/m*3 4.8 C 0 km/h
835 09-11-2010 06:10:07 5 C 6.12 g/m*3 5 C 0 km/h
836 09-11-2010 06:22:07 5.1 C 6.16 g/m*3 5.1 C 0 km/h
837 09-11-2010 06:34:07 5.1 C 6.16 g/m*3 5.1 C 0 km/h
838 09-11-2010 06:46:07 5.1 C 6.16 g/m*3 5.1 C 0 km/h
839 09-11-2010 06:58:07 5.2 C 6.2 g/m*3 5.2 C 0 km/h
840 09-11-2010 07:10:07 5.3 C 6.24 g/m*3 5.3 C 0 km/h
841 09-11-2010 07:22:04 5.4 C 6.28 g/m*3 5.4 C 0 km/h
842 09-11-2010 07:34:04 5.6 C 6.29 g/m*3 5.6 C 0 km/h
843 09-11-2010 07:46:01 5.7 C 6.19 g/m*3 5.7 C 0 km/h
844 09-11-2010 07:58:01 5.9 C 6.2 g/m*3 5.9 C 0 km/h
845 09-11-2010 08:10:02 6.1 C 6.06 g/m*3 6.1 C 0 km/h
846 09-11-2010 08:22:02 6.2 C 6.1 g/m*3 6.2 C 0 km/h
847 09-11-2010 08:34:02 6.5 C 6.15 g/m*3 6.5 C 0 km/h
848 09-11-2010 08:46:01 6.5 C 6 g/m*3 6.5 C 0 km/h
849 09-11-2010 08:58:01 6.8 C 6.12 g/m*3 6.8 C 0 km/h
850 09-11-2010 09:10:02 7 C 6.04 g/m*3 7 C 0 km/h
Sensor: Nr:Datum:Temp:Abs-Feuchte:Windchill:Wind:
Aussen-T/F 851 09-11-2010 09:22:02 7 C 6.04 g/m*3 7 C 0 km/h
852 09-11-2010 09:34:02 6.7 C 6.08 g/m*3 6.7 C 0 km/h
853 09-11-2010 09:46:02 6.5 C 6 g/m*3 6.5 C 0 km/h
854 09-11-2010 09:58:02 7.3 C 6.32 g/m*3 7.3 C 0 km/h
855 09-11-2010 10:10:01 7.1 C 6.08 g/m*3 7.1 C 0 km/h
856 09-11-2010 10:22:02 6.6 C 6.11 g/m*3 6.6 C 0 km/h
857 09-11-2010 10:34:01 7.6 C 6.61 g/m*3 7.6 C 0 km/h
858 09-11-2010 10:46:02 9 C 6.26 g/m*3 9 C 0 km/h
859 09-11-2010 10:58:02 9.2 C 6.16 g/m*3 9.2 C 0 km/h
860 09-11-2010 11:10:01 9.1 C 6.03 g/m*3 9.1 C 0 km/h
861 09-11-2010 11:22:02 9.4 C 6.24 g/m*3 9.4 C 0 km/h
862 09-11-2010 11:34:01 9.2 C 6.16 g/m*3 9.2 C 0 km/h
863 09-11-2010 11:46:03 8.7 C 6.4 g/m*3 8.7 C 0 km/h
864 09-11-2010 11:58:03 9.4 C 6.6 g/m*3 9.4 C 0 km/h
865 09-11-2010 12:10:02 9.2 C 6.43 g/m*3 9.2 C 0 km/h
866 09-11-2010 12:22:02 9.8 C 6.49 g/m*3 9.8 C 0 km/h
867 09-11-2010 12:34:02 9.6 C 6.32 g/m*3 9.6 C 0 km/h
868 09-11-2010 12:46:02 9.4 C 6.42 g/m*3 9.4 C 0 km/h
869 09-11-2010 12:58:02 9.6 C 6.5 g/m*3 9.6 C 0 km/h
870 09-11-2010 13:10:01 9.9 C 6.44 g/m*3 9.9 C 0 km/h
871 09-11-2010 13:22:02 10 C 6.3 g/m*3 10 C 0 km/h
872 09-11-2010 13:34:02 9.2 C 6.25 g/m*3 9.2 C 0 km/h
873 09-11-2010 13:46:02 9.7 C 6.73 g/m*3 9.7 C 0 km/h
874 09-11-2010 13:58:02 9.5 C 6.64 g/m*3 9.5 C 0 km/h
875 09-11-2010 14:10:03 9.1 C 6.65 g/m*3 9.1 C 0 km/h
Sensor: Nr:Datum:Temp:Abs-Feuchte:Windchill:Wind:
Aussen-T/F 876 09-11-2010 14:22:02 9 C 6.7 g/m*3 9 C 0 km/h
877 09-11-2010 14:34:02 8.8 C 6.88 g/m*3 8.8 C 0 km/h
878 09-11-2010 14:46:01 8.7 C 6.92 g/m*3 8.7 C 0 km/h
879 09-11-2010 14:58:01 8.7 C 7.09 g/m*3 8.7 C 0 km/h
880 09-11-2010 15:10:02 8.6 C 7.05 g/m*3 8.6 C 0 km/h
881 09-11-2010 15:22:01 8.5 C 7 g/m*3 8.5 C 0 km/h
882 09-11-2010 15:34:01 8.4 C 7.04 g/m*3 8.4 C 0 km/h
883 09-11-2010 15:46:01 8.4 C 7.13 g/m*3 8.4 C 0 km/h
884 09-11-2010 15:58:01 8.2 C 7.12 g/m*3 8.2 C 0 km/h
885 09-11-2010 16:10:02 8.1 C 7.16 g/m*3 8.1 C 0 km/h
886 09-11-2010 16:22:01 8 C 7.11 g/m*3 8 C 0 km/h
887 09-11-2010 16:34:02 7.9 C 7.23 g/m*3 7.9 C 0 km/h
888 09-11-2010 16:46:02 7.8 C 7.18 g/m*3 7.8 C 0 km/h
889 09-11-2010 16:58:02 7.8 C 7.26 g/m*3 7.8 C 0 km/h
890 09-11-2010 17:10:02 7.7 C 7.22 g/m*3 7.7 C 0 km/h
891 09-11-2010 17:22:02 7.5 C 7.12 g/m*3 7.5 C 0 km/h
892 09-11-2010 17:34:02 7.2 C 6.99 g/m*3 7.2 C 0 km/h
893 09-11-2010 17:46:02 7.1 C 6.94 g/m*3 7.1 C 0 km/h
894 09-11-2010 17:58:02 7 C 6.97 g/m*3 7 C 0 km/h
895 09-11-2010 18:10:03 6.8 C 6.88 g/m*3 6.8 C 0 km/h
896 09-11-2010 18:22:02 6.7 C 6.84 g/m*3 6.7 C 0 km/h
897 09-11-2010 18:34:02 6.3 C 6.66 g/m*3 6.3 C 0 km/h
898 09-11-2010 18:46:01 6.4 C 6.78 g/m*3 6.4 C 0 km/h
899 09-11-2010 18:58:01 7 C 6.97 g/m*3 7 C 0 km/h
900 09-11-2010 19:10:02 7 C 7.05 g/m*3 7 C 0 km/h
Sensor: Nr:Datum:Temp:Abs-Feuchte:Windchill:Wind:
Aussen-T/F 901 09-11-2010 19:22:01 7 C 7.05 g/m*3 7 C 0 km/h
902 09-11-2010 19:34:01 6.7 C 6.91 g/m*3 6.7 C 0 km/h
903 09-11-2010 19:46:01 6.9 C 7.08 g/m*3 6.9 C 0 km/h
904 09-11-2010 19:58:01 6.7 C 6.99 g/m*3 6.7 C 0 km/h
905 09-11-2010 20:10:02 6.7 C 6.99 g/m*3 6.7 C 0 km/h
906 09-11-2010 20:22:01 6.7 C 6.99 g/m*3 6.7 C 0 km/h
907 09-11-2010 20:34:01 6.7 C 6.99 g/m*3 6.7 C 0 km/h
908 09-11-2010 20:46:01 6.9 C 7.08 g/m*3 6.9 C 0 km/h
909 09-11-2010 20:58:01 6.9 C 7.08 g/m*3 6.9 C 0 km/h
910 09-11-2010 21:10:02 6.9 C 7.08 g/m*3 6.9 C 0 km/h
911 09-11-2010 21:22:01 6.9 C 7.08 g/m*3 6.9 C 0 km/h
912 09-11-2010 21:34:01 6.9 C 7.08 g/m*3 6.9 C 0 km/h
913 09-11-2010 21:46:01 6.8 C 7.04 g/m*3 6.8 C 0 km/h
914 09-11-2010 21:58:01 6.7 C 6.99 g/m*3 6.7 C 0 km/h
915 09-11-2010 22:10:02 6.7 C 6.99 g/m*3 6.7 C 0 km/h
916 09-11-2010 22:23:03 6.7 C 6.99 g/m*3 6.7 C 0 km/h
917 09-11-2010 22:35:03 6.7 C 6.99 g/m*3 6.7 C 0 km/h
918 09-11-2010 22:47:03 6.9 C 7.08 g/m*3 6.9 C 0 km/h
919 09-11-2010 22:59:03 6.9 C 7.08 g/m*3 6.9 C 0 km/h
920 09-11-2010 23:11:03 6.9 C 7.08 g/m*3 6.9 C 0 km/h
921 09-11-2010 23:23:03 6.9 C 7.08 g/m*3 6.9 C 0 km/h
922 09-11-2010 23:35:03 6.9 C 7.08 g/m*3 6.9 C 0 km/h
923 09-11-2010 23:47:03 6.8 C 7.04 g/m*3 6.8 C 0 km/h
924 09-11-2010 23:59:03 6.7 C 6.99 g/m*3 6.7 C 0 km/h
925 10-11-2010 00:11:03 6.6 C 6.95 g/m*3 6.6 C 0 km/h
Sensor: Nr:Datum:Temp:Abs-Feuchte:Windchill:Wind:
Aussen-T/F 926 10-11-2010 00:23:03 6.4 C 6.85 g/m*3 6.4 C 0 km/h
927 10-11-2010 00:35:03 6.3 C 6.81 g/m*3 6.3 C 0 km/h
928 10-11-2010 00:47:03 6.7 C 6.99 g/m*3 6.7 C 0 km/h
929 10-11-2010 00:59:03 6.8 C 7.04 g/m*3 6.8 C 0 km/h
930 10-11-2010 01:11:03 6.9 C 7.08 g/m*3 6.9 C 0 km/h
931 10-11-2010 01:23:03 6.9 C 7.16 g/m*3 6.9 C 0 km/h
932 10-11-2010 01:35:03 7 C 7.13 g/m*3 7 C 0 km/h
933 10-11-2010 01:47:04 6.9 C 7.16 g/m*3 6.9 C 0 km/h
934 10-11-2010 01:59:04 6.9 C 7.16 g/m*3 6.9 C 0 km/h
935 10-11-2010 02:11:04 6.9 C 7.16 g/m*3 6.9 C 0 km/h
936 10-11-2010 02:23:04 6.9 C 7.16 g/m*3 6.9 C 0 km/h
937 10-11-2010 02:35:04 6.8 C 7.11 g/m*3 6.8 C 0 km/h
938 10-11-2010 02:47:04 6.9 C 7.16 g/m*3 6.9 C 0 km/h
939 10-11-2010 02:59:04 7 C 7.13 g/m*3 7 C 0 km/h
940 10-11-2010 03:11:04 7.1 C 7.18 g/m*3 7.1 C 0 km/h
941 10-11-2010 03:23:04 7.1 C 7.18 g/m*3 7.1 C 0 km/h
942 10-11-2010 03:35:04 7 C 7.13 g/m*3 7 C 0 km/h
943 10-11-2010 03:47:04 7.2 C 7.22 g/m*3 7.2 C 0 km/h
944 10-11-2010 03:59:04 7.1 C 7.18 g/m*3 7.1 C 0 km/h
945 10-11-2010 04:11:04 7 C 7.13 g/m*3 7 C 0 km/h
946 10-11-2010 04:23:04 7 C 7.13 g/m*3 7 C 0 km/h
947 10-11-2010 04:35:04 6.8 C 7.11 g/m*3 6.8 C 0 km/h
948 10-11-2010 04:47:04 6.8 C 7.11 g/m*3 6.8 C 0 km/h
949 10-11-2010 04:59:04 6.8 C 7.11 g/m*3 6.8 C 0 km/h
950 10-11-2010 05:11:04 6.8 C 7.11 g/m*3 6.8 C 0 km/h
Sensor: Nr:Datum:Temp:Abs-Feuchte:Windchill:Wind:
Aussen-T/F 951 10-11-2010 05:23:04 6.7 C 7.07 g/m*3 6.7 C 0 km/h
952 10-11-2010 05:35:04 6.9 C 7.16 g/m*3 6.9 C 0 km/h
953 10-11-2010 05:47:05 7 C 7.13 g/m*3 7 C 0 km/h
954 10-11-2010 05:59:05 7.1 C 7.18 g/m*3 7.1 C 0 km/h
955 10-11-2010 06:11:05 7.1 C 7.18 g/m*3 7.1 C 0 km/h
956 10-11-2010 06:23:05 7 C 7.13 g/m*3 7 C 0 km/h
957 10-11-2010 06:35:05 6.9 C 7.16 g/m*3 6.9 C 0 km/h
958 10-11-2010 06:47:05 6.8 C 7.11 g/m*3 6.8 C 0 km/h
959 10-11-2010 06:59:05 6.3 C 6.88 g/m*3 6.3 C 0 km/h
960 10-11-2010 07:11:05 6.1 C 6.79 g/m*3 6.1 C 0 km/h
961 10-11-2010 07:23:05 6.1 C 6.79 g/m*3 6.1 C 0 km/h
962 10-11-2010 07:35:05 6.7 C 6.99 g/m*3 6.7 C 0 km/h
963 10-11-2010 07:47:03 6.3 C 6.81 g/m*3 6.3 C 0 km/h
964 10-11-2010 07:59:03 6.5 C 6.97 g/m*3 6.5 C 0 km/h
965 10-11-2010 08:11:02 6.6 C 7.02 g/m*3 6.6 C 0 km/h
966 10-11-2010 08:23:03 6.6 C 7.02 g/m*3 6.6 C 0 km/h
967 10-11-2010 08:35:02 6.7 C 7.07 g/m*3 6.7 C 0 km/h
968 10-11-2010 08:47:02 6.7 C 6.99 g/m*3 6.7 C 0 km/h
969 10-11-2010 08:59:02 7 C 7.13 g/m*3 7 C 0 km/h
970 10-11-2010 09:11:02 7.3 C 7.27 g/m*3 7.3 C 0 km/h
971 10-11-2010 09:23:02 8.2 C 7.62 g/m*3 8.2 C 0 km/h
972 10-11-2010 09:35:03 8.3 C 7.67 g/m*3 8.3 C 0 km/h
973 10-11-2010 09:47:02 8.6 C 7.73 g/m*3 8.6 C 0 km/h
974 10-11-2010 09:59:03 8.7 C 7.52 g/m*3 8.7 C 0 km/h
975 10-11-2010 10:11:01 9 C 7.32 g/m*3 9 C 0 km/h
Sensor: Nr:Datum:Temp:Abs-Feuchte:Windchill:Wind:
Aussen-T/F 976 10-11-2010 10:23:02 9.5 C 7.19 g/m*3 9.5 C 0 km/h
977 10-11-2010 10:35:02 9.6 C 6.96 g/m*3 9.6 C 0 km/h
978 10-11-2010 10:47:02 9.8 C 6.59 g/m*3 9.8 C 0 km/h
979 10-11-2010 10:59:02 10.1 C 6.52 g/m*3 10.1 C 0 km/h
980 10-11-2010 11:11:03 9.6 C 6.41 g/m*3 9.6 C 0 km/h
981 10-11-2010 11:23:02 9.6 C 6.5 g/m*3 9.6 C 0 km/h
982 10-11-2010 11:35:02 9.5 C 6.46 g/m*3 9.5 C 0 km/h
983 10-11-2010 11:47:01 9.6 C 6.5 g/m*3 9.6 C 0 km/h
984 10-11-2010 11:59:01 9.9 C 6.54 g/m*3 9.9 C 0 km/h
985 10-11-2010 12:11:02 9.8 C 6.49 g/m*3 9.8 C 0 km/h
986 10-11-2010 12:23:01 10.1 C 6.43 g/m*3 10.1 C 0 km/h
987 10-11-2010 12:35:01 9.8 C 6.49 g/m*3 9.8 C 0 km/h
988 10-11-2010 12:47:01 10.4 C 6.55 g/m*3 10.4 C 0 km/h
989 10-11-2010 12:59:01 10.8 C 6.42 g/m*3 10.8 C 0 km/h
990 10-11-2010 13:11:02 10.9 C 6.47 g/m*3 10.9 C 0 km/h
991 10-11-2010 13:23:01 11.2 C 6.18 g/m*3 11.2 C 0 km/h
992 10-11-2010 13:35:01 11.2 C 6.18 g/m*3 11.2 C 0 km/h
993 10-11-2010 13:47:01 11.2 C 5.98 g/m*3 11.2 C 0 km/h
994 10-11-2010 13:59:01 10.9 C 5.97 g/m*3 10.9 C 0 km/h
995 10-11-2010 14:11:01 10.5 C 5.92 g/m*3 10.5 C 0 km/h
996 10-11-2010 14:23:02 10.5 C 6.01 g/m*3 10.5 C 0 km/h
997 10-11-2010 14:35:01 10.5 C 6.01 g/m*3 10.5 C 0 km/h
998 10-11-2010 14:47:02 10.6 C 6.05 g/m*3 10.6 C 0 km/h
999 10-11-2010 14:59:02 10.5 C 6.11 g/m*3 10.5 C 0 km/h
1000 10-11-2010 15:11:01 10.2 C 6.28 g/m*3 10.2 C 0 km/h
Sensor: Nr:Datum:Temp:Abs-Feuchte:Windchill:Wind:
Aussen-T/F 1001 10-11-2010 15:23:02 7.9 C 6.32 g/m*3 7.9 C 0 km/h
1002 10-11-2010 15:35:01 7.4 C 6.44 g/m*3 7.4 C 0 km/h
1003 10-11-2010 15:47:02 7.1 C 6.47 g/m*3 7.1 C 0 km/h
1004 10-11-2010 15:59:02 6.7 C 6.38 g/m*3 6.7 C 0 km/h
1005 10-11-2010 16:11:02 6.5 C 6.22 g/m*3 6.5 C 0 km/h
1006 10-11-2010 16:23:02 6.1 C 6.14 g/m*3 6.1 C 0 km/h
1007 10-11-2010 16:35:02 6.3 C 6.22 g/m*3 6.3 C 0 km/h
1008 10-11-2010 16:47:02 6.1 C 6.14 g/m*3 6.1 C 0 km/h
1009 10-11-2010 16:59:02 6.2 C 6.18 g/m*3 6.2 C 0 km/h
1010 10-11-2010 17:11:02 6.3 C 6 g/m*3 6.3 C 0 km/h
1011 10-11-2010 17:23:02 6.1 C 5.77 g/m*3 6.1 C 0 km/h
1012 10-11-2010 17:35:01 5.9 C 5.84 g/m*3 5.9 C 0 km/h
1013 10-11-2010 17:47:02 5.7 C 5.69 g/m*3 5.7 C 0 km/h
1014 10-11-2010 17:59:02 5.7 C 5.76 g/m*3 5.7 C 0 km/h
1015 10-11-2010 18:11:01 5.4 C 5.58 g/m*3 5.4 C 0 km/h
1016 10-11-2010 18:23:02 5.3 C 5.68 g/m*3 5.3 C 0 km/h
1017 10-11-2010 18:35:01 5.2 C 5.65 g/m*3 5.2 C 0 km/h
1018 10-11-2010 18:47:02 5.2 C 5.71 g/m*3 5.2 C 0 km/h
1019 10-11-2010 18:59:03 5 C 5.71 g/m*3 5 C 0 km/h
1020 10-11-2010 19:11:02 5.1 C 5.68 g/m*3 5.1 C 0 km/h
1021 10-11-2010 19:23:02 5 C 5.64 g/m*3 5 C 0 km/h
1022 10-11-2010 19:35:02 5.3 C 5.68 g/m*3 5.3 C 0 km/h
1023 10-11-2010 19:47:01 5.3 C 5.61 g/m*3 5.3 C 0 km/h
1024 10-11-2010 19:59:01 5.3 C 5.54 g/m*3 5.3 C 0 km/h
1025 10-11-2010 20:11:02 5.2 C 5.51 g/m*3 5.2 C 0 km/h
Sensor: Nr:Datum:Temp:Abs-Feuchte:Windchill:Wind:
Aussen-T/F 1026 10-11-2010 20:23:01 5.4 C 5.51 g/m*3 5.4 C 0 km/h
1027 10-11-2010 20:35:02 5.5 C 5.48 g/m*3 5.5 C 0 km/h
1028 10-11-2010 20:47:02 5.3 C 5.54 g/m*3 5.3 C 0 km/h
1029 10-11-2010 20:59:02 5.3 C 5.48 g/m*3 5.3 C 0 km/h
1030 10-11-2010 21:11:02 5 C 5.5 g/m*3 5 C 0 km/h
1031 10-11-2010 21:23:02 4.8 C 5.63 g/m*3 4.8 C 0 km/h
1032 10-11-2010 21:35:02 4.6 C 5.62 g/m*3 4.6 C 0 km/h
1033 10-11-2010 21:47:02 4.1 C 5.44 g/m*3 4.1 C 0 km/h
1034 10-11-2010 21:59:02 3.8 C 5.4 g/m*3 3.8 C 0 km/h
1035 10-11-2010 22:11:02 4.1 C 5.5 g/m*3 4.1 C 0 km/h
1036 10-11-2010 22:24:03 4.3 C 5.58 g/m*3 4.3 C 0 km/h
1037 10-11-2010 22:36:04 4.9 C 5.74 g/m*3 4.9 C 0 km/h
1038 10-11-2010 22:48:04 4.9 C 5.54 g/m*3 4.9 C 0 km/h
1039 10-11-2010 23:00:04 4.5 C 5.32 g/m*3 4.5 C 0 km/h
1040 10-11-2010 23:12:04 4.5 C 5.39 g/m*3 4.5 C 0 km/h
1041 10-11-2010 23:24:04 4.2 C 5.35 g/m*3 4.2 C 0 km/h
1042 10-11-2010 23:36:04 4.1 C 5.31 g/m*3 4.1 C 0 km/h
1043 10-11-2010 23:48:04 4.2 C 5.35 g/m*3 4.2 C 0 km/h
1044 11-11-2010 00:00:04 4.5 C 5.39 g/m*3 4.5 C 0 km/h
1045 11-11-2010 00:12:04 4.8 C 5.3 g/m*3 4.8 C 0 km/h
1046 11-11-2010 00:24:04 4.8 C 5.23 g/m*3 4.8 C 0 km/h
1047 11-11-2010 00:36:04 4.5 C 5.19 g/m*3 4.5 C 0 km/h
1048 11-11-2010 00:48:04 4.4 C 5.35 g/m*3 4.4 C 0 km/h
1049 11-11-2010 01:00:04 4.4 C 5.42 g/m*3 4.4 C 0 km/h
1050 11-11-2010 01:12:04 4.5 C 5.46 g/m*3 4.5 C 0 km/h
Sensor: Nr:Datum:Temp:Abs-Feuchte:Windchill:Wind:
Aussen-T/F 1051 11-11-2010 01:24:04 4.5 C 5.46 g/m*3 4.5 C 0 km/h
1052 11-11-2010 01:36:04 4.6 C 5.49 g/m*3 4.6 C 0 km/h
1053 11-11-2010 01:48:04 4.5 C 5.39 g/m*3 4.5 C 0 km/h
1054 11-11-2010 02:00:04 5 C 5.5 g/m*3 5 C 0 km/h
1055 11-11-2010 02:12:04 5 C 5.44 g/m*3 5 C 0 km/h
1056 11-11-2010 02:24:04 4.9 C 5.4 g/m*3 4.9 C 0 km/h
1057 11-11-2010 02:36:04 5.1 C 5.4 g/m*3 5.1 C 0 km/h
1058 11-11-2010 02:48:04 5.1 C 5.34 g/m*3 5.1 C 0 km/h
1059 11-11-2010 03:00:05 5.2 C 5.3 g/m*3 5.2 C 0 km/h
1060 11-11-2010 03:12:05 5.2 C 5.3 g/m*3 5.2 C 0 km/h
1061 11-11-2010 03:24:05 5.2 C 5.23 g/m*3 5.2 C 0 km/h
1062 11-11-2010 03:36:05 4.4 C 5.09 g/m*3 4.4 C 0 km/h
1063 11-11-2010 03:48:05 4.2 C 5.22 g/m*3 4.2 C 0 km/h
1064 11-11-2010 04:00:05 4.6 C 5.29 g/m*3 4.6 C 0 km/h
1065 11-11-2010 04:12:05 4.1 C 5.12 g/m*3 4.1 C 0 km/h
1066 11-11-2010 04:24:05 4.2 C 5.22 g/m*3 4.2 C 0 km/h
1067 11-11-2010 04:36:05 4.5 C 5.32 g/m*3 4.5 C 0 km/h
1068 11-11-2010 04:48:05 4.1 C 5.25 g/m*3 4.1 C 0 km/h
1069 11-11-2010 05:00:05 3.8 C 5.21 g/m*3 3.8 C 0 km/h
1070 11-11-2010 05:12:05 4 C 5.28 g/m*3 4 C 0 km/h
1071 11-11-2010 05:24:05 3.7 C 5.11 g/m*3 3.7 C 0 km/h
1072 11-11-2010 05:36:05 4.6 C 5.23 g/m*3 4.6 C 0 km/h
1073 11-11-2010 05:48:05 4.5 C 5.19 g/m*3 4.5 C 0 km/h
1074 11-11-2010 06:00:05 4.2 C 5.03 g/m*3 4.2 C 0 km/h
1075 11-11-2010 06:12:05 3.5 C 4.92 g/m*3 3.5 C 0 km/h
Sensor: Nr:Datum:Temp:Abs-Feuchte:Windchill:Wind:
Aussen-T/F 1076 11-11-2010 06:24:05 3.6 C 5.08 g/m*3 3.6 C 0 km/h
1077 11-11-2010 06:36:05 3.7 C 5.05 g/m*3 3.7 C 0 km/h
1078 11-11-2010 06:48:05 3.5 C 4.98 g/m*3 3.5 C 0 km/h
1079 11-11-2010 07:00:05 3.1 C 4.85 g/m*3 3.1 C 0 km/h
1080 11-11-2010 07:12:05 3.1 C 4.91 g/m*3 3.1 C 0 km/h
1081 11-11-2010 07:24:03 3.6 C 5.08 g/m*3 3.6 C 0 km/h
1082 11-11-2010 07:36:03 4 C 5.09 g/m*3 4 C 0 km/h
1083 11-11-2010 07:48:01 4 C 4.96 g/m*3 4 C 0 km/h
1084 11-11-2010 08:00:01 3.3 C 4.73 g/m*3 3.3 C 0 km/h
1085 11-11-2010 08:12:02 2.5 C 4.71 g/m*3 2.5 C 0 km/h
1086 11-11-2010 08:24:01 2 C 4.61 g/m*3 2 C 0 km/h
1087 11-11-2010 08:36:02 2.1 C 4.76 g/m*3 2.1 C 0 km/h
1088 11-11-2010 08:48:02 1.7 C 4.74 g/m*3 1.7 C 0 km/h
1089 11-11-2010 09:00:02 2.2 C 4.9 g/m*3 2.2 C 0 km/h
1090 11-11-2010 09:12:02 3.1 C 5.27 g/m*3 3.1 C 0 km/h
1091 11-11-2010 09:24:02 4 C 5.53 g/m*3 4 C 0 km/h
1092 11-11-2010 09:36:02 4.5 C 5.52 g/m*3 4.5 C 0 km/h
1093 11-11-2010 09:48:02 4.5 C 5.19 g/m*3 4.5 C 0 km/h
1094 11-11-2010 10:00:02 4.7 C 4.93 g/m*3 4.7 C 0 km/h
1095 11-11-2010 10:12:02 5 C 4.76 g/m*3 5 C 0 km/h
1096 11-11-2010 10:24:02 5.5 C 4.64 g/m*3 5.5 C 0 km/h
1097 11-11-2010 10:36:02 6.2 C 4.41 g/m*3 6.2 C 0 km/h
1098 11-11-2010 10:48:02 6.5 C 4.12 g/m*3 6.5 C 0 km/h
1099 11-11-2010 11:00:02 6.7 C 3.88 g/m*3 6.7 C 0 km/h
1100 11-11-2010 11:12:02 6.9 C 3.85 g/m*3 6.9 C 0 km/h
Sensor: Nr:Datum:Temp:Abs-Feuchte:Windchill:Wind:
Aussen-T/F 1101 11-11-2010 11:24:02 7 C 3.72 g/m*3 7 C 0 km/h
1102 11-11-2010 11:36:02 7.1 C 3.74 g/m*3 7.1 C 0 km/h
1103 11-11-2010 11:48:03 7 C 3.72 g/m*3 7 C 0 km/h
1104 11-11-2010 12:00:03 7.2 C 3.92 g/m*3 7.2 C 0 km/h
1105 11-11-2010 12:12:03 7.2 C 3.85 g/m*3 7.2 C 0 km/h
1106 11-11-2010 12:24:03 7.4 C 3.98 g/m*3 7.4 C 0 km/h
1107 11-11-2010 12:36:04 7.6 C 4.03 g/m*3 7.6 C 0 km/h
1108 11-11-2010 12:48:04 7.9 C 4.11 g/m*3 7.9 C 0 km/h
1109 11-11-2010 13:00:04 7.9 C 4.11 g/m*3 7.9 C 0 km/h
1110 11-11-2010 13:12:04 7.7 C 4.14 g/m*3 7.7 C 0 km/h
1111 11-11-2010 13:24:04 7.7 C 4.22 g/m*3 7.7 C 0 km/h
1112 11-11-2010 13:36:04 7.6 C 4.11 g/m*3 7.6 C 0 km/h
1113 11-11-2010 13:48:04 7.6 C 4.19 g/m*3 7.6 C 0 km/h
1114 11-11-2010 14:00:04 7.4 C 4.21 g/m*3 7.4 C 0 km/h
1115 11-11-2010 14:12:04 7.4 C 4.29 g/m*3 7.4 C 0 km/h
1116 11-11-2010 14:24:04 7.3 C 4.27 g/m*3 7.3 C 0 km/h
1117 11-11-2010 14:36:04 7.3 C 4.19 g/m*3 7.3 C 0 km/h
1118 11-11-2010 14:48:04 7.4 C 4.21 g/m*3 7.4 C 0 km/h
1119 11-11-2010 15:00:04 7.3 C 4.27 g/m*3 7.3 C 0 km/h
1120 11-11-2010 15:12:04 7.3 C 4.35 g/m*3 7.3 C 0 km/h
1121 11-11-2010 15:24:04 7 C 4.34 g/m*3 7 C 0 km/h
1122 11-11-2010 15:36:04 6.4 C 4.47 g/m*3 6.4 C 0 km/h
1123 11-11-2010 15:48:04 6 C 4.79 g/m*3 6 C 0 km/h
1124 11-11-2010 16:00:04 5.7 C 4.91 g/m*3 5.7 C 0 km/h
1125 11-11-2010 16:12:04 5.7 C 5.05 g/m*3 5.7 C 0 km/h
Sensor: Nr:Datum:Temp:Abs-Feuchte:Windchill:Wind:
Aussen-T/F 1126 11-11-2010 16:24:04 5.6 C 5.09 g/m*3 5.6 C 0 km/h
1127 11-11-2010 16:36:04 5.3 C 5.06 g/m*3 5.3 C 0 km/h
1128 11-11-2010 16:48:04 5.4 C 5.3 g/m*3 5.4 C 0 km/h
1129 11-11-2010 17:00:05 5 C 5.3 g/m*3 5 C 0 km/h
1130 11-11-2010 17:12:05 5 C 5.44 g/m*3 5 C 0 km/h
1131 11-11-2010 17:24:05 5.4 C 5.51 g/m*3 5.4 C 0 km/h
1132 11-11-2010 17:36:05 5.6 C 5.59 g/m*3 5.6 C 0 km/h
1133 11-11-2010 17:48:05 5.4 C 5.58 g/m*3 5.4 C 0 km/h
1134 11-11-2010 18:00:05 5.5 C 5.69 g/m*3 5.5 C 0 km/h
1135 11-11-2010 18:12:05 5.5 C 5.76 g/m*3 5.5 C 0 km/h
1136 11-11-2010 18:24:05 5.6 C 5.87 g/m*3 5.6 C 0 km/h
1137 11-11-2010 18:36:05 5.7 C 5.98 g/m*3 5.7 C 0 km/h
1138 11-11-2010 18:48:01 5.9 C 6.06 g/m*3 5.9 C 0 km/h
1139 11-11-2010 19:00:01 5.9 C 6.13 g/m*3 5.9 C 0 km/h
1140 11-11-2010 19:12:02 5.9 C 6.2 g/m*3 5.9 C 0 km/h
1141 11-11-2010 19:24:02 6.2 C 6.32 g/m*3 6.2 C 0 km/h
1142 11-11-2010 19:36:01 6.5 C 6.37 g/m*3 6.5 C 0 km/h
1143 11-11-2010 19:48:02 6.6 C 6.34 g/m*3 6.6 C 0 km/h
1144 11-11-2010 20:00:02 7 C 6.35 g/m*3 7 C 0 km/h
1145 11-11-2010 20:12:01 7.2 C 6.28 g/m*3 7.2 C 0 km/h
1146 11-11-2010 20:24:02 7.6 C 6.36 g/m*3 7.6 C 0 km/h
1147 11-11-2010 20:36:01 7.7 C 6.41 g/m*3 7.7 C 0 km/h
1148 11-11-2010 20:48:03 8 C 6.28 g/m*3 8 C 0 km/h
1149 11-11-2010 21:00:03 7.9 C 6.41 g/m*3 7.9 C 0 km/h
1150 11-11-2010 21:12:02 8.4 C 6.45 g/m*3 8.4 C 0 km/h
Sensor: Nr:Datum:Temp:Abs-Feuchte:Windchill:Wind:
Aussen-T/F 1151 11-11-2010 21:24:02 8.5 C 6.57 g/m*3 8.5 C 0 km/h
1152 11-11-2010 21:36:02 8.7 C 6.66 g/m*3 8.7 C 0 km/h
1153 11-11-2010 21:48:02 8.7 C 6.75 g/m*3 8.7 C 0 km/h
1154 11-11-2010 22:00:02 8.5 C 6.83 g/m*3 8.5 C 0 km/h
1155 11-11-2010 22:12:02 8.7 C 7.09 g/m*3 8.7 C 0 km/h
1156 11-11-2010 22:24:02 9 C 7.32 g/m*3 9 C 0 km/h
1157 11-11-2010 22:36:01 10.2 C 7.52 g/m*3 10.2 C 0 km/h
1158 11-11-2010 22:48:02 10.3 C 7.37 g/m*3 10.3 C 0 km/h
1159 11-11-2010 23:00:02 10 C 7.42 g/m*3 10 C 0 km/h
1160 11-11-2010 23:12:01 9.9 C 7.75 g/m*3 9.9 C 0 km/h
1161 11-11-2010 23:24:02 9.7 C 7.74 g/m*3 9.7 C 0 km/h
1162 11-11-2010 23:36:01 9.6 C 7.79 g/m*3 9.6 C 0 km/h
1163 11-11-2010 23:48:02 9.7 C 7.74 g/m*3 9.7 C 0 km/h
1164 12-11-2010 00:00:02 10 C 7.52 g/m*3 10 C 0 km/h
1165 12-11-2010 00:12:02 9.7 C 7.01 g/m*3 9.7 C 0 km/h
1166 12-11-2010 00:24:02 9.6 C 6.78 g/m*3 9.6 C 0 km/h
1167 12-11-2010 00:36:02 10 C 6.39 g/m*3 10 C 0 km/h
1168 12-11-2010 00:48:01 9.4 C 6.42 g/m*3 9.4 C 0 km/h
1169 12-11-2010 01:00:01 9.5 C 6.37 g/m*3 9.5 C 0 km/h
1170 12-11-2010 01:12:02 9.3 C 6.11 g/m*3 9.3 C 0 km/h
1171 12-11-2010 01:24:01 10 C 6.01 g/m*3 10 C 0 km/h
1172 12-11-2010 01:36:02 10.2 C 5.71 g/m*3 10.2 C 0 km/h
1173 12-11-2010 01:48:01 10.2 C 5.42 g/m*3 10.2 C 0 km/h
1174 12-11-2010 02:00:01 9.7 C 5.44 g/m*3 9.7 C 0 km/h
1175 12-11-2010 02:12:02 9.4 C 5.61 g/m*3 9.4 C 0 km/h
Sensor: Nr:Datum:Temp:Abs-Feuchte:Windchill:Wind:
Aussen-T/F 1176 12-11-2010 02:24:01 10.2 C 5.71 g/m*3 10.2 C 0 km/h
1177 12-11-2010 02:36:02 10.2 C 5.8 g/m*3 10.2 C 0 km/h
1178 12-11-2010 02:49:03 9.9 C 5.6 g/m*3 9.9 C 0 km/h
1179 12-11-2010 03:01:03 9.6 C 5.77 g/m*3 9.6 C 0 km/h
1180 12-11-2010 03:13:04 9.6 C 5.86 g/m*3 9.6 C 0 km/h
1181 12-11-2010 03:25:04 9.3 C 5.75 g/m*3 9.3 C 0 km/h
1182 12-11-2010 03:37:02 9.6 C 5.86 g/m*3 9.6 C 0 km/h
1183 12-11-2010 03:49:02 9.9 C 5.79 g/m*3 9.9 C 0 km/h
1184 12-11-2010 04:01:02 9.9 C 5.7 g/m*3 9.9 C 0 km/h
1185 12-11-2010 04:13:02 10.1 C 5.48 g/m*3 10.1 C 0 km/h
1186 12-11-2010 04:25:01 9.8 C 5.57 g/m*3 9.8 C 0 km/h
1187 12-11-2010 04:37:02 9.5 C 5.55 g/m*3 9.5 C 0 km/h
1188 12-11-2010 04:49:02 9.7 C 5.72 g/m*3 9.7 C 0 km/h
1189 12-11-2010 05:01:02 9.9 C 5.79 g/m*3 9.9 C 0 km/h
1190 12-11-2010 05:13:02 9.5 C 5.73 g/m*3 9.5 C 0 km/h
1191 12-11-2010 05:25:02 9.8 C 5.85 g/m*3 9.8 C 0 km/h
1192 12-11-2010 05:37:02 10.2 C 5.71 g/m*3 10.2 C 0 km/h
1193 12-11-2010 05:49:01 10.3 C 5.75 g/m*3 10.3 C 0 km/h
1194 12-11-2010 06:01:02 10.6 C 5.66 g/m*3 10.6 C 0 km/h
1195 12-11-2010 06:13:02 10.7 C 5.7 g/m*3 10.7 C 0 km/h
1196 12-11-2010 06:25:02 10.6 C 5.76 g/m*3 10.6 C 0 km/h
1197 12-11-2010 06:37:01 10.6 C 5.86 g/m*3 10.6 C 0 km/h
1198 12-11-2010 06:49:02 10.6 C 5.86 g/m*3 10.6 C 0 km/h
1199 12-11-2010 07:01:01 10.7 C 5.89 g/m*3 10.7 C 0 km/h
1200 12-11-2010 07:13:01 10.5 C 5.82 g/m*3 10.5 C 0 km/h
Sensor: Nr:Datum:Temp:Abs-Feuchte:Windchill:Wind:
Aussen-T/F 1201 12-11-2010 07:25:02 10.7 C 5.8 g/m*3 10.7 C 0 km/h
1202 12-11-2010 07:37:01 10.5 C 5.72 g/m*3 10.5 C 0 km/h
1203 12-11-2010 07:49:02 10.7 C 5.8 g/m*3 10.7 C 0 km/h
1204 12-11-2010 08:01:01 10.7 C 5.8 g/m*3 10.7 C 0 km/h
1205 12-11-2010 08:13:01 10.6 C 5.86 g/m*3 10.6 C 0 km/h
1206 12-11-2010 08:25:02 10.8 C 5.83 g/m*3 10.8 C 0 km/h
1207 12-11-2010 08:37:02 10.7 C 5.8 g/m*3 10.7 C 0 km/h
1208 12-11-2010 08:49:01 10.7 C 5.8 g/m*3 10.7 C 0 km/h
1209 12-11-2010 09:01:02 10.7 C 5.8 g/m*3 10.7 C 0 km/h
1210 12-11-2010 09:13:02 11 C 5.81 g/m*3 11 C 0 km/h
1211 12-11-2010 09:25:01 10.8 C 5.83 g/m*3 10.8 C 0 km/h
1212 12-11-2010 09:37:01 10.8 C 5.93 g/m*3 10.8 C 0 km/h
1213 12-11-2010 09:49:01 10.9 C 5.87 g/m*3 10.9 C 0 km/h
1214 12-11-2010 10:01:02 10.1 C 6.05 g/m*3 10.1 C 0 km/h
1215 12-11-2010 10:13:02 10.5 C 6.11 g/m*3 10.5 C 0 km/h
1216 12-11-2010 10:25:01 10.8 C 6.23 g/m*3 10.8 C 0 km/h
1217 12-11-2010 10:37:01 11 C 6.11 g/m*3 11 C 0 km/h
1218 12-11-2010 10:49:01 11.1 C 6.04 g/m*3 11.1 C 0 km/h
1219 12-11-2010 11:01:02 11.2 C 6.08 g/m*3 11.2 C 0 km/h
1220 12-11-2010 11:13:02 11.1 C 6.14 g/m*3 11.1 C 0 km/h
1221 12-11-2010 11:25:01 11.4 C 6.16 g/m*3 11.4 C 0 km/h
1222 12-11-2010 11:37:01 11.6 C 6.03 g/m*3 11.6 C 0 km/h
1223 12-11-2010 11:49:01 11.8 C 6 g/m*3 11.8 C 0 km/h
1224 12-11-2010 12:01:01 11.9 C 5.93 g/m*3 11.9 C 0 km/h
1225 12-11-2010 12:13:01 12.1 C 5.79 g/m*3 12.1 C 0 km/h
Sensor: Nr:Datum:Temp:Abs-Feuchte:Windchill:Wind:
Aussen-T/F 1226 12-11-2010 12:25:02 12.1 C 5.79 g/m*3 12.1 C 0 km/h
1227 12-11-2010 12:37:01 11.7 C 5.86 g/m*3 11.7 C 0 km/h
1228 12-11-2010 12:49:02 11.6 C 6.55 g/m*3 11.6 C 0 km/h
1229 12-11-2010 13:01:02 11.7 C 6.28 g/m*3 11.7 C 0 km/h
1230 12-11-2010 13:13:02 12 C 6.18 g/m*3 12 C 0 km/h
1231 12-11-2010 13:25:02 11.8 C 6.1 g/m*3 11.8 C 0 km/h
1232 12-11-2010 13:37:01 11.4 C 6.36 g/m*3 11.4 C 0 km/h
1233 12-11-2010 13:49:02 11.3 C 6.53 g/m*3 11.3 C 0 km/h
1234 12-11-2010 14:01:01 11.7 C 6.48 g/m*3 11.7 C 0 km/h
1235 12-11-2010 14:13:01 11.6 C 6.55 g/m*3 11.6 C 0 km/h
1236 12-11-2010 14:25:02 11.6 C 6.55 g/m*3 11.6 C 0 km/h
1237 12-11-2010 14:37:02 11.6 C 6.55 g/m*3 11.6 C 0 km/h
1238 12-11-2010 14:49:02 11.5 C 6.61 g/m*3 11.5 C 0 km/h
1239 12-11-2010 15:01:02 11.5 C 6.61 g/m*3 11.5 C 0 km/h
1240 12-11-2010 15:13:02 11.5 C 6.61 g/m*3 11.5 C 0 km/h
1241 12-11-2010 15:25:02 11.5 C 6.51 g/m*3 11.5 C 0 km/h
1242 12-11-2010 15:37:02 11.8 C 6.53 g/m*3 11.8 C 0 km/h
1243 12-11-2010 15:49:01 11.7 C 6.59 g/m*3 11.7 C 0 km/h
1244 12-11-2010 16:01:02 11.7 C 6.59 g/m*3 11.7 C 0 km/h
1245 12-11-2010 16:13:02 11.5 C 6.51 g/m*3 11.5 C 0 km/h
1246 12-11-2010 16:25:01 11.5 C 6.82 g/m*3 11.5 C 0 km/h
1247 12-11-2010 16:37:02 11.7 C 6.9 g/m*3 11.7 C 0 km/h
1248 12-11-2010 16:49:02 11.3 C 6.83 g/m*3 11.3 C 0 km/h
1249 12-11-2010 17:01:02 11.1 C 6.95 g/m*3 11.1 C 0 km/h
1250 12-11-2010 17:13:03 11 C 7.11 g/m*3 11 C 0 km/h
Sensor: Nr:Datum:Temp:Abs-Feuchte:Windchill:Wind:
Aussen-T/F 1251 12-11-2010 17:25:01 11.3 C 7.34 g/m*3 11.3 C 0 km/h
1252 12-11-2010 17:37:02 11.2 C 7.3 g/m*3 11.2 C 0 km/h
1253 12-11-2010 17:49:01 11.2 C 7.3 g/m*3 11.2 C 0 km/h
1254 12-11-2010 18:01:02 10.8 C 7.41 g/m*3 10.8 C 0 km/h
1255 12-11-2010 18:13:02 10.6 C 7.61 g/m*3 10.6 C 0 km/h
1256 12-11-2010 18:25:02 10.5 C 7.86 g/m*3 10.5 C 0 km/h
1257 12-11-2010 18:37:02 10.3 C 7.85 g/m*3 10.3 C 0 km/h
1258 12-11-2010 18:49:02 10.2 C 7.9 g/m*3 10.2 C 0 km/h
1259 12-11-2010 19:01:02 10.5 C 8.15 g/m*3 10.5 C 0 km/h
1260 12-11-2010 19:13:02 10.2 C 8.09 g/m*3 10.2 C 0 km/h
1261 12-11-2010 19:25:02 10.3 C 8.24 g/m*3 10.3 C 0 km/h
1262 12-11-2010 19:37:01 10.6 C 8.39 g/m*3 10.6 C 0 km/h
1263 12-11-2010 19:49:02 11 C 8.61 g/m*3 11 C 0 km/h
1264 12-11-2010 20:01:02 11.3 C 8.67 g/m*3 11.3 C 0 km/h
1265 12-11-2010 20:13:02 11.6 C 8.83 g/m*3 11.6 C 0 km/h
1266 12-11-2010 20:25:02 11.5 C 8.68 g/m*3 11.5 C 0 km/h
1267 12-11-2010 20:37:02 11.5 C 8.78 g/m*3 11.5 C 0 km/h
1268 12-11-2010 20:49:01 11.7 C 8.89 g/m*3 11.7 C 0 km/h
1269 12-11-2010 21:01:02 11.9 C 9.11 g/m*3 11.9 C 0 km/h
1270 12-11-2010 21:13:02 11.8 C 9.05 g/m*3 11.8 C 0 km/h
1271 12-11-2010 21:25:02 11.8 C 9.16 g/m*3 11.8 C 0 km/h
1272 12-11-2010 21:37:02 12.5 C 9.46 g/m*3 12.5 C 0 km/h
1273 12-11-2010 21:49:02 12.8 C 9.63 g/m*3 12.8 C 0 km/h
1274 12-11-2010 22:01:02 12.8 C 9.41 g/m*3 12.8 C 0 km/h
1275 12-11-2010 22:13:02 13.2 C 9.42 g/m*3 13.2 C 0 km/h
Sensor: Nr:Datum:Temp:Abs-Feuchte:Windchill:Wind:
Aussen-T/F 1276 12-11-2010 22:25:02 13.4 C 9.3 g/m*3 13.4 C 0 km/h
1277 12-11-2010 22:37:02 13.4 C 8.95 g/m*3 13.4 C 0 km/h
1278 12-11-2010 22:49:02 13.7 C 9 g/m*3 13.7 C 0 km/h
1279 12-11-2010 23:01:02 13.7 C 8.76 g/m*3 13.7 C 0 km/h
1280 12-11-2010 23:13:02 13.8 C 8.82 g/m*3 13.8 C 0 km/h
1281 12-11-2010 23:25:02 13.8 C 8.7 g/m*3 13.8 C 0 km/h
1282 12-11-2010 23:37:02 14 C 8.56 g/m*3 14 C 0 km/h
1283 12-11-2010 23:49:02 14.1 C 8.62 g/m*3 14.1 C 0 km/h
1284 13-11-2010 00:01:02 14 C 8.68 g/m*3 14 C 0 km/h
1285 13-11-2010 00:13:02 13.9 C 8.75 g/m*3 13.9 C 0 km/h
1286 13-11-2010 00:25:02 13.8 C 8.94 g/m*3 13.8 C 0 km/h
1287 13-11-2010 00:37:03 13.6 C 8.94 g/m*3 13.6 C 0 km/h
1288 13-11-2010 00:49:02 13.8 C 8.94 g/m*3 13.8 C 0 km/h
1289 13-11-2010 01:01:02 13.8 C 9.06 g/m*3 13.8 C 0 km/h
1290 13-11-2010 01:13:02 13.8 C 9.17 g/m*3 13.8 C 0 km/h
1291 13-11-2010 01:25:02 14 C 9.05 g/m*3 14 C 0 km/h
1292 13-11-2010 01:37:02 14 C 8.93 g/m*3 14 C 0 km/h
1293 13-11-2010 01:49:02 13.7 C 9.12 g/m*3 13.7 C 0 km/h
1294 13-11-2010 02:01:02 13.8 C 9.29 g/m*3 13.8 C 0 km/h
1295 13-11-2010 02:13:02 13.6 C 9.18 g/m*3 13.6 C 0 km/h
1296 13-11-2010 02:25:02 14 C 9.29 g/m*3 14 C 0 km/h
1297 13-11-2010 02:37:02 13.9 C 9.35 g/m*3 13.9 C 0 km/h
1298 13-11-2010 02:49:01 13.6 C 9.3 g/m*3 13.6 C 0 km/h
1299 13-11-2010 03:01:01 13.9 C 9.47 g/m*3 13.9 C 0 km/h
1300 13-11-2010 03:13:01 14 C 9.41 g/m*3 14 C 0 km/h
Sensor: Nr:Datum:Temp:Abs-Feuchte:Windchill:Wind:
Aussen-T/F 1301 13-11-2010 03:25:02 14.2 C 9.28 g/m*3 14.2 C 0 km/h
1302 13-11-2010 03:37:01 14.5 C 9.2 g/m*3 14.5 C 0 km/h
1303 13-11-2010 03:49:01 14.4 C 9.27 g/m*3 14.4 C 0 km/h
1304 13-11-2010 04:01:02 14.3 C 9.21 g/m*3 14.3 C 0 km/h
1305 13-11-2010 04:13:02 14.3 C 9.21 g/m*3 14.3 C 0 km/h
1306 13-11-2010 04:25:01 13.9 C 9.23 g/m*3 13.9 C 0 km/h
1307 13-11-2010 04:37:01 13.9 C 9.35 g/m*3 13.9 C 0 km/h
1308 13-11-2010 04:49:01 14.3 C 9.21 g/m*3 14.3 C 0 km/h
1309 13-11-2010 05:01:01 14.5 C 9.2 g/m*3 14.5 C 0 km/h
1310 13-11-2010 05:13:01 14.4 C 9.15 g/m*3 14.4 C 0 km/h
1311 13-11-2010 05:25:01 14.4 C 9.02 g/m*3 14.4 C 0 km/h
1312 13-11-2010 05:37:01 14.6 C 9.13 g/m*3 14.6 C 0 km/h
1313 13-11-2010 05:49:01 14.6 C 9.01 g/m*3 14.6 C 0 km/h
1314 13-11-2010 06:01:01 14.5 C 8.95 g/m*3 14.5 C 0 km/h
1315 13-11-2010 06:13:01 14.7 C 9.07 g/m*3 14.7 C 0 km/h
1316 13-11-2010 06:25:02 14.6 C 9.13 g/m*3 14.6 C 0 km/h
1317 13-11-2010 06:37:01 14.7 C 9.07 g/m*3 14.7 C 0 km/h
1318 13-11-2010 06:49:02 14.6 C 9.01 g/m*3 14.6 C 0 km/h
1319 13-11-2010 07:01:01 14.7 C 9.07 g/m*3 14.7 C 0 km/h
1320 13-11-2010 07:13:01 14.8 C 8.99 g/m*3 14.8 C 0 km/h
1321 13-11-2010 07:25:01 14.7 C 8.94 g/m*3 14.7 C 0 km/h
1322 13-11-2010 07:37:01 14.7 C 8.94 g/m*3 14.7 C 0 km/h
1323 13-11-2010 07:49:01 14.7 C 9.07 g/m*3 14.7 C 0 km/h
1324 13-11-2010 08:01:01 14.6 C 9.01 g/m*3 14.6 C 0 km/h
1325 13-11-2010 08:13:01 14.7 C 9.07 g/m*3 14.7 C 0 km/h
Sensor: Nr:Datum:Temp:Abs-Feuchte:Windchill:Wind:
Aussen-T/F 1326 13-11-2010 08:25:01 14.9 C 8.92 g/m*3 14.9 C 0 km/h
1327 13-11-2010 08:37:02 14.7 C 8.94 g/m*3 14.7 C 0 km/h
1328 13-11-2010 08:49:01 14.7 C 9.07 g/m*3 14.7 C 0 km/h
1329 13-11-2010 09:01:02 14.2 C 9.04 g/m*3 14.2 C 0 km/h
1330 13-11-2010 09:13:02 14.1 C 9.22 g/m*3 14.1 C 0 km/h
1331 13-11-2010 09:25:01 14.2 C 9.16 g/m*3 14.2 C 0 km/h
1332 13-11-2010 09:37:01 14.2 C 9.16 g/m*3 14.2 C 0 km/h
1333 13-11-2010 09:49:01 14.2 C 9.16 g/m*3 14.2 C 0 km/h
1334 13-11-2010 10:01:02 14 C 9.05 g/m*3 14 C 0 km/h
1335 13-11-2010 10:13:02 14 C 9.29 g/m*3 14 C 0 km/h
1336 13-11-2010 10:25:01 14.2 C 9.28 g/m*3 14.2 C 0 km/h
1337 13-11-2010 10:37:01 14.6 C 9.26 g/m*3 14.6 C 0 km/h
1338 13-11-2010 10:49:01 14.8 C 9.25 g/m*3 14.8 C 0 km/h
1339 13-11-2010 11:01:01 14.7 C 9.07 g/m*3 14.7 C 0 km/h
1340 13-11-2010 11:13:01 14.8 C 9.12 g/m*3 14.8 C 0 km/h
1341 13-11-2010 11:25:02 14.6 C 9.01 g/m*3 14.6 C 0 km/h
1342 13-11-2010 11:37:01 14.7 C 9.07 g/m*3 14.7 C 0 km/h
1343 13-11-2010 11:49:02 15 C 8.72 g/m*3 15 C 0 km/h
1344 13-11-2010 12:01:01 15.2 C 8.7 g/m*3 15.2 C 0 km/h
1345 13-11-2010 12:13:01 14.8 C 8.74 g/m*3 14.8 C 0 km/h
1346 13-11-2010 12:25:02 14.6 C 8.88 g/m*3 14.6 C 0 km/h
1347 13-11-2010 12:37:01 14.7 C 8.94 g/m*3 14.7 C 0 km/h
1348 13-11-2010 12:49:02 14.7 C 8.94 g/m*3 14.7 C 0 km/h
1349 13-11-2010 13:01:01 14.5 C 8.95 g/m*3 14.5 C 0 km/h
1350 13-11-2010 13:13:01 14.8 C 8.87 g/m*3 14.8 C 0 km/h
Sensor: Nr:Datum:Temp:Abs-Feuchte:Windchill:Wind:
Aussen-T/F 1351 13-11-2010 13:25:01 15.1 C 8.77 g/m*3 15.1 C 0 km/h
1352 13-11-2010 13:37:02 14.9 C 8.79 g/m*3 14.9 C 0 km/h
1353 13-11-2010 13:49:01 14.5 C 8.83 g/m*3 14.5 C 0 km/h
1354 13-11-2010 14:01:02 14.7 C 8.81 g/m*3 14.7 C 0 km/h
1355 13-11-2010 14:13:02 14.8 C 8.61 g/m*3 14.8 C 0 km/h
1356 13-11-2010 14:25:01 14.9 C 8.67 g/m*3 14.9 C 0 km/h
1357 13-11-2010 14:37:02 14.8 C 8.61 g/m*3 14.8 C 0 km/h
1358 13-11-2010 14:49:01 14.7 C 8.69 g/m*3 14.7 C 0 km/h
1359 13-11-2010 15:01:02 14.8 C 8.61 g/m*3 14.8 C 0 km/h
1360 13-11-2010 15:13:02 14.7 C 8.56 g/m*3 14.7 C 0 km/h
1361 13-11-2010 15:25:01 14.7 C 8.56 g/m*3 14.7 C 0 km/h
1362 13-11-2010 15:37:02 15 C 8.46 g/m*3 15 C 0 km/h
1363 13-11-2010 15:49:01 14.9 C 8.54 g/m*3 14.9 C 0 km/h
1364 13-11-2010 16:01:01 14.7 C 8.56 g/m*3 14.7 C 0 km/h
1365 13-11-2010 16:13:01 14.6 C 8.76 g/m*3 14.6 C 0 km/h
1366 13-11-2010 16:25:02 14.7 C 8.69 g/m*3 14.7 C 0 km/h
1367 13-11-2010 16:37:01 14.7 C 8.69 g/m*3 14.7 C 0 km/h
1368 13-11-2010 16:49:02 14.7 C 8.69 g/m*3 14.7 C 0 km/h
1369 13-11-2010 17:01:01 14.6 C 8.63 g/m*3 14.6 C 0 km/h
1370 13-11-2010 17:13:01 14.3 C 8.72 g/m*3 14.3 C 0 km/h
1371 13-11-2010 17:25:01 14 C 8.81 g/m*3 14 C 0 km/h
1372 13-11-2010 17:37:01 14 C 8.81 g/m*3 14 C 0 km/h
1373 13-11-2010 17:49:01 14.4 C 8.78 g/m*3 14.4 C 0 km/h
1374 13-11-2010 18:01:01 14.7 C 8.81 g/m*3 14.7 C 0 km/h
1375 13-11-2010 18:13:01 14.5 C 8.71 g/m*3 14.5 C 0 km/h
Sensor: Nr:Datum:Temp:Abs-Feuchte:Windchill:Wind:
Aussen-T/F 1376 13-11-2010 18:25:01 14.5 C 8.71 g/m*3 14.5 C 0 km/h
1377 13-11-2010 18:37:02 14.7 C 8.69 g/m*3 14.7 C 0 km/h
1378 13-11-2010 18:49:01 15 C 8.59 g/m*3 15 C 0 km/h
1379 13-11-2010 19:01:02 14.7 C 8.56 g/m*3 14.7 C 0 km/h
1380 13-11-2010 19:13:02 14.8 C 8.61 g/m*3 14.8 C 0 km/h
1381 13-11-2010 19:25:01 14.9 C 8.54 g/m*3 14.9 C 0 km/h
1382 13-11-2010 19:37:02 15.1 C 8.51 g/m*3 15.1 C 0 km/h
1383 13-11-2010 19:49:01 15.2 C 8.31 g/m*3 15.2 C 0 km/h
1384 13-11-2010 20:01:02 15.3 C 8.23 g/m*3 15.3 C 0 km/h
1385 13-11-2010 20:13:02 15.2 C 8.18 g/m*3 15.2 C 0 km/h
1386 13-11-2010 20:25:01 15.1 C 8.26 g/m*3 15.1 C 0 km/h
1387 13-11-2010 20:37:02 14.8 C 8.36 g/m*3 14.8 C 0 km/h
1388 13-11-2010 20:49:01 14.6 C 8.38 g/m*3 14.6 C 0 km/h
1389 13-11-2010 21:01:02 14.4 C 8.53 g/m*3 14.4 C 0 km/h
1390 13-11-2010 21:13:02 14.3 C 8.35 g/m*3 14.3 C 0 km/h
1391 13-11-2010 21:25:01 14.5 C 8.46 g/m*3 14.5 C 0 km/h
1392 13-11-2010 21:37:01 14.5 C 8.33 g/m*3 14.5 C 0 km/h
1393 13-11-2010 21:49:01 14.9 C 8.28 g/m*3 14.9 C 0 km/h
1394 13-11-2010 22:01:02 14.8 C 8.23 g/m*3 14.8 C 0 km/h
1395 13-11-2010 22:13:02 14.8 C 8.23 g/m*3 14.8 C 0 km/h
1396 13-11-2010 22:25:01 15.1 C 8 g/m*3 15.1 C 0 km/h
1397 13-11-2010 22:37:02 14.8 C 8.11 g/m*3 14.8 C 0 km/h
1398 13-11-2010 22:49:01 14.8 C 7.98 g/m*3 14.8 C 0 km/h
1399 13-11-2010 23:02:07 14.7 C 8.06 g/m*3 14.7 C 0 km/h
1400 13-11-2010 23:14:07 15.2 C 7.92 g/m*3 15.2 C 0 km/h
Sensor: Nr:Datum:Temp:Abs-Feuchte:Windchill:Wind:
Aussen-T/F 1401 13-11-2010 23:26:07 14.8 C 8.11 g/m*3 14.8 C 0 km/h
1402 13-11-2010 23:38:07 14.6 C 8.01 g/m*3 14.6 C 0 km/h
1403 13-11-2010 23:50:07 14.4 C 8.16 g/m*3 14.4 C 0 km/h
1404 14-11-2010 00:02:07 14.9 C 8.03 g/m*3 14.9 C 0 km/h
1405 14-11-2010 00:14:07 15.6 C 8.11 g/m*3 15.6 C 0 km/h
1406 14-11-2010 00:26:07 15.2 C 7.92 g/m*3 15.2 C 0 km/h
1407 14-11-2010 00:38:07 14.9 C 8.16 g/m*3 14.9 C 0 km/h
1408 14-11-2010 00:50:07 14.8 C 8.11 g/m*3 14.8 C 0 km/h
1409 14-11-2010 01:02:07 15.2 C 7.92 g/m*3 15.2 C 0 km/h
1410 14-11-2010 01:14:07 15.2 C 8.05 g/m*3 15.2 C 0 km/h
1411 14-11-2010 01:26:07 14.2 C 8.18 g/m*3 14.2 C 0 km/h
1412 14-11-2010 01:38:08 13.4 C 8.49 g/m*3 13.4 C 0 km/h
1413 14-11-2010 01:50:08 13.2 C 8.61 g/m*3 13.2 C 0 km/h
1414 14-11-2010 02:02:08 13.2 C 8.84 g/m*3 13.2 C 0 km/h
1415 14-11-2010 02:14:08 13.2 C 8.73 g/m*3 13.2 C 0 km/h
1416 14-11-2010 02:26:08 13.7 C 8.76 g/m*3 13.7 C 0 km/h
1417 14-11-2010 02:38:08 13.9 C 8.63 g/m*3 13.9 C 0 km/h
1418 14-11-2010 02:50:08 13.9 C 8.51 g/m*3 13.9 C 0 km/h
1419 14-11-2010 03:02:08 14.7 C 8.44 g/m*3 14.7 C 0 km/h
1420 14-11-2010 03:14:08 14.5 C 8.33 g/m*3 14.5 C 0 km/h
1421 14-11-2010 03:26:08 14.4 C 8.41 g/m*3 14.4 C 0 km/h
1422 14-11-2010 03:38:08 14.2 C 8.3 g/m*3 14.2 C 0 km/h
1423 14-11-2010 03:50:08 14 C 8.44 g/m*3 14 C 0 km/h
1424 14-11-2010 04:02:08 14 C 8.44 g/m*3 14 C 0 km/h
1425 14-11-2010 04:14:08 14 C 8.44 g/m*3 14 C 0 km/h
Sensor: Nr:Datum:Temp:Abs-Feuchte:Windchill:Wind:
Aussen-T/F 1426 14-11-2010 04:26:08 14.1 C 8.37 g/m*3 14.1 C 0 km/h
1427 14-11-2010 04:38:08 14.1 C 8.25 g/m*3 14.1 C 0 km/h
1428 14-11-2010 04:50:08 13.9 C 8.39 g/m*3 13.9 C 0 km/h
1429 14-11-2010 05:02:08 14 C 8.56 g/m*3 14 C 0 km/h
1430 14-11-2010 05:14:08 13.8 C 8.46 g/m*3 13.8 C 0 km/h
1431 14-11-2010 05:26:08 14.1 C 8.5 g/m*3 14.1 C 0 km/h
1432 14-11-2010 05:38:08 14 C 8.32 g/m*3 14 C 0 km/h
1433 14-11-2010 05:50:08 13.6 C 8.47 g/m*3 13.6 C 0 km/h
1434 14-11-2010 06:02:09 13.7 C 8.53 g/m*3 13.7 C 0 km/h
1435 14-11-2010 06:14:09 13.8 C 8.34 g/m*3 13.8 C 0 km/h
1436 14-11-2010 06:26:09 13.6 C 8.24 g/m*3 13.6 C 0 km/h
1437 14-11-2010 06:38:09 13.2 C 8.27 g/m*3 13.2 C 0 km/h
1438 14-11-2010 06:50:09 12.8 C 8.4 g/m*3 12.8 C 0 km/h
1439 14-11-2010 07:02:09 12.4 C 8.09 g/m*3 12.4 C 0 km/h
1440 14-11-2010 07:14:09 11.9 C 8.15 g/m*3 11.9 C 0 km/h
1441 14-11-2010 07:26:09 11.5 C 8.06 g/m*3 11.5 C 0 km/h
1442 14-11-2010 07:38:09 11.6 C 7.9 g/m*3 11.6 C 0 km/h
1443 14-11-2010 07:50:09 12.2 C 7.77 g/m*3 12.2 C 0 km/h
1444 14-11-2010 08:02:09 11.9 C 7.63 g/m*3 11.9 C 0 km/h
1445 14-11-2010 08:14:09 11.9 C 7.52 g/m*3 11.9 C 0 km/h
1446 14-11-2010 08:26:09 12.7 C 7.57 g/m*3 12.7 C 0 km/h
1447 14-11-2010 08:38:06 13 C 7.48 g/m*3 13 C 0 km/h
1448 14-11-2010 08:50:02 13.8 C 7.39 g/m*3 13.8 C 0 km/h
1449 14-11-2010 09:02:02 14.1 C 7.28 g/m*3 14.1 C 0 km/h
1450 14-11-2010 09:14:02 14.3 C 7.25 g/m*3 14.3 C 0 km/h
Sensor: Nr:Datum:Temp:Abs-Feuchte:Windchill:Wind:
Aussen-T/F 1451 14-11-2010 09:26:02 14.7 C 7.18 g/m*3 14.7 C 0 km/h
1452 14-11-2010 09:38:02 14.3 C 7.25 g/m*3 14.3 C 0 km/h
1453 14-11-2010 09:50:02 14 C 7.24 g/m*3 14 C 0 km/h
1454 14-11-2010 10:02:02 13.8 C 7.51 g/m*3 13.8 C 0 km/h
1455 14-11-2010 10:14:02 14.5 C 7.34 g/m*3 14.5 C 0 km/h
1456 14-11-2010 10:26:02 15 C 7.05 g/m*3 15 C 0 km/h
1457 14-11-2010 10:38:02 15.9 C 7.04 g/m*3 15.9 C 0 km/h
1458 14-11-2010 10:50:02 15.9 C 7.04 g/m*3 15.9 C 0 km/h
1459 14-11-2010 11:02:02 15.9 C 7.18 g/m*3 15.9 C 0 km/h
1460 14-11-2010 11:14:03 15.5 C 7.01 g/m*3 15.5 C 0 km/h
1461 14-11-2010 11:26:02 15.2 C 7.27 g/m*3 15.2 C 0 km/h
1462 14-11-2010 11:38:02 15 C 7.31 g/m*3 15 C 0 km/h
1463 14-11-2010 11:50:02 15.6 C 7.31 g/m*3 15.6 C 0 km/h
1464 14-11-2010 12:02:02 15.9 C 7.45 g/m*3 15.9 C 0 km/h
1465 14-11-2010 12:14:02 15.8 C 7.4 g/m*3 15.8 C 0 km/h
1466 14-11-2010 12:26:03 16 C 7.22 g/m*3 16 C 0 km/h
1467 14-11-2010 12:38:02 16.4 C 7.4 g/m*3 16.4 C 0 km/h
1468 14-11-2010 12:50:03 16.7 C 7.53 g/m*3 16.7 C 0 km/h
1469 14-11-2010 13:02:02 16.7 C 7.53 g/m*3 16.7 C 0 km/h
1470 14-11-2010 13:14:02 17.5 C 7.31 g/m*3 17.5 C 0 km/h
1471 14-11-2010 13:26:02 17.8 C 7.44 g/m*3 17.8 C 0 km/h
1472 14-11-2010 13:38:02 17.6 C 7.5 g/m*3 17.6 C 0 km/h
1473 14-11-2010 13:50:02 17.7 C 7.39 g/m*3 17.7 C 0 km/h
1474 14-11-2010 14:02:01 17.5 C 7.16 g/m*3 17.5 C 0 km/h
1475 14-11-2010 14:14:01 17.5 C 7.45 g/m*3 17.5 C 0 km/h
Sensor: Nr:Datum:Temp:Abs-Feuchte:Windchill:Wind:
Aussen-T/F 1476 14-11-2010 14:26:02 17.6 C 7.2 g/m*3 17.6 C 0 km/h
1477 14-11-2010 14:38:03 17.8 C 7.13 g/m*3 17.8 C 0 km/h
1478 14-11-2010 14:50:03 17.8 C 7.29 g/m*3 17.8 C 0 km/h
1479 14-11-2010 15:02:03 18 C 6.91 g/m*3 18 C 0 km/h
1480 14-11-2010 15:14:03 18 C 7.07 g/m*3 18 C 0 km/h
1481 14-11-2010 15:26:02 17.6 C 7.2 g/m*3 17.6 C 0 km/h
1482 14-11-2010 15:38:03 17.6 C 7.2 g/m*3 17.6 C 0 km/h
1483 14-11-2010 15:50:02 17.3 C 7.22 g/m*3 17.3 C 0 km/h
1484 14-11-2010 16:02:02 17.2 C 7.03 g/m*3 17.2 C 0 km/h
1485 14-11-2010 16:14:02 16.6 C 7.2 g/m*3 16.6 C 0 km/h
1486 14-11-2010 16:26:02 15.7 C 7.36 g/m*3 15.7 C 0 km/h
1487 14-11-2010 16:38:02 15.1 C 7.61 g/m*3 15.1 C 0 km/h
1488 14-11-2010 16:50:02 14 C 8.68 g/m*3 14 C 0 km/h
1489 14-11-2010 17:02:02 13.8 C 8.82 g/m*3 13.8 C 0 km/h
1490 14-11-2010 17:14:02 15.3 C 8.49 g/m*3 15.3 C 0 km/h
1491 14-11-2010 17:26:02 15.5 C 7.8 g/m*3 15.5 C 0 km/h
1492 14-11-2010 17:38:02 14.7 C 7.68 g/m*3 14.7 C 0 km/h
1493 14-11-2010 17:50:02 14.4 C 7.79 g/m*3 14.4 C 0 km/h
1494 14-11-2010 18:02:02 14.1 C 7.77 g/m*3 14.1 C 0 km/h
1495 14-11-2010 18:14:03 14.1 C 7.89 g/m*3 14.1 C 0 km/h
1496 14-11-2010 18:26:02 13.9 C 8.15 g/m*3 13.9 C 0 km/h
1497 14-11-2010 18:38:02 14.3 C 8.23 g/m*3 14.3 C 0 km/h
1498 14-11-2010 18:50:02 14.4 C 8.03 g/m*3 14.4 C 0 km/h
1499 14-11-2010 19:02:03 14 C 7.96 g/m*3 14 C 0 km/h
1500 14-11-2010 19:14:03 13.7 C 8.05 g/m*3 13.7 C 0 km/h
Sensor: Nr:Datum:Temp:Abs-Feuchte:Windchill:Wind:
Aussen-T/F 1501 14-11-2010 19:26:02 14 C 7.96 g/m*3 14 C 0 km/h
1502 14-11-2010 19:38:02 14.3 C 7.74 g/m*3 14.3 C 0 km/h
1503 14-11-2010 19:50:01 13.8 C 7.74 g/m*3 13.8 C 0 km/h
1504 14-11-2010 20:02:02 13.8 C 7.86 g/m*3 13.8 C 0 km/h
1505 14-11-2010 20:14:02 13.5 C 7.95 g/m*3 13.5 C 0 km/h
1506 14-11-2010 20:26:01 14.5 C 7.71 g/m*3 14.5 C 0 km/h
1507 14-11-2010 20:38:02 14.2 C 7.45 g/m*3 14.2 C 0 km/h
1508 14-11-2010 20:50:02 14.1 C 7.4 g/m*3 14.1 C 0 km/h
1509 14-11-2010 21:02:02 14.2 C 7.45 g/m*3 14.2 C 0 km/h
1510 14-11-2010 21:14:03 14 C 7.36 g/m*3 14 C 0 km/h
1511 14-11-2010 21:26:01 13.7 C 7.34 g/m*3 13.7 C 0 km/h
1512 14-11-2010 21:38:02 13.8 C 7.15 g/m*3 13.8 C 0 km/h
1513 14-11-2010 21:50:01 13.9 C 7.07 g/m*3 13.9 C 0 km/h
1514 14-11-2010 22:02:02 14 C 7 g/m*3 14 C 0 km/h
1515 14-11-2010 22:14:02 13.7 C 7.1 g/m*3 13.7 C 0 km/h
1516 14-11-2010 22:26:02 13.8 C 7.15 g/m*3 13.8 C 0 km/h
1517 14-11-2010 22:39:05 13.7 C 7.1 g/m*3 13.7 C 0 km/h
1518 14-11-2010 22:51:05 13.7 C 7.1 g/m*3 13.7 C 0 km/h
1519 14-11-2010 23:03:05 13.7 C 7.1 g/m*3 13.7 C 0 km/h
1520 14-11-2010 23:15:05 13.5 C 6.9 g/m*3 13.5 C 0 km/h
1521 14-11-2010 23:27:05 13.5 C 6.9 g/m*3 13.5 C 0 km/h
1522 14-11-2010 23:39:05 13.1 C 6.85 g/m*3 13.1 C 0 km/h
1523 14-11-2010 23:51:05 13.3 C 6.93 g/m*3 13.3 C 0 km/h
1524 15-11-2010 00:03:05 13.1 C 6.96 g/m*3 13.1 C 0 km/h
1525 15-11-2010 00:15:05 13 C 6.92 g/m*3 13 C 0 km/h
Sensor: Nr:Datum:Temp:Abs-Feuchte:Windchill:Wind:
Aussen-T/F 1526 15-11-2010 00:27:06 12.6 C 6.97 g/m*3 12.6 C 0 km/h
1527 15-11-2010 00:39:06 13 C 7.03 g/m*3 13 C 0 km/h
1528 15-11-2010 00:51:06 12.7 C 7.01 g/m*3 12.7 C 0 km/h
1529 15-11-2010 01:03:06 12.7 C 6.9 g/m*3 12.7 C 0 km/h
1530 15-11-2010 01:15:06 12.5 C 6.82 g/m*3 12.5 C 0 km/h
1531 15-11-2010 01:27:06 12.1 C 6.76 g/m*3 12.1 C 0 km/h
1532 15-11-2010 01:39:06 11.9 C 6.99 g/m*3 11.9 C 0 km/h
1533 15-11-2010 01:51:06 11.9 C 7.1 g/m*3 11.9 C 0 km/h
1534 15-11-2010 02:03:06 11.8 C 7.05 g/m*3 11.8 C 0 km/h
1535 15-11-2010 02:15:06 12 C 6.82 g/m*3 12 C 0 km/h
1536 15-11-2010 02:27:06 11.9 C 6.78 g/m*3 11.9 C 0 km/h
1537 15-11-2010 02:39:06 11.7 C 6.9 g/m*3 11.7 C 0 km/h
1538 15-11-2010 02:51:06 11.5 C 7.02 g/m*3 11.5 C 0 km/h
1539 15-11-2010 03:03:06 11.3 C 6.94 g/m*3 11.3 C 0 km/h
1540 15-11-2010 03:15:06 11.1 C 6.95 g/m*3 11.1 C 0 km/h
1541 15-11-2010 03:27:06 10.8 C 7.02 g/m*3 10.8 C 0 km/h
1542 15-11-2010 03:39:06 10.7 C 7.07 g/m*3 10.7 C 0 km/h
1543 15-11-2010 03:51:06 10.6 C 7.12 g/m*3 10.6 C 0 km/h
1544 15-11-2010 04:03:06 10.5 C 6.98 g/m*3 10.5 C 0 km/h
1545 15-11-2010 04:15:06 10.3 C 6.99 g/m*3 10.3 C 0 km/h
1546 15-11-2010 04:27:06 10.2 C 6.95 g/m*3 10.2 C 0 km/h
1547 15-11-2010 04:39:07 10.2 C 6.95 g/m*3 10.2 C 0 km/h
1548 15-11-2010 04:51:07 10 C 6.86 g/m*3 10 C 0 km/h
1549 15-11-2010 05:03:07 10.2 C 6.47 g/m*3 10.2 C 0 km/h
1550 15-11-2010 05:15:07 10.2 C 6.57 g/m*3 10.2 C 0 km/h
Sensor: Nr:Datum:Temp:Abs-Feuchte:Windchill:Wind:
Aussen-T/F 1551 15-11-2010 05:27:07 9.8 C 6.59 g/m*3 9.8 C 0 km/h
1552 15-11-2010 05:39:07 9.6 C 6.6 g/m*3 9.6 C 0 km/h
1553 15-11-2010 05:51:07 9.8 C 6.4 g/m*3 9.8 C 0 km/h
1554 15-11-2010 06:03:07 9.6 C 6.41 g/m*3 9.6 C 0 km/h
1555 15-11-2010 06:15:07 9.5 C 6.19 g/m*3 9.5 C 0 km/h
1556 15-11-2010 06:27:07 9.4 C 6.15 g/m*3 9.4 C 0 km/h
1557 15-11-2010 06:39:07 9.1 C 6.21 g/m*3 9.1 C 0 km/h
1558 15-11-2010 06:51:07 9.1 C 6.39 g/m*3 9.1 C 0 km/h
1559 15-11-2010 07:03:07 9.1 C 6.39 g/m*3 9.1 C 0 km/h
1560 15-11-2010 07:15:03 8.9 C 6.48 g/m*3 8.9 C 0 km/h
1561 15-11-2010 07:27:03 8.6 C 6.36 g/m*3 8.6 C 0 km/h
1562 15-11-2010 07:39:03 8.9 C 6.66 g/m*3 8.9 C 0 km/h
1563 15-11-2010 07:51:01 9.3 C 6.2 g/m*3 9.3 C 0 km/h
1564 15-11-2010 08:03:02 9.5 C 6.19 g/m*3 9.5 C 0 km/h
1565 15-11-2010 08:15:02 9.2 C 6.16 g/m*3 9.2 C 0 km/h
1566 15-11-2010 08:27:02 9 C 6.26 g/m*3 9 C 0 km/h
1567 15-11-2010 08:39:01 8.8 C 6.44 g/m*3 8.8 C 0 km/h
1568 15-11-2010 08:51:03 9 C 6.35 g/m*3 9 C 0 km/h
1569 15-11-2010 09:03:02 9.1 C 6.3 g/m*3 9.1 C 0 km/h
1570 15-11-2010 09:15:02 9.1 C 6.12 g/m*3 9.1 C 0 km/h
1571 15-11-2010 09:27:03 9.1 C 6.03 g/m*3 9.1 C 0 km/h
1572 15-11-2010 09:39:02 9.2 C 5.98 g/m*3 9.2 C 0 km/h
1573 15-11-2010 09:51:02 9.3 C 5.93 g/m*3 9.3 C 0 km/h
1574 15-11-2010 10:03:02 9.3 C 5.84 g/m*3 9.3 C 0 km/h
1575 15-11-2010 10:15:02 9.4 C 5.79 g/m*3 9.4 C 0 km/h
Sensor: Nr:Datum:Temp:Abs-Feuchte:Windchill:Wind:
Aussen-T/F 1576 15-11-2010 10:27:03 9.8 C 6.03 g/m*3 9.8 C 0 km/h
1577 15-11-2010 10:39:01 10.2 C 5.8 g/m*3 10.2 C 0 km/h
1578 15-11-2010 10:51:02 10.4 C 5.88 g/m*3 10.4 C 0 km/h
1579 15-11-2010 11:03:01 10.4 C 5.88 g/m*3 10.4 C 0 km/h
1580 15-11-2010 11:15:01 10.4 C 5.78 g/m*3 10.4 C 0 km/h
1581 15-11-2010 11:27:01 10.3 C 5.75 g/m*3 10.3 C 0 km/h
1582 15-11-2010 11:39:02 10 C 5.54 g/m*3 10 C 0 km/h
1583 15-11-2010 11:51:02 10.4 C 5.78 g/m*3 10.4 C 0 km/h
1584 15-11-2010 12:03:01 10.4 C 5.69 g/m*3 10.4 C 0 km/h
1585 15-11-2010 12:15:02 10.8 C 5.63 g/m*3 10.8 C 0 km/h
1586 15-11-2010 12:27:02 10.9 C 5.47 g/m*3 10.9 C 0 km/h
1587 15-11-2010 12:39:02 11.2 C 5.57 g/m*3 11.2 C 0 km/h
1588 15-11-2010 12:51:01 10.9 C 5.47 g/m*3 10.9 C 0 km/h
1589 15-11-2010 13:03:02 10.8 C 5.54 g/m*3 10.8 C 0 km/h
1590 15-11-2010 13:15:01 10.5 C 5.63 g/m*3 10.5 C 0 km/h
1591 15-11-2010 13:27:01 10.4 C 5.69 g/m*3 10.4 C 0 km/h
1592 15-11-2010 13:39:01 10.3 C 5.65 g/m*3 10.3 C 0 km/h
1593 15-11-2010 13:51:02 10.4 C 5.59 g/m*3 10.4 C 0 km/h
1594 15-11-2010 14:03:02 10.3 C 5.46 g/m*3 10.3 C 0 km/h
1595 15-11-2010 14:15:01 10.4 C 5.49 g/m*3 10.4 C 0 km/h
1596 15-11-2010 14:27:01 10.2 C 5.52 g/m*3 10.2 C 0 km/h
1597 15-11-2010 14:39:02 10.2 C 5.52 g/m*3 10.2 C 0 km/h
1598 15-11-2010 14:51:02 10.1 C 5.48 g/m*3 10.1 C 0 km/h
1599 15-11-2010 15:03:02 10 C 5.45 g/m*3 10 C 0 km/h
1600 15-11-2010 15:15:01 9.9 C 5.6 g/m*3 9.9 C 0 km/h
Sensor: Nr:Datum:Temp:Abs-Feuchte:Windchill:Wind:
Aussen-T/F 1601 15-11-2010 15:27:01 9.7 C 5.53 g/m*3 9.7 C 0 km/h
1602 15-11-2010 15:39:02 9.5 C 5.55 g/m*3 9.5 C 0 km/h
1603 15-11-2010 15:51:01 9.3 C 5.57 g/m*3 9.3 C 0 km/h
1604 15-11-2010 16:03:02 9.3 C 5.57 g/m*3 9.3 C 0 km/h
1605 15-11-2010 16:15:02 9.2 C 5.71 g/m*3 9.2 C 0 km/h
1606 15-11-2010 16:27:02 8.9 C 5.69 g/m*3 8.9 C 0 km/h
1607 15-11-2010 16:39:02 8.8 C 5.74 g/m*3 8.8 C 0 km/h
1608 15-11-2010 16:51:02 8.6 C 5.76 g/m*3 8.6 C 0 km/h
1609 15-11-2010 17:03:02 8.4 C 5.77 g/m*3 8.4 C 0 km/h
1610 15-11-2010 17:15:43 8.2 C 5.78 g/m*3 8.2 C 0 km/h
1611 15-11-2010 17:27:43 8.2 C 5.78 g/m*3 8.2 C 0 km/h
1612 15-11-2010 17:39:01 8.1 C 5.82 g/m*3 8.1 C 0 km/h
1613 15-11-2010 17:51:02 7.9 C 5.91 g/m*3 7.9 C 0 km/h
1614 15-11-2010 18:03:02 7.8 C 5.96 g/m*3 7.8 C 0 km/h
1615 15-11-2010 18:15:01 8.2 C 5.86 g/m*3 8.2 C 0 km/h
1616 15-11-2010 18:27:01 8.3 C 5.9 g/m*3 8.3 C 0 km/h
1617 15-11-2010 18:39:02 8.2 C 5.86 g/m*3 8.2 C 0 km/h
1618 15-11-2010 18:51:02 8.2 C 5.86 g/m*3 8.2 C 0 km/h
1619 15-11-2010 19:03:02 8.2 C 5.78 g/m*3 8.2 C 0 km/h
1620 15-11-2010 19:15:01 8.1 C 5.91 g/m*3 8.1 C 0 km/h
1621 15-11-2010 19:27:01 8 C 5.87 g/m*3 8 C 0 km/h
1622 15-11-2010 19:39:02 7.9 C 5.91 g/m*3 7.9 C 0 km/h
1623 15-11-2010 19:51:02 7.7 C 5.92 g/m*3 7.7 C 0 km/h
1624 15-11-2010 20:03:02 7.7 C 5.92 g/m*3 7.7 C 0 km/h
1625 15-11-2010 20:15:02 7.8 C 6.04 g/m*3 7.8 C 0 km/h
Sensor: Nr:Datum:Temp:Abs-Feuchte:Windchill:Wind:
Aussen-T/F 1626 15-11-2010 20:27:02 7.6 C 5.96 g/m*3 7.6 C 0 km/h
1627 15-11-2010 20:39:02 7.4 C 5.88 g/m*3 7.4 C 0 km/h
1628 15-11-2010 20:51:01 7.5 C 5.92 g/m*3 7.5 C 0 km/h
1629 15-11-2010 21:03:02 7.3 C 5.93 g/m*3 7.3 C 0 km/h
1630 15-11-2010 21:15:02 7.1 C 5.93 g/m*3 7.1 C 0 km/h
1631 15-11-2010 21:27:02 7.1 C 6.01 g/m*3 7.1 C 0 km/h
1632 15-11-2010 21:39:02 7.1 C 5.93 g/m*3 7.1 C 0 km/h
1633 15-11-2010 21:51:02 7.2 C 5.89 g/m*3 7.2 C 0 km/h
1634 15-11-2010 22:03:02 7.1 C 5.93 g/m*3 7.1 C 0 km/h
1635 15-11-2010 22:15:02 7 C 5.89 g/m*3 7 C 0 km/h
1636 15-11-2010 22:27:02 6.8 C 5.97 g/m*3 6.8 C 0 km/h
1637 15-11-2010 22:39:02 6.8 C 6.04 g/m*3 6.8 C 0 km/h
1638 15-11-2010 22:51:02 7 C 6.04 g/m*3 7 C 0 km/h
1639 15-11-2010 23:03:02 6.8 C 5.97 g/m*3 6.8 C 0 km/h
1640 15-11-2010 23:15:02 6.8 C 6.04 g/m*3 6.8 C 0 km/h
1641 15-11-2010 23:27:02 6.7 C 6 g/m*3 6.7 C 0 km/h
1642 15-11-2010 23:39:01 6.8 C 6.04 g/m*3 6.8 C 0 km/h
1643 15-11-2010 23:51:02 6.3 C 5.92 g/m*3 6.3 C 0 km/h
1644 16-11-2010 00:03:01 6.1 C 5.92 g/m*3 6.1 C 0 km/h
1645 16-11-2010 00:15:02 6 C 5.95 g/m*3 6 C 0 km/h
1646 16-11-2010 00:27:02 6 C 6.02 g/m*3 6 C 0 km/h
1647 16-11-2010 00:39:01 5.7 C 5.91 g/m*3 5.7 C 0 km/h
1648 16-11-2010 00:51:01 5.6 C 5.94 g/m*3 5.6 C 0 km/h
1649 16-11-2010 01:03:01 5.5 C 5.9 g/m*3 5.5 C 0 km/h
1650 16-11-2010 01:15:02 5.4 C 5.93 g/m*3 5.4 C 0 km/h
Sensor: Nr:Datum:Temp:Abs-Feuchte:Windchill:Wind:
Aussen-T/F 1651 16-11-2010 01:27:02 5.2 C 5.85 g/m*3 5.2 C 0 km/h
1652 16-11-2010 01:39:01 5 C 5.78 g/m*3 5 C 0 km/h
1653 16-11-2010 01:51:02 4.9 C 5.87 g/m*3 4.9 C 0 km/h
1654 16-11-2010 02:03:01 5.2 C 5.99 g/m*3 5.2 C 0 km/h
1655 16-11-2010 02:15:01 5.3 C 6.03 g/m*3 5.3 C 0 km/h
1656 16-11-2010 02:27:01 5.4 C 6.07 g/m*3 5.4 C 0 km/h
1657 16-11-2010 02:39:01 5.7 C 6.19 g/m*3 5.7 C 0 km/h
1658 16-11-2010 02:52:04 5.8 C 6.23 g/m*3 5.8 C 0 km/h
1659 16-11-2010 03:04:04 5.9 C 6.27 g/m*3 5.9 C 0 km/h
1660 16-11-2010 03:16:04 6.1 C 6.28 g/m*3 6.1 C 0 km/h
1661 16-11-2010 03:28:04 5.9 C 6.27 g/m*3 5.9 C 0 km/h
1662 16-11-2010 03:40:02 5.8 C 6.16 g/m*3 5.8 C 0 km/h
1663 16-11-2010 03:52:02 5.6 C 6.08 g/m*3 5.6 C 0 km/h
1664 16-11-2010 04:04:02 5.3 C 5.89 g/m*3 5.3 C 0 km/h
1665 16-11-2010 04:16:02 5 C 5.84 g/m*3 5 C 0 km/h
1666 16-11-2010 04:28:02 5.1 C 5.95 g/m*3 5.1 C 0 km/h
1667 16-11-2010 04:40:02 5.2 C 5.99 g/m*3 5.2 C 0 km/h
1668 16-11-2010 04:52:02 5.5 C 6.18 g/m*3 5.5 C 0 km/h
1669 16-11-2010 05:04:01 5.3 C 6.03 g/m*3 5.3 C 0 km/h
1670 16-11-2010 05:16:02 5.2 C 5.99 g/m*3 5.2 C 0 km/h
1671 16-11-2010 05:28:02 5.7 C 6.19 g/m*3 5.7 C 0 km/h
1672 16-11-2010 05:40:02 5.7 C 6.12 g/m*3 5.7 C 0 km/h
1673 16-11-2010 05:52:02 5.6 C 6.01 g/m*3 5.6 C 0 km/h
1674 16-11-2010 06:04:02 5.2 C 5.78 g/m*3 5.2 C 0 km/h
1675 16-11-2010 06:16:02 5.1 C 5.81 g/m*3 5.1 C 0 km/h
Sensor: Nr:Datum:Temp:Abs-Feuchte:Windchill:Wind:
Aussen-T/F 1676 16-11-2010 06:28:02 5.2 C 5.85 g/m*3 5.2 C 0 km/h
1677 16-11-2010 06:40:03 5.3 C 5.89 g/m*3 5.3 C 0 km/h
1678 16-11-2010 06:52:02 5.3 C 5.82 g/m*3 5.3 C 0 km/h
1679 16-11-2010 07:04:01 5.2 C 5.78 g/m*3 5.2 C 0 km/h
1680 16-11-2010 07:16:02 5.2 C 5.78 g/m*3 5.2 C 0 km/h
1681 16-11-2010 07:28:03 5.2 C 5.78 g/m*3 5.2 C 0 km/h
1682 16-11-2010 07:40:01 5.1 C 5.75 g/m*3 5.1 C 0 km/h
1683 16-11-2010 07:52:01 5.2 C 5.85 g/m*3 5.2 C 0 km/h
1684 16-11-2010 08:04:01 5.3 C 5.82 g/m*3 5.3 C 0 km/h
1685 16-11-2010 08:16:02 5.4 C 5.86 g/m*3 5.4 C 0 km/h
1686 16-11-2010 08:28:02 5.4 C 5.79 g/m*3 5.4 C 0 km/h
1687 16-11-2010 08:40:01 5.4 C 5.79 g/m*3 5.4 C 0 km/h
1688 16-11-2010 08:52:03 5.6 C 5.87 g/m*3 5.6 C 0 km/h
1689 16-11-2010 09:04:02 5.7 C 5.84 g/m*3 5.7 C 0 km/h
1690 16-11-2010 09:16:02 5.8 C 5.87 g/m*3 5.8 C 0 km/h
1691 16-11-2010 09:28:02 5.9 C 5.84 g/m*3 5.9 C 0 km/h
1692 16-11-2010 09:40:02 6 C 5.81 g/m*3 6 C 0 km/h
1693 16-11-2010 09:52:02 6 C 5.73 g/m*3 6 C 0 km/h
1694 16-11-2010 10:04:01 5.9 C 5.7 g/m*3 5.9 C 0 km/h
1695 16-11-2010 10:16:02 6.2 C 5.81 g/m*3 6.2 C 0 km/h
1696 16-11-2010 10:28:02 6.2 C 5.74 g/m*3 6.2 C 0 km/h
1697 16-11-2010 10:40:01 6.7 C 5.85 g/m*3 6.7 C 0 km/h
1698 16-11-2010 10:52:02 6.3 C 5.63 g/m*3 6.3 C 0 km/h
1699 16-11-2010 11:04:02 6.4 C 5.66 g/m*3 6.4 C 0 km/h
1700 16-11-2010 11:16:02 6.3 C 5.63 g/m*3 6.3 C 0 km/h
Sensor: Nr:Datum:Temp:Abs-Feuchte:Windchill:Wind:
Aussen-T/F 1701 16-11-2010 11:28:02 6.8 C 5.74 g/m*3 6.8 C 0 km/h
1702 16-11-2010 11:40:02 6.4 C 5.51 g/m*3 6.4 C 0 km/h
1703 16-11-2010 11:52:02 6.9 C 5.7 g/m*3 6.9 C 0 km/h
1704 16-11-2010 12:04:02 7.4 C 5.65 g/m*3 7.4 C 0 km/h
1705 16-11-2010 12:16:01 7.5 C 5.52 g/m*3 7.5 C 0 km/h
1706 16-11-2010 12:28:01 7.4 C 5.49 g/m*3 7.4 C 0 km/h
1707 16-11-2010 12:40:02 7.1 C 5.46 g/m*3 7.1 C 0 km/h
1708 16-11-2010 12:52:02 7.3 C 5.53 g/m*3 7.3 C 0 km/h
1709 16-11-2010 13:04:02 7.4 C 5.57 g/m*3 7.4 C 0 km/h
1710 16-11-2010 13:16:01 7.5 C 5.6 g/m*3 7.5 C 0 km/h
1711 16-11-2010 13:28:01 7.7 C 5.59 g/m*3 7.7 C 0 km/h
1712 16-11-2010 13:40:01 7.3 C 5.45 g/m*3 7.3 C 0 km/h
1713 16-11-2010 13:52:02 7.8 C 5.71 g/m*3 7.8 C 0 km/h
1714 16-11-2010 14:04:01 7.8 C 5.63 g/m*3 7.8 C 0 km/h
1715 16-11-2010 14:16:02 7.6 C 5.56 g/m*3 7.6 C 0 km/h
1716 16-11-2010 14:28:02 7.8 C 5.55 g/m*3 7.8 C 0 km/h
1717 16-11-2010 14:40:02 7.6 C 5.4 g/m*3 7.6 C 0 km/h
1718 16-11-2010 14:52:01 7.6 C 5.48 g/m*3 7.6 C 0 km/h
1719 16-11-2010 15:04:02 7.5 C 5.52 g/m*3 7.5 C 0 km/h
1720 16-11-2010 15:16:03 7.3 C 5.45 g/m*3 7.3 C 0 km/h
1721 16-11-2010 15:28:03 7.2 C 5.49 g/m*3 7.2 C 0 km/h
1722 16-11-2010 15:40:01 7.1 C 5.54 g/m*3 7.1 C 0 km/h
1723 16-11-2010 15:52:01 7.1 C 5.54 g/m*3 7.1 C 0 km/h
1724 16-11-2010 16:04:02 7.1 C 5.54 g/m*3 7.1 C 0 km/h
1725 16-11-2010 16:16:01 7.1 C 5.54 g/m*3 7.1 C 0 km/h
Sensor: Nr:Datum:Temp:Abs-Feuchte:Windchill:Wind:
Aussen-T/F 1726 16-11-2010 16:28:01 7.1 C 5.54 g/m*3 7.1 C 0 km/h
1727 16-11-2010 16:40:01 7.1 C 5.54 g/m*3 7.1 C 0 km/h
1728 16-11-2010 16:52:02 7 C 5.5 g/m*3 7 C 0 km/h
1729 16-11-2010 17:04:02 6.9 C 5.62 g/m*3 6.9 C 0 km/h
1730 16-11-2010 17:16:02 6.9 C 5.7 g/m*3 6.9 C 0 km/h
1731 16-11-2010 17:28:02 6.8 C 5.66 g/m*3 6.8 C 0 km/h
1732 16-11-2010 17:40:02 6.8 C 5.66 g/m*3 6.8 C 0 km/h
1733 16-11-2010 17:52:02 6.6 C 5.59 g/m*3 6.6 C 0 km/h
1734 16-11-2010 18:04:02 6.5 C 5.62 g/m*3 6.5 C 0 km/h
1735 16-11-2010 18:16:02 6 C 5.52 g/m*3 6 C 0 km/h
1736 16-11-2010 18:28:02 6.2 C 5.74 g/m*3 6.2 C 0 km/h
1737 16-11-2010 18:40:02 6.2 C 5.74 g/m*3 6.2 C 0 km/h
1738 16-11-2010 18:52:02 6.2 C 5.74 g/m*3 6.2 C 0 km/h
1739 16-11-2010 19:04:02 6.2 C 5.74 g/m*3 6.2 C 0 km/h
1740 16-11-2010 19:16:02 5.9 C 5.7 g/m*3 5.9 C 0 km/h
1741 16-11-2010 19:28:03 5.9 C 5.77 g/m*3 5.9 C 0 km/h
1742 16-11-2010 19:40:01 5.8 C 5.73 g/m*3 5.8 C 0 km/h
1743 16-11-2010 19:52:02 5.8 C 5.8 g/m*3 5.8 C 0 km/h
1744 16-11-2010 20:04:01 5.7 C 5.76 g/m*3 5.7 C 0 km/h
1745 16-11-2010 20:16:02 5.6 C 5.73 g/m*3 5.6 C 0 km/h
1746 16-11-2010 20:28:03 5.5 C 5.69 g/m*3 5.5 C 0 km/h
1747 16-11-2010 20:40:01 5.5 C 5.69 g/m*3 5.5 C 0 km/h
1748 16-11-2010 20:52:02 5.5 C 5.69 g/m*3 5.5 C 0 km/h
1749 16-11-2010 21:04:01 5.4 C 5.65 g/m*3 5.4 C 0 km/h
1750 16-11-2010 21:16:01 5.5 C 5.69 g/m*3 5.5 C 0 km/h
Sensor: Nr:Datum:Temp:Abs-Feuchte:Windchill:Wind:
Aussen-T/F 1751 16-11-2010 21:28:01 5.5 C 5.69 g/m*3 5.5 C 0 km/h
1752 16-11-2010 21:40:02 5.4 C 5.65 g/m*3 5.4 C 0 km/h
1753 16-11-2010 21:52:02 5.3 C 5.61 g/m*3 5.3 C 0 km/h
1754 16-11-2010 22:04:02 5.2 C 5.58 g/m*3 5.2 C 0 km/h
1755 16-11-2010 22:16:01 5.2 C 5.58 g/m*3 5.2 C 0 km/h
1756 16-11-2010 22:28:01 5.3 C 5.68 g/m*3 5.3 C 0 km/h
1757 16-11-2010 22:41:04 5.3 C 5.61 g/m*3 5.3 C 0 km/h
1758 16-11-2010 22:53:04 5.2 C 5.58 g/m*3 5.2 C 0 km/h
1759 16-11-2010 23:05:04 5.1 C 5.61 g/m*3 5.1 C 0 km/h
1760 16-11-2010 23:17:04 4.4 C 5.42 g/m*3 4.4 C 0 km/h
1761 16-11-2010 23:29:04 4.4 C 5.55 g/m*3 4.4 C 0 km/h
1762 16-11-2010 23:41:04 4.5 C 5.65 g/m*3 4.5 C 0 km/h
1763 16-11-2010 23:53:04 4.6 C 5.69 g/m*3 4.6 C 0 km/h
1764 17-11-2010 00:05:04 4.7 C 5.73 g/m*3 4.7 C 0 km/h
1765 17-11-2010 00:17:04 4.7 C 5.73 g/m*3 4.7 C 0 km/h
1766 17-11-2010 00:29:04 4.7 C 5.73 g/m*3 4.7 C 0 km/h
1767 17-11-2010 00:41:04 4.8 C 5.7 g/m*3 4.8 C 0 km/h
1768 17-11-2010 00:53:04 5 C 5.71 g/m*3 5 C 0 km/h
1769 17-11-2010 01:05:05 5.1 C 5.68 g/m*3 5.1 C 0 km/h
1770 17-11-2010 01:17:05 5 C 5.57 g/m*3 5 C 0 km/h
1771 17-11-2010 01:29:05 5 C 5.57 g/m*3 5 C 0 km/h
1772 17-11-2010 01:41:05 5.1 C 5.61 g/m*3 5.1 C 0 km/h
1773 17-11-2010 01:53:05 5.2 C 5.65 g/m*3 5.2 C 0 km/h
1774 17-11-2010 02:05:05 5.1 C 5.61 g/m*3 5.1 C 0 km/h
1775 17-11-2010 02:17:05 5 C 5.57 g/m*3 5 C 0 km/h
Sensor: Nr:Datum:Temp:Abs-Feuchte:Windchill:Wind:
Aussen-T/F 1776 17-11-2010 02:29:05 5 C 5.57 g/m*3 5 C 0 km/h
1777 17-11-2010 02:41:05 5 C 5.57 g/m*3 5 C 0 km/h
1778 17-11-2010 02:53:05 4.9 C 5.6 g/m*3 4.9 C 0 km/h
1779 17-11-2010 03:05:05 5 C 5.64 g/m*3 5 C 0 km/h
1780 17-11-2010 03:17:05 4.9 C 5.67 g/m*3 4.9 C 0 km/h
1781 17-11-2010 03:29:05 4.9 C 5.67 g/m*3 4.9 C 0 km/h
1782 17-11-2010 03:41:05 4.9 C 5.67 g/m*3 4.9 C 0 km/h
1783 17-11-2010 03:53:05 4.9 C 5.67 g/m*3 4.9 C 0 km/h
1784 17-11-2010 04:05:05 4.9 C 5.67 g/m*3 4.9 C 0 km/h
1785 17-11-2010 04:17:05 4.8 C 5.63 g/m*3 4.8 C 0 km/h
1786 17-11-2010 04:29:05 4.8 C 5.63 g/m*3 4.8 C 0 km/h
1787 17-11-2010 04:41:05 4.7 C 5.6 g/m*3 4.7 C 0 km/h
1788 17-11-2010 04:53:05 4.8 C 5.7 g/m*3 4.8 C 0 km/h
1789 17-11-2010 05:05:06 4.7 C 5.66 g/m*3 4.7 C 0 km/h
1790 17-11-2010 05:17:06 4.7 C 5.66 g/m*3 4.7 C 0 km/h
1791 17-11-2010 05:29:06 4.8 C 5.77 g/m*3 4.8 C 0 km/h
1792 17-11-2010 05:41:06 4.8 C 5.77 g/m*3 4.8 C 0 km/h
1793 17-11-2010 05:53:06 4.7 C 5.73 g/m*3 4.7 C 0 km/h
1794 17-11-2010 06:05:06 4.7 C 5.73 g/m*3 4.7 C 0 km/h
1795 17-11-2010 06:17:06 4.7 C 5.73 g/m*3 4.7 C 0 km/h
1796 17-11-2010 06:29:06 4.7 C 5.73 g/m*3 4.7 C 0 km/h
1797 17-11-2010 06:41:06 4.7 C 5.73 g/m*3 4.7 C 0 km/h
1798 17-11-2010 06:53:02 4.7 C 5.73 g/m*3 4.7 C 0 km/h
1799 17-11-2010 07:05:02 4.7 C 5.73 g/m*3 4.7 C 0 km/h
1800 17-11-2010 07:17:02 4.7 C 5.73 g/m*3 4.7 C 0 km/h
Sensor: Nr:Datum:Temp:Abs-Feuchte:Windchill:Wind:
Aussen-T/F 1801 17-11-2010 07:29:02 4.7 C 5.73 g/m*3 4.7 C 0 km/h
1802 17-11-2010 07:41:01 4.7 C 5.66 g/m*3 4.7 C 0 km/h
1803 17-11-2010 07:53:02 4.8 C 5.5 g/m*3 4.8 C 0 km/h
1804 17-11-2010 08:05:01 4.9 C 5.27 g/m*3 4.9 C 0 km/h
1805 17-11-2010 08:17:01 4.9 C 5.13 g/m*3 4.9 C 0 km/h
1806 17-11-2010 08:29:01 5.1 C 4.92 g/m*3 5.1 C 0 km/h
1807 17-11-2010 08:41:02 5.2 C 4.89 g/m*3 5.2 C 0 km/h
1808 17-11-2010 08:53:02 5.4 C 4.67 g/m*3 5.4 C 0 km/h
1809 17-11-2010 09:05:02 5.5 C 4.64 g/m*3 5.5 C 0 km/h
1810 17-11-2010 09:17:02 5.4 C 4.67 g/m*3 5.4 C 0 km/h
1811 17-11-2010 09:29:02 5.6 C 4.67 g/m*3 5.6 C 0 km/h
1812 17-11-2010 09:41:02 5.6 C 4.6 g/m*3 5.6 C 0 km/h
1813 17-11-2010 09:53:02 5.7 C 4.63 g/m*3 5.7 C 0 km/h
1814 17-11-2010 10:05:02 5.7 C 4.7 g/m*3 5.7 C 0 km/h
1815 17-11-2010 10:17:02 5.7 C 4.63 g/m*3 5.7 C 0 km/h
1816 17-11-2010 10:29:02 5.8 C 4.66 g/m*3 5.8 C 0 km/h
1817 17-11-2010 10:41:02 5.8 C 4.66 g/m*3 5.8 C 0 km/h
1818 17-11-2010 10:53:02 5.9 C 4.69 g/m*3 5.9 C 0 km/h
1819 17-11-2010 11:05:02 6 C 4.57 g/m*3 6 C 0 km/h
1820 17-11-2010 11:17:03 6 C 4.57 g/m*3 6 C 0 km/h
1821 17-11-2010 11:29:03 5.9 C 4.61 g/m*3 5.9 C 0 km/h
1822 17-11-2010 11:41:02 6.1 C 4.6 g/m*3 6.1 C 0 km/h
1823 17-11-2010 11:53:02 6.2 C 4.63 g/m*3 6.2 C 0 km/h
1824 17-11-2010 12:05:02 6.4 C 4.62 g/m*3 6.4 C 0 km/h
1825 17-11-2010 12:17:02 6.3 C 4.52 g/m*3 6.3 C 0 km/h
Sensor: Nr:Datum:Temp:Abs-Feuchte:Windchill:Wind:
Aussen-T/F 1826 17-11-2010 12:29:02 6.1 C 4.6 g/m*3 6.1 C 0 km/h
1827 17-11-2010 12:41:02 6.3 C 4.66 g/m*3 6.3 C 0 km/h
1828 17-11-2010 12:53:02 6.3 C 4.59 g/m*3 6.3 C 0 km/h
1829 17-11-2010 13:05:02 6.3 C 4.66 g/m*3 6.3 C 0 km/h
1830 17-11-2010 13:17:02 6.7 C 4.71 g/m*3 6.7 C 0 km/h
1831 17-11-2010 13:29:02 6.7 C 4.64 g/m*3 6.7 C 0 km/h
1832 17-11-2010 13:41:01 6.5 C 4.57 g/m*3 6.5 C 0 km/h
1833 17-11-2010 13:53:02 6.5 C 4.57 g/m*3 6.5 C 0 km/h
1834 17-11-2010 14:05:01 6.4 C 4.62 g/m*3 6.4 C 0 km/h
1835 17-11-2010 14:17:01 6.3 C 4.59 g/m*3 6.3 C 0 km/h
1836 17-11-2010 14:29:01 6.1 C 4.46 g/m*3 6.1 C 0 km/h
1837 17-11-2010 14:41:02 6.1 C 4.53 g/m*3 6.1 C 0 km/h
1838 17-11-2010 14:53:02 6 C 4.57 g/m*3 6 C 0 km/h
1839 17-11-2010 15:05:02 5.9 C 4.54 g/m*3 5.9 C 0 km/h
1840 17-11-2010 15:17:02 5.9 C 4.61 g/m*3 5.9 C 0 km/h
1841 17-11-2010 15:29:02 5.9 C 4.69 g/m*3 5.9 C 0 km/h
1842 17-11-2010 15:41:02 5.8 C 4.73 g/m*3 5.8 C 0 km/h
1843 17-11-2010 15:53:02 5.8 C 4.8 g/m*3 5.8 C 0 km/h
1844 17-11-2010 16:05:02 5.7 C 4.77 g/m*3 5.7 C 0 km/h
1845 17-11-2010 16:17:02 5.6 C 4.81 g/m*3 5.6 C 0 km/h
1846 17-11-2010 16:29:02 5.5 C 4.78 g/m*3 5.5 C 0 km/h
1847 17-11-2010 16:41:02 5.5 C 4.85 g/m*3 5.5 C 0 km/h
1848 17-11-2010 16:53:01 5.4 C 4.81 g/m*3 5.4 C 0 km/h
1849 17-11-2010 17:05:01 5.4 C 4.88 g/m*3 5.4 C 0 km/h
1850 17-11-2010 17:17:02 5.3 C 4.85 g/m*3 5.3 C 0 km/h
Sensor: Nr:Datum:Temp:Abs-Feuchte:Windchill:Wind:
Aussen-T/F 1851 17-11-2010 17:29:02 5.2 C 4.89 g/m*3 5.2 C 0 km/h
1852 17-11-2010 17:41:01 5.2 C 4.96 g/m*3 5.2 C 0 km/h
1853 17-11-2010 17:53:02 5.2 C 4.96 g/m*3 5.2 C 0 km/h
1854 17-11-2010 18:05:02 5.2 C 4.96 g/m*3 5.2 C 0 km/h
1855 17-11-2010 18:17:03 5.2 C 4.96 g/m*3 5.2 C 0 km/h
1856 17-11-2010 18:29:03 5.2 C 5.03 g/m*3 5.2 C 0 km/h
1857 17-11-2010 18:41:02 5.2 C 4.96 g/m*3 5.2 C 0 km/h
1858 17-11-2010 18:53:01 5.2 C 4.96 g/m*3 5.2 C 0 km/h
1859 17-11-2010 19:05:01 5.3 C 4.99 g/m*3 5.3 C 0 km/h
1860 17-11-2010 19:17:02 5.3 C 4.99 g/m*3 5.3 C 0 km/h
1861 17-11-2010 19:29:02 5.3 C 4.99 g/m*3 5.3 C 0 km/h
1862 17-11-2010 19:41:01 5.3 C 4.99 g/m*3 5.3 C 0 km/h
1863 17-11-2010 19:53:01 5.3 C 4.99 g/m*3 5.3 C 0 km/h
1864 17-11-2010 20:05:01 5.3 C 5.06 g/m*3 5.3 C 0 km/h
1865 17-11-2010 20:17:02 5.3 C 5.13 g/m*3 5.3 C 0 km/h
1866 17-11-2010 20:29:02 5.3 C 5.13 g/m*3 5.3 C 0 km/h
1867 17-11-2010 20:41:56 5.3 C 5.13 g/m*3 5.3 C 0 km/h
1868 17-11-2010 20:53:56 5.3 C 5.13 g/m*3 5.3 C 0 km/h
1869 17-11-2010 21:05:56 5.3 C 5.2 g/m*3 5.3 C 0 km/h
1870 17-11-2010 21:17:02 5.3 C 5.13 g/m*3 5.3 C 0 km/h
1871 17-11-2010 21:29:02 5.3 C 5.2 g/m*3 5.3 C 0 km/h
1872 17-11-2010 21:41:02 5.2 C 5.23 g/m*3 5.2 C 0 km/h
1873 17-11-2010 21:53:01 5.2 C 5.3 g/m*3 5.2 C 0 km/h
1874 17-11-2010 22:05:01 5.2 C 5.3 g/m*3 5.2 C 0 km/h
1875 17-11-2010 22:17:02 5.1 C 5.27 g/m*3 5.1 C 0 km/h
Sensor: Nr:Datum:Temp:Abs-Feuchte:Windchill:Wind:
Aussen-T/F 1876 17-11-2010 22:29:02 5.1 C 5.34 g/m*3 5.1 C 0 km/h
1877 17-11-2010 22:42:03 5 C 5.37 g/m*3 5 C 0 km/h
1878 17-11-2010 22:54:03 4.8 C 5.43 g/m*3 4.8 C 0 km/h
1879 17-11-2010 23:06:03 4.6 C 5.49 g/m*3 4.6 C 0 km/h
1880 17-11-2010 23:18:03 4.5 C 5.52 g/m*3 4.5 C 0 km/h
1881 17-11-2010 23:30:03 4.5 C 5.59 g/m*3 4.5 C 0 km/h
1882 17-11-2010 23:42:03 4.5 C 5.65 g/m*3 4.5 C 0 km/h
1883 17-11-2010 23:54:03 4.5 C 5.65 g/m*3 4.5 C 0 km/h
1884 18-11-2010 00:06:03 4.6 C 5.76 g/m*3 4.6 C 0 km/h
1885 18-11-2010 00:18:03 4.7 C 5.8 g/m*3 4.7 C 0 km/h
1886 18-11-2010 00:30:03 4.6 C 5.76 g/m*3 4.6 C 0 km/h
1887 18-11-2010 00:42:03 4.5 C 5.72 g/m*3 4.5 C 0 km/h
1888 18-11-2010 00:54:03 4.4 C 5.68 g/m*3 4.4 C 0 km/h
1889 18-11-2010 01:06:03 4.3 C 5.71 g/m*3 4.3 C 0 km/h
1890 18-11-2010 01:18:04 4.3 C 5.71 g/m*3 4.3 C 0 km/h
1891 18-11-2010 01:30:04 4.3 C 5.71 g/m*3 4.3 C 0 km/h
1892 18-11-2010 01:42:04 4.3 C 5.71 g/m*3 4.3 C 0 km/h
1893 18-11-2010 01:54:04 4.2 C 5.73 g/m*3 4.2 C 0 km/h
1894 18-11-2010 02:06:04 4.2 C 5.73 g/m*3 4.2 C 0 km/h
1895 18-11-2010 02:18:04 4.3 C 5.77 g/m*3 4.3 C 0 km/h
1896 18-11-2010 02:30:04 4.5 C 5.85 g/m*3 4.5 C 0 km/h
1897 18-11-2010 02:42:04 4.4 C 5.81 g/m*3 4.4 C 0 km/h
1898 18-11-2010 02:54:04 4 C 5.66 g/m*3 4 C 0 km/h
1899 18-11-2010 03:06:04 3.9 C 5.68 g/m*3 3.9 C 0 km/h
1900 18-11-2010 03:18:04 4 C 5.72 g/m*3 4 C 0 km/h
Sensor: Nr:Datum:Temp:Abs-Feuchte:Windchill:Wind:
Aussen-T/F 1901 18-11-2010 03:30:04 4 C 5.72 g/m*3 4 C 0 km/h
1902 18-11-2010 03:42:04 4.2 C 5.8 g/m*3 4.2 C 0 km/h
1903 18-11-2010 03:54:04 4.2 C 5.8 g/m*3 4.2 C 0 km/h
1904 18-11-2010 04:06:04 4.2 C 5.8 g/m*3 4.2 C 0 km/h
1905 18-11-2010 04:18:04 4.3 C 5.9 g/m*3 4.3 C 0 km/h
1906 18-11-2010 04:30:04 4.3 C 5.9 g/m*3 4.3 C 0 km/h
1907 18-11-2010 04:42:04 4.3 C 5.9 g/m*3 4.3 C 0 km/h
1908 18-11-2010 04:54:04 4.3 C 5.9 g/m*3 4.3 C 0 km/h
1909 18-11-2010 05:06:04 4.3 C 5.9 g/m*3 4.3 C 0 km/h
1910 18-11-2010 05:18:05 4.4 C 5.94 g/m*3 4.4 C 0 km/h
1911 18-11-2010 05:30:05 4.3 C 5.9 g/m*3 4.3 C 0 km/h
1912 18-11-2010 05:42:05 4.2 C 5.86 g/m*3 4.2 C 0 km/h
1913 18-11-2010 05:54:05 4.2 C 5.86 g/m*3 4.2 C 0 km/h
1914 18-11-2010 06:06:05 4.2 C 5.86 g/m*3 4.2 C 0 km/h
1915 18-11-2010 06:18:05 3.9 C 5.81 g/m*3 3.9 C 0 km/h
1916 18-11-2010 06:30:05 3.9 C 5.81 g/m*3 3.9 C 0 km/h
1917 18-11-2010 06:42:05 3.8 C 5.77 g/m*3 3.8 C 0 km/h
1918 18-11-2010 06:54:05 3.8 C 5.77 g/m*3 3.8 C 0 km/h
1919 18-11-2010 07:06:05 3.8 C 5.77 g/m*3 3.8 C 0 km/h
1920 18-11-2010 07:18:03 3.9 C 5.81 g/m*3 3.9 C 0 km/h
1921 18-11-2010 07:30:03 4 C 5.85 g/m*3 4 C 0 km/h
1922 18-11-2010 07:42:03 4 C 5.85 g/m*3 4 C 0 km/h
1923 18-11-2010 07:54:02 4.2 C 5.93 g/m*3 4.2 C 0 km/h
1924 18-11-2010 08:06:02 4.1 C 5.89 g/m*3 4.1 C 0 km/h
1925 18-11-2010 08:18:01 4.2 C 5.93 g/m*3 4.2 C 0 km/h
Sensor: Nr:Datum:Temp:Abs-Feuchte:Windchill:Wind:
Aussen-T/F 1926 18-11-2010 08:30:01 4.2 C 5.93 g/m*3 4.2 C 0 km/h
1927 18-11-2010 08:42:02 4.2 C 5.93 g/m*3 4.2 C 0 km/h
1928 18-11-2010 08:54:01 4.4 C 6.01 g/m*3 4.4 C 0 km/h
1929 18-11-2010 09:06:02 4.5 C 6.05 g/m*3 4.5 C 0 km/h
1930 18-11-2010 09:18:01 4.8 C 6.17 g/m*3 4.8 C 0 km/h
1931 18-11-2010 09:30:01 4.8 C 6.17 g/m*3 4.8 C 0 km/h
1932 18-11-2010 09:42:02 5.2 C 6.27 g/m*3 5.2 C 0 km/h
1933 18-11-2010 09:54:01 5.4 C 6.35 g/m*3 5.4 C 0 km/h
1934 18-11-2010 10:06:02 5.4 C 6.28 g/m*3 5.4 C 0 km/h
1935 18-11-2010 10:18:02 5.8 C 6.38 g/m*3 5.8 C 0 km/h
1936 18-11-2010 10:30:02 6 C 6.24 g/m*3 6 C 0 km/h
1937 18-11-2010 10:42:01 6.1 C 6.14 g/m*3 6.1 C 0 km/h
1938 18-11-2010 10:54:02 6.5 C 6.15 g/m*3 6.5 C 0 km/h
1939 18-11-2010 11:06:01 6.5 C 6.07 g/m*3 6.5 C 0 km/h
1940 18-11-2010 11:18:01 6.6 C 5.96 g/m*3 6.6 C 0 km/h
1941 18-11-2010 11:30:02 6.8 C 5.97 g/m*3 6.8 C 0 km/h
1942 18-11-2010 11:42:01 7.2 C 6.04 g/m*3 7.2 C 0 km/h
1943 18-11-2010 11:54:02 7.4 C 6.04 g/m*3 7.4 C 0 km/h
1944 18-11-2010 12:06:01 7.4 C 6.04 g/m*3 7.4 C 0 km/h
1945 18-11-2010 12:18:02 7.6 C 6.04 g/m*3 7.6 C 0 km/h
1946 18-11-2010 12:30:02 7.6 C 5.96 g/m*3 7.6 C 0 km/h
1947 18-11-2010 12:42:02 7.4 C 5.73 g/m*3 7.4 C 0 km/h
1948 18-11-2010 12:54:01 7.7 C 5.84 g/m*3 7.7 C 0 km/h
1949 18-11-2010 13:06:01 8 C 5.7 g/m*3 8 C 0 km/h
1950 18-11-2010 13:18:01 8.5 C 5.81 g/m*3 8.5 C 0 km/h
Sensor: Nr:Datum:Temp:Abs-Feuchte:Windchill:Wind:
Aussen-T/F 1951 18-11-2010 13:30:01 8.4 C 5.6 g/m*3 8.4 C 0 km/h
1952 18-11-2010 13:42:02 8.3 C 5.65 g/m*3 8.3 C 0 km/h
1953 18-11-2010 13:54:02 8.6 C 5.76 g/m*3 8.6 C 0 km/h
1954 18-11-2010 14:06:02 8.5 C 5.46 g/m*3 8.5 C 0 km/h
1955 18-11-2010 14:18:01 8.2 C 5.28 g/m*3 8.2 C 0 km/h
1956 18-11-2010 14:30:01 8 C 5.37 g/m*3 8 C 0 km/h
1957 18-11-2010 14:42:02 8 C 5.29 g/m*3 8 C 0 km/h
1958 18-11-2010 14:54:02 8 C 5.21 g/m*3 8 C 0 km/h
1959 18-11-2010 15:06:02 7.8 C 5.3 g/m*3 7.8 C 0 km/h
1960 18-11-2010 15:18:01 7.9 C 5.34 g/m*3 7.9 C 0 km/h
1961 18-11-2010 15:30:01 7.8 C 5.39 g/m*3 7.8 C 0 km/h
1962 18-11-2010 15:42:02 7.7 C 5.43 g/m*3 7.7 C 0 km/h
1963 18-11-2010 15:54:01 7.6 C 5.48 g/m*3 7.6 C 0 km/h
1964 18-11-2010 16:06:02 7.3 C 5.61 g/m*3 7.3 C 0 km/h
1965 18-11-2010 16:18:02 7.1 C 5.77 g/m*3 7.1 C 0 km/h
1966 18-11-2010 16:30:02 6.9 C 5.93 g/m*3 6.9 C 0 km/h
1967 18-11-2010 16:42:01 6.8 C 5.89 g/m*3 6.8 C 0 km/h
1968 18-11-2010 16:54:02 6.4 C 5.66 g/m*3 6.4 C 0 km/h
1969 18-11-2010 17:06:01 6 C 5.66 g/m*3 6 C 0 km/h
1970 18-11-2010 17:18:02 6.1 C 5.84 g/m*3 6.1 C 0 km/h
1971 18-11-2010 17:30:02 6.1 C 5.92 g/m*3 6.1 C 0 km/h
1972 18-11-2010 17:42:01 6.2 C 5.96 g/m*3 6.2 C 0 km/h
1973 18-11-2010 17:54:02 6.2 C 5.96 g/m*3 6.2 C 0 km/h
1974 18-11-2010 18:06:02 6.2 C 5.96 g/m*3 6.2 C 0 km/h
1975 18-11-2010 18:18:02 6.2 C 6.03 g/m*3 6.2 C 0 km/h
Sensor: Nr:Datum:Temp:Abs-Feuchte:Windchill:Wind:
Aussen-T/F 1976 18-11-2010 18:30:02 6.2 C 6.03 g/m*3 6.2 C 0 km/h
1977 18-11-2010 18:42:02 6.2 C 6.03 g/m*3 6.2 C 0 km/h
1978 18-11-2010 18:54:02 6.2 C 6.03 g/m*3 6.2 C 0 km/h
1979 18-11-2010 19:06:01 6.3 C 6.07 g/m*3 6.3 C 0 km/h
1980 18-11-2010 19:18:02 6.2 C 5.88 g/m*3 6.2 C 0 km/h
1981 18-11-2010 19:30:02 5.8 C 5.95 g/m*3 5.8 C 0 km/h
1982 18-11-2010 19:42:02 5.7 C 6.05 g/m*3 5.7 C 0 km/h
1983 18-11-2010 19:54:02 5.7 C 6.12 g/m*3 5.7 C 0 km/h
1984 18-11-2010 20:06:02 5.6 C 6.15 g/m*3 5.6 C 0 km/h
1985 18-11-2010 20:18:02 5.6 C 6.22 g/m*3 5.6 C 0 km/h
1986 18-11-2010 20:30:02 5.6 C 6.22 g/m*3 5.6 C 0 km/h
1987 18-11-2010 20:42:02 5.6 C 6.29 g/m*3 5.6 C 0 km/h
1988 18-11-2010 20:54:01 5.5 C 6.25 g/m*3 5.5 C 0 km/h
1989 18-11-2010 21:06:02 5.5 C 6.25 g/m*3 5.5 C 0 km/h
1990 18-11-2010 21:18:01 5.5 C 6.25 g/m*3 5.5 C 0 km/h
1991 18-11-2010 21:30:01 5.5 C 6.25 g/m*3 5.5 C 0 km/h
1992 18-11-2010 21:42:01 5.5 C 6.25 g/m*3 5.5 C 0 km/h
1993 18-11-2010 21:54:01 5.6 C 6.36 g/m*3 5.6 C 0 km/h
1994 18-11-2010 22:06:01 5.5 C 6.32 g/m*3 5.5 C 0 km/h
1995 18-11-2010 22:18:02 5.5 C 6.32 g/m*3 5.5 C 0 km/h
1996 18-11-2010 22:30:02 5.5 C 6.32 g/m*3 5.5 C 0 km/h
1997 18-11-2010 22:42:01 5.5 C 6.32 g/m*3 5.5 C 0 km/h
1998 18-11-2010 22:55:03 5.5 C 6.32 g/m*3 5.5 C 0 km/h
1999 18-11-2010 23:07:03 5.6 C 6.43 g/m*3 5.6 C 0 km/h
2000 18-11-2010 23:19:03 5.6 C 6.43 g/m*3 5.6 C 0 km/h
Sensor: Nr:Datum:Temp:Abs-Feuchte:Windchill:Wind:
Aussen-T/F 2001 18-11-2010 23:31:03 5.7 C 6.48 g/m*3 5.7 C 0 km/h
2002 18-11-2010 23:43:03 5.7 C 6.4 g/m*3 5.7 C 0 km/h
2003 18-11-2010 23:55:04 5.6 C 6.36 g/m*3 5.6 C 0 km/h
2004 19-11-2010 00:07:04 5.5 C 6.32 g/m*3 5.5 C 0 km/h
2005 19-11-2010 00:19:04 5.6 C 6.29 g/m*3 5.6 C 0 km/h
2006 19-11-2010 00:31:04 5.7 C 6.26 g/m*3 5.7 C 0 km/h
2007 19-11-2010 00:43:04 5.7 C 6.26 g/m*3 5.7 C 0 km/h
2008 19-11-2010 00:55:04 5.8 C 6.16 g/m*3 5.8 C 0 km/h
2009 19-11-2010 01:07:04 5.8 C 6.09 g/m*3 5.8 C 0 km/h
2010 19-11-2010 01:19:04 5.6 C 6.01 g/m*3 5.6 C 0 km/h
2011 19-11-2010 01:31:04 5.5 C 6.11 g/m*3 5.5 C 0 km/h
2012 19-11-2010 01:43:04 5.5 C 6.18 g/m*3 5.5 C 0 km/h
2013 19-11-2010 01:55:04 5.5 C 6.18 g/m*3 5.5 C 0 km/h
2014 19-11-2010 02:07:04 5.4 C 6.14 g/m*3 5.4 C 0 km/h
2015 19-11-2010 02:19:04 5.4 C 6.21 g/m*3 5.4 C 0 km/h
2016 19-11-2010 02:31:04 5.3 C 6.17 g/m*3 5.3 C 0 km/h
2017 19-11-2010 02:43:04 5.3 C 6.17 g/m*3 5.3 C 0 km/h
2018 19-11-2010 02:55:04 5.3 C 6.17 g/m*3 5.3 C 0 km/h
2019 19-11-2010 03:07:04 5.2 C 6.06 g/m*3 5.2 C 0 km/h
2020 19-11-2010 03:19:04 5.2 C 6.13 g/m*3 5.2 C 0 km/h
2021 19-11-2010 03:31:04 5.1 C 6.09 g/m*3 5.1 C 0 km/h
2022 19-11-2010 03:43:04 5.1 C 6.09 g/m*3 5.1 C 0 km/h
2023 19-11-2010 03:55:04 5 C 6.05 g/m*3 5 C 0 km/h
2024 19-11-2010 04:07:05 5 C 6.05 g/m*3 5 C 0 km/h
2025 19-11-2010 04:19:05 5 C 6.05 g/m*3 5 C 0 km/h
Sensor: Nr:Datum:Temp:Abs-Feuchte:Windchill:Wind:
Aussen-T/F 2026 19-11-2010 04:31:05 5.1 C 6.09 g/m*3 5.1 C 0 km/h
2027 19-11-2010 04:43:05 5.1 C 6.09 g/m*3 5.1 C 0 km/h
2028 19-11-2010 04:55:05 5 C 5.98 g/m*3 5 C 0 km/h
2029 19-11-2010 05:07:05 4.9 C 6.01 g/m*3 4.9 C 0 km/h
2030 19-11-2010 05:19:05 4.9 C 6.01 g/m*3 4.9 C 0 km/h
2031 19-11-2010 05:31:05 4.9 C 6.08 g/m*3 4.9 C 0 km/h
2032 19-11-2010 05:43:05 5 C 6.05 g/m*3 5 C 0 km/h
2033 19-11-2010 05:55:05 5 C 6.05 g/m*3 5 C 0 km/h
2034 19-11-2010 06:07:05 4.9 C 6.01 g/m*3 4.9 C 0 km/h
2035 19-11-2010 06:19:05 4.8 C 5.97 g/m*3 4.8 C 0 km/h
2036 19-11-2010 06:31:05 4.8 C 6.04 g/m*3 4.8 C 0 km/h
2037 19-11-2010 06:43:05 5 C 6.05 g/m*3 5 C 0 km/h
2038 19-11-2010 06:55:02 5 C 6.05 g/m*3 5 C 0 km/h
2039 19-11-2010 07:07:02 5.1 C 6.09 g/m*3 5.1 C 0 km/h
2040 19-11-2010 07:19:02 5.2 C 6.13 g/m*3 5.2 C 0 km/h
2041 19-11-2010 07:31:02 5.2 C 6.13 g/m*3 5.2 C 0 km/h
2042 19-11-2010 07:43:02 5.1 C 6.09 g/m*3 5.1 C 0 km/h
2043 19-11-2010 07:55:02 5.1 C 6.09 g/m*3 5.1 C 0 km/h
2044 19-11-2010 08:07:01 5.2 C 6.13 g/m*3 5.2 C 0 km/h
2045 19-11-2010 08:19:02 5.3 C 6.17 g/m*3 5.3 C 0 km/h
2046 19-11-2010 08:31:02 5.4 C 6.21 g/m*3 5.4 C 0 km/h
2047 19-11-2010 08:43:02 5.5 C 6.25 g/m*3 5.5 C 0 km/h
2048 19-11-2010 08:55:02 5.8 C 6.38 g/m*3 5.8 C 0 km/h
2049 19-11-2010 09:07:02 6 C 6.31 g/m*3 6 C 0 km/h
2050 19-11-2010 09:19:02 6.2 C 6.32 g/m*3 6.2 C 0 km/h
Sensor: Nr:Datum:Temp:Abs-Feuchte:Windchill:Wind:
Aussen-T/F 2051 19-11-2010 09:31:03 6.4 C 6.33 g/m*3 6.4 C 0 km/h
2052 19-11-2010 09:43:03 6.4 C 6.18 g/m*3 6.4 C 0 km/h
2053 19-11-2010 09:55:02 6.6 C 6.11 g/m*3 6.6 C 0 km/h
2054 19-11-2010 10:07:02 6.9 C 6.24 g/m*3 6.9 C 0 km/h
2055 19-11-2010 10:19:01 7.1 C 6.16 g/m*3 7.1 C 0 km/h
2056 19-11-2010 10:31:02 7.6 C 6.28 g/m*3 7.6 C 0 km/h
2057 19-11-2010 10:43:03 7.9 C 6.32 g/m*3 7.9 C 0 km/h
2058 19-11-2010 10:55:02 8.6 C 6.36 g/m*3 8.6 C 0 km/h
2059 19-11-2010 11:07:02 8.7 C 6.23 g/m*3 8.7 C 0 km/h
2060 19-11-2010 11:19:02 8.9 C 6.13 g/m*3 8.9 C 0 km/h
2061 19-11-2010 11:31:02 8.8 C 6.01 g/m*3 8.8 C 0 km/h
2062 19-11-2010 11:43:02 8.8 C 6.01 g/m*3 8.8 C 0 km/h
2063 19-11-2010 11:55:02 9 C 5.91 g/m*3 9 C 0 km/h
2064 19-11-2010 12:07:02 9.2 C 5.98 g/m*3 9.2 C 0 km/h
2065 19-11-2010 12:19:03 9.5 C 5.92 g/m*3 9.5 C 0 km/h
2066 19-11-2010 12:31:02 9.5 C 5.83 g/m*3 9.5 C 0 km/h
2067 19-11-2010 12:43:02 9.4 C 5.79 g/m*3 9.4 C 0 km/h
2068 19-11-2010 12:55:02 10 C 5.73 g/m*3 10 C 0 km/h
2069 19-11-2010 13:07:02 10.2 C 5.8 g/m*3 10.2 C 0 km/h
2070 19-11-2010 13:19:02 9.7 C 5.81 g/m*3 9.7 C 0 km/h
2071 19-11-2010 13:31:02 9.5 C 5.83 g/m*3 9.5 C 0 km/h
2072 19-11-2010 13:43:02 9.5 C 5.92 g/m*3 9.5 C 0 km/h
2073 19-11-2010 13:55:02 9.8 C 5.75 g/m*3 9.8 C 0 km/h
2074 19-11-2010 14:07:01 10.2 C 5.61 g/m*3 10.2 C 0 km/h
2075 19-11-2010 14:19:02 10.1 C 5.67 g/m*3 10.1 C 0 km/h
Sensor: Nr:Datum:Temp:Abs-Feuchte:Windchill:Wind:
Aussen-T/F 2076 19-11-2010 14:31:02 9.9 C 5.7 g/m*3 9.9 C 0 km/h
2077 19-11-2010 14:43:02 9.8 C 5.75 g/m*3 9.8 C 0 km/h
2078 19-11-2010 14:55:01 9.7 C 5.72 g/m*3 9.7 C 0 km/h
2079 19-11-2010 15:07:01 9.7 C 5.81 g/m*3 9.7 C 0 km/h
2080 19-11-2010 15:19:01 9.2 C 5.8 g/m*3 9.2 C 0 km/h
2081 19-11-2010 15:31:02 8.6 C 5.84 g/m*3 8.6 C 0 km/h
2082 19-11-2010 15:43:02 7.7 C 6 g/m*3 7.7 C 0 km/h
2083 19-11-2010 15:55:02 7.3 C 6.08 g/m*3 7.3 C 0 km/h
2084 19-11-2010 16:07:02 6.9 C 6.08 g/m*3 6.9 C 0 km/h
2085 19-11-2010 16:19:01 6.8 C 6.12 g/m*3 6.8 C 0 km/h
2086 19-11-2010 16:31:02 6.8 C 6.19 g/m*3 6.8 C 0 km/h
2087 19-11-2010 16:43:02 7.2 C 6.36 g/m*3 7.2 C 0 km/h
2088 19-11-2010 16:55:02 7.5 C 6.4 g/m*3 7.5 C 0 km/h
2089 19-11-2010 17:07:02 7.6 C 6.28 g/m*3 7.6 C 0 km/h
2090 19-11-2010 17:19:01 7.6 C 6.28 g/m*3 7.6 C 0 km/h
2091 19-11-2010 17:31:02 7.7 C 6.32 g/m*3 7.7 C 0 km/h
2092 19-11-2010 17:43:02 7.5 C 6.32 g/m*3 7.5 C 0 km/h
2093 19-11-2010 17:55:02 7.5 C 6.32 g/m*3 7.5 C 0 km/h
2094 19-11-2010 18:07:02 7.5 C 6.4 g/m*3 7.5 C 0 km/h
2095 19-11-2010 18:19:02 7.6 C 6.36 g/m*3 7.6 C 0 km/h
2096 19-11-2010 18:31:02 7.7 C 6.32 g/m*3 7.7 C 0 km/h
2097 19-11-2010 18:43:02 7.8 C 6.28 g/m*3 7.8 C 0 km/h
2098 19-11-2010 18:55:02 7.5 C 6.24 g/m*3 7.5 C 0 km/h
2099 19-11-2010 19:07:02 7.5 C 6.32 g/m*3 7.5 C 0 km/h
2100 19-11-2010 19:19:02 7.3 C 6.24 g/m*3 7.3 C 0 km/h
Sensor: Nr:Datum:Temp:Abs-Feuchte:Windchill:Wind:
Aussen-T/F 2101 19-11-2010 19:31:01 7 C 6.2 g/m*3 7 C 0 km/h
2102 19-11-2010 19:43:01 6.7 C 6.23 g/m*3 6.7 C 0 km/h
2103 19-11-2010 19:55:02 6.3 C 6.14 g/m*3 6.3 C 0 km/h
2104 19-11-2010 20:07:01 5.9 C 6.13 g/m*3 5.9 C 0 km/h
2105 19-11-2010 20:19:02 5.4 C 6 g/m*3 5.4 C 0 km/h
2106 19-11-2010 20:31:01 5 C 5.84 g/m*3 5 C 0 km/h
2107 19-11-2010 20:43:01 4.6 C 5.76 g/m*3 4.6 C 0 km/h
2108 19-11-2010 20:55:01 4.6 C 5.82 g/m*3 4.6 C 0 km/h
2109 19-11-2010 21:07:02 4.1 C 5.63 g/m*3 4.1 C 0 km/h
2110 19-11-2010 21:19:02 3.9 C 5.62 g/m*3 3.9 C 0 km/h
2111 19-11-2010 21:31:01 4 C 5.66 g/m*3 4 C 0 km/h
2112 19-11-2010 21:43:01 3.8 C 5.65 g/m*3 3.8 C 0 km/h
2113 19-11-2010 21:55:01 3.5 C 5.53 g/m*3 3.5 C 0 km/h
2114 19-11-2010 22:07:01 3.4 C 5.5 g/m*3 3.4 C 0 km/h
2115 19-11-2010 22:19:01 3.4 C 5.56 g/m*3 3.4 C 0 km/h
2116 19-11-2010 22:31:01 4.4 C 5.94 g/m*3 4.4 C 0 km/h
2117 19-11-2010 22:43:01 4.3 C 5.9 g/m*3 4.3 C 0 km/h
2118 19-11-2010 22:55:01 4.1 C 5.82 g/m*3 4.1 C 0 km/h
2119 19-11-2010 23:07:01 4 C 5.79 g/m*3 4 C 0 km/h
2120 19-11-2010 23:19:02 4.3 C 5.9 g/m*3 4.3 C 0 km/h
2121 19-11-2010 23:32:02 4.6 C 6.09 g/m*3 4.6 C 0 km/h
2122 19-11-2010 23:44:02 4.8 C 6.17 g/m*3 4.8 C 0 km/h
2123 19-11-2010 23:56:02 5 C 6.18 g/m*3 5 C 0 km/h
2124 20-11-2010 00:08:02 4.7 C 6.13 g/m*3 4.7 C 0 km/h
2125 20-11-2010 00:20:02 3.9 C 5.81 g/m*3 3.9 C 0 km/h
Sensor: Nr:Datum:Temp:Abs-Feuchte:Windchill:Wind:
Aussen-T/F 2126 20-11-2010 00:32:02 3.2 C 5.54 g/m*3 3.2 C 0 km/h
2127 20-11-2010 00:44:02 3.8 C 5.77 g/m*3 3.8 C 0 km/h
2128 20-11-2010 00:56:02 4.6 C 6.09 g/m*3 4.6 C 0 km/h
2129 20-11-2010 01:08:02 4.6 C 6.09 g/m*3 4.6 C 0 km/h
2130 20-11-2010 01:20:02 4.9 C 6.21 g/m*3 4.9 C 0 km/h
2131 20-11-2010 01:32:02 4.6 C 6.09 g/m*3 4.6 C 0 km/h
2132 20-11-2010 01:44:02 3.7 C 5.73 g/m*3 3.7 C 0 km/h
2133 20-11-2010 01:56:03 3.1 C 5.51 g/m*3 3.1 C 0 km/h
2134 20-11-2010 02:08:03 2.4 C 5.25 g/m*3 2.4 C 0 km/h
2135 20-11-2010 02:20:03 2.1 C 5.15 g/m*3 2.1 C 0 km/h
2136 20-11-2010 02:32:03 1.7 C 5.06 g/m*3 1.7 C 0 km/h
2137 20-11-2010 02:44:03 2 C 5.11 g/m*3 2 C 0 km/h
2138 20-11-2010 02:56:03 1.5 C 4.99 g/m*3 1.5 C 0 km/h
2139 20-11-2010 03:08:03 1.4 C 4.96 g/m*3 1.4 C 0 km/h
2140 20-11-2010 03:20:03 1.2 C 4.84 g/m*3 1.2 C 0 km/h
2141 20-11-2010 03:32:03 1.1 C 4.81 g/m*3 1.1 C 0 km/h
2142 20-11-2010 03:44:03 1.3 C 4.87 g/m*3 1.3 C 0 km/h
2143 20-11-2010 03:56:03 1.7 C 5.06 g/m*3 1.7 C 0 km/h
2144 20-11-2010 04:08:03 2.1 C 5.15 g/m*3 2.1 C 0 km/h
2145 20-11-2010 04:20:03 2.5 C 5.35 g/m*3 2.5 C 0 km/h
2146 20-11-2010 04:32:03 2.8 C 5.46 g/m*3 2.8 C 0 km/h
2147 20-11-2010 04:44:03 2.8 C 5.46 g/m*3 2.8 C 0 km/h
2148 20-11-2010 04:56:03 3 C 5.47 g/m*3 3 C 0 km/h
2149 20-11-2010 05:08:03 3.1 C 5.51 g/m*3 3.1 C 0 km/h
2150 20-11-2010 05:20:03 3.2 C 5.6 g/m*3 3.2 C 0 km/h
Sensor: Nr:Datum:Temp:Abs-Feuchte:Windchill:Wind:
Aussen-T/F 2151 20-11-2010 05:32:03 3.4 C 5.68 g/m*3 3.4 C 0 km/h
2152 20-11-2010 05:44:03 3.4 C 5.68 g/m*3 3.4 C 0 km/h
2153 20-11-2010 05:56:03 3.6 C 5.76 g/m*3 3.6 C 0 km/h
2154 20-11-2010 06:08:03 3.6 C 5.76 g/m*3 3.6 C 0 km/h
2155 20-11-2010 06:20:03 3.7 C 5.8 g/m*3 3.7 C 0 km/h
2156 20-11-2010 06:32:04 3.8 C 5.83 g/m*3 3.8 C 0 km/h
2157 20-11-2010 06:44:04 3.8 C 5.83 g/m*3 3.8 C 0 km/h
2158 20-11-2010 06:56:04 3.9 C 5.87 g/m*3 3.9 C 0 km/h
2159 20-11-2010 07:08:04 4 C 5.91 g/m*3 4 C 0 km/h
2160 20-11-2010 07:20:04 4 C 5.91 g/m*3 4 C 0 km/h
2161 20-11-2010 07:32:04 4.1 C 5.95 g/m*3 4.1 C 0 km/h
2162 20-11-2010 07:44:04 4.1 C 5.95 g/m*3 4.1 C 0 km/h
2163 20-11-2010 07:56:04 4.1 C 5.95 g/m*3 4.1 C 0 km/h
2164 20-11-2010 08:08:02 4.2 C 5.99 g/m*3 4.2 C 0 km/h
2165 20-11-2010 08:20:01 4.3 C 6.03 g/m*3 4.3 C 0 km/h
2166 20-11-2010 08:32:02 4.4 C 6.07 g/m*3 4.4 C 0 km/h
2167 20-11-2010 08:44:02 4.5 C 6.11 g/m*3 4.5 C 0 km/h
2168 20-11-2010 08:56:02 4.6 C 6.15 g/m*3 4.6 C 0 km/h
2169 20-11-2010 09:08:02 4.7 C 6.19 g/m*3 4.7 C 0 km/h
2170 20-11-2010 09:20:01 4.9 C 6.28 g/m*3 4.9 C 0 km/h
2171 20-11-2010 09:32:02 5 C 6.25 g/m*3 5 C 0 km/h
2172 20-11-2010 09:44:02 5.2 C 6.4 g/m*3 5.2 C 0 km/h
2173 20-11-2010 09:56:02 5.4 C 6.49 g/m*3 5.4 C 0 km/h
2174 20-11-2010 10:08:02 5.5 C 6.46 g/m*3 5.5 C 0 km/h
2175 20-11-2010 10:20:02 5.6 C 6.5 g/m*3 5.6 C 0 km/h
Sensor: Nr:Datum:Temp:Abs-Feuchte:Windchill:Wind:
Aussen-T/F 2176 20-11-2010 10:32:02 6 C 6.6 g/m*3 6 C 0 km/h
2177 20-11-2010 10:44:02 6.5 C 6.82 g/m*3 6.5 C 0 km/h
2178 20-11-2010 10:56:02 6.5 C 6.75 g/m*3 6.5 C 0 km/h
2179 20-11-2010 11:08:01 6.8 C 6.81 g/m*3 6.8 C 0 km/h
2180 20-11-2010 11:20:02 6.9 C 6.7 g/m*3 6.9 C 0 km/h
2181 20-11-2010 11:32:01 7.2 C 6.67 g/m*3 7.2 C 0 km/h
2182 20-11-2010 11:44:01 8 C 6.78 g/m*3 8 C 0 km/h
2183 20-11-2010 11:56:02 8.4 C 6.79 g/m*3 8.4 C 0 km/h
2184 20-11-2010 12:08:01 8.8 C 6.88 g/m*3 8.8 C 0 km/h
2185 20-11-2010 12:20:01 8.9 C 6.83 g/m*3 8.9 C 0 km/h
2186 20-11-2010 12:32:02 9.2 C 6.61 g/m*3 9.2 C 0 km/h
2187 20-11-2010 12:44:02 9.3 C 6.56 g/m*3 9.3 C 0 km/h
2188 20-11-2010 12:56:02 9.3 C 6.47 g/m*3 9.3 C 0 km/h
2189 20-11-2010 13:08:02 8.9 C 6.31 g/m*3 8.9 C 0 km/h
2190 20-11-2010 13:20:01 8.7 C 6.4 g/m*3 8.7 C 0 km/h
2191 20-11-2010 13:32:02 8.5 C 6.32 g/m*3 8.5 C 0 km/h
2192 20-11-2010 13:44:03 9.1 C 6.48 g/m*3 9.1 C 0 km/h
2193 20-11-2010 13:56:02 9.2 C 6.34 g/m*3 9.2 C 0 km/h
2194 20-11-2010 14:08:02 9 C 6.26 g/m*3 9 C 0 km/h
2195 20-11-2010 14:20:01 8.9 C 6.31 g/m*3 8.9 C 0 km/h
2196 20-11-2010 14:32:02 8.8 C 6.35 g/m*3 8.8 C 0 km/h
2197 20-11-2010 14:44:02 8.7 C 6.31 g/m*3 8.7 C 0 km/h
2198 20-11-2010 14:56:02 8.5 C 6.23 g/m*3 8.5 C 0 km/h
2199 20-11-2010 15:08:02 8.3 C 6.15 g/m*3 8.3 C 0 km/h
2200 20-11-2010 15:20:02 8.1 C 6.24 g/m*3 8.1 C 0 km/h
Sensor: Nr:Datum:Temp:Abs-Feuchte:Windchill:Wind:
Aussen-T/F 2201 20-11-2010 15:32:02 7.9 C 6.24 g/m*3 7.9 C 0 km/h
2202 20-11-2010 15:44:02 7.6 C 6.2 g/m*3 7.6 C 0 km/h
2203 20-11-2010 15:56:02 6.9 C 6.08 g/m*3 6.9 C 0 km/h
2204 20-11-2010 16:08:02 6.2 C 5.96 g/m*3 6.2 C 0 km/h
2205 20-11-2010 16:20:02 5.7 C 5.91 g/m*3 5.7 C 0 km/h
2206 20-11-2010 16:32:01 5.2 C 5.78 g/m*3 5.2 C 0 km/h
2207 20-11-2010 16:44:01 4.8 C 5.77 g/m*3 4.8 C 0 km/h
2208 20-11-2010 16:56:02 4.8 C 5.9 g/m*3 4.8 C 0 km/h
2209 20-11-2010 17:08:01 4.6 C 5.82 g/m*3 4.6 C 0 km/h
2210 20-11-2010 17:20:02 4.6 C 5.89 g/m*3 4.6 C 0 km/h
2211 20-11-2010 17:32:02 4.6 C 5.89 g/m*3 4.6 C 0 km/h
2212 20-11-2010 17:44:02 4.7 C 6 g/m*3 4.7 C 0 km/h
2213 20-11-2010 17:56:02 4.5 C 5.92 g/m*3 4.5 C 0 km/h
2214 20-11-2010 18:08:02 4.5 C 5.92 g/m*3 4.5 C 0 km/h
2215 20-11-2010 18:20:02 4.5 C 5.92 g/m*3 4.5 C 0 km/h
2216 20-11-2010 18:32:02 4.4 C 5.88 g/m*3 4.4 C 0 km/h
2217 20-11-2010 18:44:02 4.4 C 5.94 g/m*3 4.4 C 0 km/h
2218 20-11-2010 18:56:01 4.2 C 5.86 g/m*3 4.2 C 0 km/h
2219 20-11-2010 19:08:02 4.4 C 5.94 g/m*3 4.4 C 0 km/h
2220 20-11-2010 19:20:01 3.9 C 5.75 g/m*3 3.9 C 0 km/h
2221 20-11-2010 19:32:02 3.9 C 5.75 g/m*3 3.9 C 0 km/h
2222 20-11-2010 19:44:02 3.8 C 5.71 g/m*3 3.8 C 0 km/h
2223 20-11-2010 19:56:02 3.6 C 5.63 g/m*3 3.6 C 0 km/h
2224 20-11-2010 20:08:02 3.6 C 5.63 g/m*3 3.6 C 0 km/h
2225 20-11-2010 20:20:02 3.5 C 5.66 g/m*3 3.5 C 0 km/h
Sensor: Nr:Datum:Temp:Abs-Feuchte:Windchill:Wind:
Aussen-T/F 2226 20-11-2010 20:32:02 3.4 C 5.62 g/m*3 3.4 C 0 km/h
2227 20-11-2010 20:44:03 3.1 C 5.45 g/m*3 3.1 C 0 km/h
2228 20-11-2010 20:56:02 2.8 C 5.4 g/m*3 2.8 C 0 km/h
2229 20-11-2010 21:08:02 2.8 C 5.4 g/m*3 2.8 C 0 km/h
2230 20-11-2010 21:20:02 2.8 C 5.4 g/m*3 2.8 C 0 km/h
2231 20-11-2010 21:32:02 3.2 C 5.54 g/m*3 3.2 C 0 km/h
2232 20-11-2010 21:44:02 3.6 C 5.69 g/m*3 3.6 C 0 km/h
2233 20-11-2010 21:56:02 3.9 C 5.81 g/m*3 3.9 C 0 km/h
2234 20-11-2010 22:08:03 4.1 C 5.89 g/m*3 4.1 C 0 km/h
2235 20-11-2010 22:20:02 4.3 C 5.97 g/m*3 4.3 C 0 km/h
2236 20-11-2010 22:32:02 4.4 C 6.01 g/m*3 4.4 C 0 km/h
2237 20-11-2010 22:44:02 4.4 C 6.01 g/m*3 4.4 C 0 km/h
2238 20-11-2010 22:56:01 4.4 C 6.01 g/m*3 4.4 C 0 km/h
2239 20-11-2010 23:09:02 4 C 5.85 g/m*3 4 C 0 km/h
2240 20-11-2010 23:21:02 4 C 5.85 g/m*3 4 C 0 km/h
2241 20-11-2010 23:33:02 4.1 C 5.89 g/m*3 4.1 C 0 km/h
2242 20-11-2010 23:45:02 4.3 C 6.03 g/m*3 4.3 C 0 km/h
2243 20-11-2010 23:57:02 4.2 C 5.99 g/m*3 4.2 C 0 km/h
2244 21-11-2010 00:09:02 4.3 C 5.97 g/m*3 4.3 C 0 km/h
2245 21-11-2010 00:21:03 4.3 C 5.97 g/m*3 4.3 C 0 km/h
2246 21-11-2010 00:33:03 4.3 C 5.97 g/m*3 4.3 C 0 km/h
2247 21-11-2010 00:45:03 4.3 C 5.97 g/m*3 4.3 C 0 km/h
2248 21-11-2010 00:57:03 4.4 C 5.94 g/m*3 4.4 C 0 km/h
2249 21-11-2010 01:09:03 4.4 C 5.88 g/m*3 4.4 C 0 km/h
2250 21-11-2010 01:21:03 4.5 C 5.78 g/m*3 4.5 C 0 km/h
Sensor: Nr:Datum:Temp:Abs-Feuchte:Windchill:Wind:
Aussen-T/F 2251 21-11-2010 01:33:03 4.5 C 5.72 g/m*3 4.5 C 0 km/h
2252 21-11-2010 01:45:03 4.5 C 5.72 g/m*3 4.5 C 0 km/h
2253 21-11-2010 01:57:03 4.5 C 5.65 g/m*3 4.5 C 0 km/h
2254 21-11-2010 02:09:03 4.5 C 5.59 g/m*3 4.5 C 0 km/h
2255 21-11-2010 02:21:03 4.4 C 5.48 g/m*3 4.4 C 0 km/h
2256 21-11-2010 02:33:03 4.4 C 5.35 g/m*3 4.4 C 0 km/h
2257 21-11-2010 02:45:03 4.4 C 5.35 g/m*3 4.4 C 0 km/h
2258 21-11-2010 02:57:03 4.5 C 5.39 g/m*3 4.5 C 0 km/h
2259 21-11-2010 03:09:03 4.5 C 5.39 g/m*3 4.5 C 0 km/h
2260 21-11-2010 03:21:03 4.5 C 5.32 g/m*3 4.5 C 0 km/h
2261 21-11-2010 03:33:03 4.4 C 5.29 g/m*3 4.4 C 0 km/h
2262 21-11-2010 03:45:03 4.5 C 5.26 g/m*3 4.5 C 0 km/h
2263 21-11-2010 03:57:03 4.6 C 5.16 g/m*3 4.6 C 0 km/h
2264 21-11-2010 04:09:03 4.6 C 5.16 g/m*3 4.6 C 0 km/h
2265 21-11-2010 04:21:03 4.6 C 5.1 g/m*3 4.6 C 0 km/h
2266 21-11-2010 04:33:03 4.6 C 5.03 g/m*3 4.6 C 0 km/h
2267 21-11-2010 04:45:04 4.5 C 5 g/m*3 4.5 C 0 km/h
2268 21-11-2010 04:57:04 4.5 C 5 g/m*3 4.5 C 0 km/h
2269 21-11-2010 05:09:04 4.5 C 5 g/m*3 4.5 C 0 km/h
2270 21-11-2010 05:21:04 4.6 C 4.96 g/m*3 4.6 C 0 km/h
2271 21-11-2010 05:33:04 4.5 C 4.93 g/m*3 4.5 C 0 km/h
2272 21-11-2010 05:45:04 4.5 C 4.93 g/m*3 4.5 C 0 km/h
2273 21-11-2010 05:57:04 4.4 C 4.9 g/m*3 4.4 C 0 km/h
2274 21-11-2010 06:09:04 4.4 C 4.9 g/m*3 4.4 C 0 km/h
2275 21-11-2010 06:21:04 4.5 C 4.86 g/m*3 4.5 C 0 km/h
Sensor: Nr:Datum:Temp:Abs-Feuchte:Windchill:Wind:
Aussen-T/F 2276 21-11-2010 06:33:04 4.4 C 4.9 g/m*3 4.4 C 0 km/h
2277 21-11-2010 06:45:04 4.4 C 4.96 g/m*3 4.4 C 0 km/h
2278 21-11-2010 06:57:04 4.3 C 4.99 g/m*3 4.3 C 0 km/h
2279 21-11-2010 07:09:04 4.3 C 4.99 g/m*3 4.3 C 0 km/h
2280 21-11-2010 07:21:04 4.4 C 5.03 g/m*3 4.4 C 0 km/h
2281 21-11-2010 07:33:04 4.4 C 5.03 g/m*3 4.4 C 0 km/h
2282 21-11-2010 07:45:04 4.4 C 5.09 g/m*3 4.4 C 0 km/h
2283 21-11-2010 07:57:04 4.4 C 5.09 g/m*3 4.4 C 0 km/h
2284 21-11-2010 08:09:04 4.5 C 5.19 g/m*3 4.5 C 0 km/h
2285 21-11-2010 08:21:04 4.6 C 5.23 g/m*3 4.6 C 0 km/h
2286 21-11-2010 08:33:04 4.7 C 5.13 g/m*3 4.7 C 0 km/h
2287 21-11-2010 08:45:04 4.8 C 5.1 g/m*3 4.8 C 0 km/h
2288 21-11-2010 08:57:04 4.9 C 5.06 g/m*3 4.9 C 0 km/h
2289 21-11-2010 09:09:05 5.1 C 4.99 g/m*3 5.1 C 0 km/h
2290 21-11-2010 09:21:05 5.1 C 4.92 g/m*3 5.1 C 0 km/h
2291 21-11-2010 09:33:02 5 C 4.89 g/m*3 5 C 0 km/h
2292 21-11-2010 09:45:02 4.9 C 4.86 g/m*3 4.9 C 0 km/h
2293 21-11-2010 09:57:02 4.9 C 4.93 g/m*3 4.9 C 0 km/h
2294 21-11-2010 10:09:02 5 C 4.89 g/m*3 5 C 0 km/h
2295 21-11-2010 10:21:02 5.2 C 4.82 g/m*3 5.2 C 0 km/h
2296 21-11-2010 10:33:02 5.4 C 4.81 g/m*3 5.4 C 0 km/h
2297 21-11-2010 10:45:01 5.6 C 4.81 g/m*3 5.6 C 0 km/h
2298 21-11-2010 10:57:01 5.6 C 4.74 g/m*3 5.6 C 0 km/h
2299 21-11-2010 11:09:01 5.6 C 4.67 g/m*3 5.6 C 0 km/h
2300 21-11-2010 11:21:02 5.3 C 4.64 g/m*3 5.3 C 0 km/h
Sensor: Nr:Datum:Temp:Abs-Feuchte:Windchill:Wind:
Aussen-T/F 2301 21-11-2010 11:33:01 5.1 C 4.58 g/m*3 5.1 C 0 km/h
2302 21-11-2010 11:45:03 5.2 C 4.61 g/m*3 5.2 C 0 km/h
2303 21-11-2010 11:57:03 5.3 C 4.64 g/m*3 5.3 C 0 km/h
2304 21-11-2010 12:09:02 5.1 C 4.58 g/m*3 5.1 C 0 km/h
2305 21-11-2010 12:21:02 5 C 4.55 g/m*3 5 C 0 km/h
2306 21-11-2010 12:33:02 5 C 4.48 g/m*3 5 C 0 km/h
2307 21-11-2010 12:45:02 5.1 C 4.51 g/m*3 5.1 C 0 km/h
2308 21-11-2010 12:57:02 5.3 C 4.51 g/m*3 5.3 C 0 km/h
2309 21-11-2010 13:09:02 5.3 C 4.51 g/m*3 5.3 C 0 km/h
2310 21-11-2010 13:21:02 5.1 C 4.45 g/m*3 5.1 C 0 km/h
2311 21-11-2010 13:33:02 5.1 C 4.45 g/m*3 5.1 C 0 km/h
2312 21-11-2010 13:45:02 5.1 C 4.45 g/m*3 5.1 C 0 km/h
2313 21-11-2010 13:57:02 5 C 4.42 g/m*3 5 C 0 km/h
2314 21-11-2010 14:09:02 5 C 4.42 g/m*3 5 C 0 km/h
2315 21-11-2010 14:21:01 4.9 C 4.46 g/m*3 4.9 C 0 km/h
2316 21-11-2010 14:33:02 4.9 C 4.46 g/m*3 4.9 C 0 km/h
2317 21-11-2010 14:45:02 4.8 C 4.43 g/m*3 4.8 C 0 km/h
2318 21-11-2010 14:57:02 4.8 C 4.36 g/m*3 4.8 C 0 km/h
2319 21-11-2010 15:09:02 4.6 C 4.3 g/m*3 4.6 C 0 km/h
2320 21-11-2010 15:21:01 4.5 C 4.27 g/m*3 4.5 C 0 km/h
2321 21-11-2010 15:33:02 4.4 C 4.24 g/m*3 4.4 C 0 km/h
2322 21-11-2010 15:45:02 4.4 C 4.31 g/m*3 4.4 C 0 km/h
2323 21-11-2010 15:57:02 4.3 C 4.28 g/m*3 4.3 C 0 km/h
2324 21-11-2010 16:09:02 4.3 C 4.28 g/m*3 4.3 C 0 km/h
2325 21-11-2010 16:21:02 4.2 C 4.32 g/m*3 4.2 C 0 km/h
Sensor: Nr:Datum:Temp:Abs-Feuchte:Windchill:Wind:
Aussen-T/F 2326 21-11-2010 16:33:02 4.2 C 4.45 g/m*3 4.2 C 0 km/h
2327 21-11-2010 16:45:02 4.1 C 4.42 g/m*3 4.1 C 0 km/h
2328 21-11-2010 16:57:02 4 C 4.45 g/m*3 4 C 0 km/h
2329 21-11-2010 17:09:02 3.9 C 4.48 g/m*3 3.9 C 0 km/h
2330 21-11-2010 17:21:02 3.9 C 4.55 g/m*3 3.9 C 0 km/h
2331 21-11-2010 17:33:02 4 C 4.51 g/m*3 4 C 0 km/h
2332 21-11-2010 17:45:02 4 C 4.45 g/m*3 4 C 0 km/h
2333 21-11-2010 17:57:02 4 C 4.51 g/m*3 4 C 0 km/h
2334 21-11-2010 18:09:01 4 C 4.51 g/m*3 4 C 0 km/h
2335 21-11-2010 18:21:02 4 C 4.51 g/m*3 4 C 0 km/h
2336 21-11-2010 18:33:02 4 C 4.51 g/m*3 4 C 0 km/h
2337 21-11-2010 18:45:02 3.9 C 4.61 g/m*3 3.9 C 0 km/h
2338 21-11-2010 18:57:02 3.9 C 4.67 g/m*3 3.9 C 0 km/h
2339 21-11-2010 19:09:03 3.9 C 4.67 g/m*3 3.9 C 0 km/h
2340 21-11-2010 19:21:02 4 C 4.64 g/m*3 4 C 0 km/h
2341 21-11-2010 19:33:02 4.1 C 4.61 g/m*3 4.1 C 0 km/h
2342 21-11-2010 19:45:02 4.1 C 4.54 g/m*3 4.1 C 0 km/h
2343 21-11-2010 19:57:02 4.2 C 4.57 g/m*3 4.2 C 0 km/h
2344 21-11-2010 20:09:02 4.3 C 4.61 g/m*3 4.3 C 0 km/h
2345 21-11-2010 20:21:02 4.3 C 4.61 g/m*3 4.3 C 0 km/h
2346 21-11-2010 20:33:02 4.3 C 4.54 g/m*3 4.3 C 0 km/h
2347 21-11-2010 20:45:02 4.3 C 4.54 g/m*3 4.3 C 0 km/h
2348 21-11-2010 20:57:02 4.3 C 4.48 g/m*3 4.3 C 0 km/h
2349 21-11-2010 21:09:03 4.3 C 4.48 g/m*3 4.3 C 0 km/h
2350 21-11-2010 21:21:02 4.3 C 4.48 g/m*3 4.3 C 0 km/h
Sensor: Nr:Datum:Temp:Abs-Feuchte:Windchill:Wind:
Aussen-T/F 2351 21-11-2010 21:33:03 4.1 C 4.48 g/m*3 4.1 C 0 km/h
2352 21-11-2010 21:45:02 4 C 4.51 g/m*3 4 C 0 km/h
2353 21-11-2010 21:57:03 4.1 C 4.54 g/m*3 4.1 C 0 km/h
2354 21-11-2010 22:09:02 3.9 C 4.55 g/m*3 3.9 C 0 km/h
2355 21-11-2010 22:21:02 3.7 C 4.61 g/m*3 3.7 C 0 km/h
2356 21-11-2010 22:33:01 3.8 C 4.71 g/m*3 3.8 C 0 km/h
2357 21-11-2010 22:45:02 3.7 C 4.74 g/m*3 3.7 C 0 km/h
2358 21-11-2010 22:57:02 3.7 C 4.67 g/m*3 3.7 C 0 km/h
2359 21-11-2010 23:10:04 3.7 C 4.74 g/m*3 3.7 C 0 km/h
2360 21-11-2010 23:22:04 3.7 C 4.8 g/m*3 3.7 C 0 km/h
2361 21-11-2010 23:34:04 3.8 C 4.83 g/m*3 3.8 C 0 km/h
2362 21-11-2010 23:46:04 3.8 C 4.83 g/m*3 3.8 C 0 km/h
2363 21-11-2010 23:58:04 3.8 C 4.83 g/m*3 3.8 C 0 km/h
2364 22-11-2010 00:10:04 3.9 C 4.93 g/m*3 3.9 C 0 km/h
2365 22-11-2010 00:22:04 4.1 C 4.93 g/m*3 4.1 C 0 km/h
2366 22-11-2010 00:34:04 4.1 C 4.93 g/m*3 4.1 C 0 km/h
2367 22-11-2010 00:46:04 4.1 C 4.93 g/m*3 4.1 C 0 km/h
2368 22-11-2010 00:58:04 4.1 C 4.93 g/m*3 4.1 C 0 km/h
2369 22-11-2010 01:10:04 4.1 C 4.93 g/m*3 4.1 C 0 km/h
2370 22-11-2010 01:22:04 4.1 C 4.93 g/m*3 4.1 C 0 km/h
2371 22-11-2010 01:34:04 4.1 C 4.93 g/m*3 4.1 C 0 km/h
2372 22-11-2010 01:46:04 4.1 C 4.93 g/m*3 4.1 C 0 km/h
2373 22-11-2010 01:58:04 4 C 4.9 g/m*3 4 C 0 km/h
2374 22-11-2010 02:10:04 4.1 C 4.93 g/m*3 4.1 C 0 km/h
2375 22-11-2010 02:22:04 4.1 C 4.93 g/m*3 4.1 C 0 km/h
Sensor: Nr:Datum:Temp:Abs-Feuchte:Windchill:Wind:
Aussen-T/F 2376 22-11-2010 02:34:04 4.2 C 5.03 g/m*3 4.2 C 0 km/h
2377 22-11-2010 02:46:04 4.2 C 4.96 g/m*3 4.2 C 0 km/h
2378 22-11-2010 02:58:04 4.2 C 5.03 g/m*3 4.2 C 0 km/h
2379 22-11-2010 03:10:04 4.2 C 5.03 g/m*3 4.2 C 0 km/h
2380 22-11-2010 03:22:05 4.3 C 5.06 g/m*3 4.3 C 0 km/h
2381 22-11-2010 03:34:05 4.4 C 5.09 g/m*3 4.4 C 0 km/h
2382 22-11-2010 03:46:05 4.6 C 5.1 g/m*3 4.6 C 0 km/h
2383 22-11-2010 03:58:05 4.8 C 5.03 g/m*3 4.8 C 0 km/h
2384 22-11-2010 04:10:05 4.9 C 5 g/m*3 4.9 C 0 km/h
2385 22-11-2010 04:22:05 4.9 C 5 g/m*3 4.9 C 0 km/h
2386 22-11-2010 04:34:05 4.9 C 5 g/m*3 4.9 C 0 km/h
2387 22-11-2010 04:46:05 4.8 C 5.03 g/m*3 4.8 C 0 km/h
2388 22-11-2010 04:58:05 4.8 C 5.03 g/m*3 4.8 C 0 km/h
2389 22-11-2010 05:10:05 4.9 C 5 g/m*3 4.9 C 0 km/h
2390 22-11-2010 05:22:05 4.9 C 5 g/m*3 4.9 C 0 km/h
2391 22-11-2010 05:34:05 4.9 C 4.93 g/m*3 4.9 C 0 km/h
2392 22-11-2010 05:46:05 4.9 C 4.93 g/m*3 4.9 C 0 km/h
2393 22-11-2010 05:58:05 4.8 C 4.9 g/m*3 4.8 C 0 km/h
2394 22-11-2010 06:10:05 4.7 C 4.86 g/m*3 4.7 C 0 km/h
2395 22-11-2010 06:22:05 4.7 C 4.86 g/m*3 4.7 C 0 km/h
2396 22-11-2010 06:34:05 4.7 C 4.86 g/m*3 4.7 C 0 km/h
2397 22-11-2010 06:46:05 4.7 C 4.86 g/m*3 4.7 C 0 km/h
2398 22-11-2010 06:58:05 4.7 C 4.86 g/m*3 4.7 C 0 km/h
2399 22-11-2010 07:10:05 4.7 C 4.86 g/m*3 4.7 C 0 km/h
2400 22-11-2010 07:22:03 4.7 C 4.8 g/m*3 4.7 C 0 km/h
Sensor: Nr:Datum:Temp:Abs-Feuchte:Windchill:Wind:
Aussen-T/F 2401 22-11-2010 07:34:04 4.6 C 4.76 g/m*3 4.6 C 0 km/h
2402 22-11-2010 07:46:02 4.6 C 4.76 g/m*3 4.6 C 0 km/h
2403 22-11-2010 07:58:02 4.6 C 4.76 g/m*3 4.6 C 0 km/h
2404 22-11-2010 08:10:02 4.6 C 4.83 g/m*3 4.6 C 0 km/h
2405 22-11-2010 08:22:02 4.6 C 4.83 g/m*3 4.6 C 0 km/h
2406 22-11-2010 08:34:02 4.6 C 4.76 g/m*3 4.6 C 0 km/h
2407 22-11-2010 08:46:02 4.7 C 4.8 g/m*3 4.7 C 0 km/h
2408 22-11-2010 08:58:02 4.7 C 4.8 g/m*3 4.7 C 0 km/h
2409 22-11-2010 09:10:02 4.7 C 4.8 g/m*3 4.7 C 0 km/h
2410 22-11-2010 09:22:02 4.7 C 4.8 g/m*3 4.7 C 0 km/h
2411 22-11-2010 09:34:02 4.7 C 4.8 g/m*3 4.7 C 0 km/h
2412 22-11-2010 09:46:01 4.8 C 4.83 g/m*3 4.8 C 0 km/h
2413 22-11-2010 09:58:01 4.8 C 4.83 g/m*3 4.8 C 0 km/h
2414 22-11-2010 10:10:02 4.9 C 4.86 g/m*3 4.9 C 0 km/h
2415 22-11-2010 10:22:01 4.9 C 4.86 g/m*3 4.9 C 0 km/h
2416 22-11-2010 10:34:01 4.8 C 4.83 g/m*3 4.8 C 0 km/h
2417 22-11-2010 10:46:01 4.8 C 4.9 g/m*3 4.8 C 0 km/h
2418 22-11-2010 10:58:01 4.7 C 4.86 g/m*3 4.7 C 0 km/h
2419 22-11-2010 11:10:02 4.7 C 4.86 g/m*3 4.7 C 0 km/h
2420 22-11-2010 11:22:01 4.6 C 4.9 g/m*3 4.6 C 0 km/h
2421 22-11-2010 11:34:01 4.5 C 4.93 g/m*3 4.5 C 0 km/h
2422 22-11-2010 11:46:01 4.3 C 4.99 g/m*3 4.3 C 0 km/h
2423 22-11-2010 11:58:01 4.3 C 5.06 g/m*3 4.3 C 0 km/h
2424 22-11-2010 12:10:01 4.3 C 5.19 g/m*3 4.3 C 0 km/h
2425 22-11-2010 12:22:02 4.2 C 5.15 g/m*3 4.2 C 0 km/h
Sensor: Nr:Datum:Temp:Abs-Feuchte:Windchill:Wind:
Aussen-T/F 2426 22-11-2010 12:34:01 4.2 C 5.22 g/m*3 4.2 C 0 km/h
2427 22-11-2010 12:46:02 4.1 C 5.18 g/m*3 4.1 C 0 km/h
2428 22-11-2010 12:58:02 4.2 C 5.28 g/m*3 4.2 C 0 km/h
2429 22-11-2010 13:10:02 4.2 C 5.35 g/m*3 4.2 C 0 km/h
2430 22-11-2010 13:22:02 4.2 C 5.35 g/m*3 4.2 C 0 km/h
2431 22-11-2010 13:34:01 4.2 C 5.41 g/m*3 4.2 C 0 km/h
2432 22-11-2010 13:46:02 4.2 C 5.35 g/m*3 4.2 C 0 km/h
2433 22-11-2010 13:58:02 4.4 C 5.42 g/m*3 4.4 C 0 km/h
2434 22-11-2010 14:10:01 4.5 C 5.39 g/m*3 4.5 C 0 km/h
2435 22-11-2010 14:22:02 4.6 C 5.29 g/m*3 4.6 C 0 km/h
2436 22-11-2010 14:34:02 4.8 C 5.3 g/m*3 4.8 C 0 km/h
2437 22-11-2010 14:46:02 5 C 5.23 g/m*3 5 C 0 km/h
2438 22-11-2010 14:58:02 5 C 5.03 g/m*3 5 C 0 km/h
2439 22-11-2010 15:10:02 5 C 5.03 g/m*3 5 C 0 km/h
2440 22-11-2010 15:22:02 5 C 5.03 g/m*3 5 C 0 km/h
2441 22-11-2010 15:34:02 4.9 C 5.06 g/m*3 4.9 C 0 km/h
2442 22-11-2010 15:46:02 4.8 C 5.03 g/m*3 4.8 C 0 km/h
2443 22-11-2010 15:58:02 4.8 C 4.96 g/m*3 4.8 C 0 km/h
2444 22-11-2010 16:10:02 4.6 C 4.9 g/m*3 4.6 C 0 km/h
2445 22-11-2010 16:22:02 4.5 C 4.86 g/m*3 4.5 C 0 km/h
2446 22-11-2010 16:34:02 4.3 C 4.86 g/m*3 4.3 C 0 km/h
2447 22-11-2010 16:46:02 4.2 C 4.96 g/m*3 4.2 C 0 km/h
2448 22-11-2010 16:58:02 4 C 4.96 g/m*3 4 C 0 km/h
2449 22-11-2010 17:10:02 4 C 4.96 g/m*3 4 C 0 km/h
2450 22-11-2010 17:22:02 3.9 C 4.99 g/m*3 3.9 C 0 km/h
Sensor: Nr:Datum:Temp:Abs-Feuchte:Windchill:Wind:
Aussen-T/F 2451 22-11-2010 17:34:02 4 C 5.02 g/m*3 4 C 0 km/h
2452 22-11-2010 17:46:02 4.1 C 4.99 g/m*3 4.1 C 0 km/h
2453 22-11-2010 17:58:02 4.2 C 4.96 g/m*3 4.2 C 0 km/h
2454 22-11-2010 18:10:02 4.2 C 4.96 g/m*3 4.2 C 0 km/h
2455 22-11-2010 18:22:02 4.3 C 4.99 g/m*3 4.3 C 0 km/h
2456 22-11-2010 18:34:01 4.3 C 4.93 g/m*3 4.3 C 0 km/h
2457 22-11-2010 18:46:02 4.3 C 4.93 g/m*3 4.3 C 0 km/h
2458 22-11-2010 18:58:02 4.3 C 4.93 g/m*3 4.3 C 0 km/h
2459 22-11-2010 19:10:01 4.4 C 4.96 g/m*3 4.4 C 0 km/h
2460 22-11-2010 19:22:02 4.4 C 4.9 g/m*3 4.4 C 0 km/h
2461 22-11-2010 19:34:02 4.4 C 4.9 g/m*3 4.4 C 0 km/h
2462 22-11-2010 19:46:02 4.4 C 4.83 g/m*3 4.4 C 0 km/h
2463 22-11-2010 19:58:02 4.3 C 4.8 g/m*3 4.3 C 0 km/h
2464 22-11-2010 20:10:02 4.4 C 4.83 g/m*3 4.4 C 0 km/h
2465 22-11-2010 20:22:02 4.4 C 4.83 g/m*3 4.4 C 0 km/h
2466 22-11-2010 20:34:02 4.4 C 4.77 g/m*3 4.4 C 0 km/h
2467 22-11-2010 20:46:01 4.4 C 4.77 g/m*3 4.4 C 0 km/h
2468 22-11-2010 20:58:01 4.5 C 4.8 g/m*3 4.5 C 0 km/h
2469 22-11-2010 21:10:02 4.4 C 4.77 g/m*3 4.4 C 0 km/h
2470 22-11-2010 21:22:01 4.4 C 4.83 g/m*3 4.4 C 0 km/h
2471 22-11-2010 21:34:02 4.4 C 4.83 g/m*3 4.4 C 0 km/h
2472 22-11-2010 21:46:01 4.4 C 4.83 g/m*3 4.4 C 0 km/h
2473 22-11-2010 21:58:01 4.4 C 4.83 g/m*3 4.4 C 0 km/h
2474 22-11-2010 22:10:02 4.5 C 4.86 g/m*3 4.5 C 0 km/h
2475 22-11-2010 22:22:02 4.5 C 4.86 g/m*3 4.5 C 0 km/h
Sensor: Nr:Datum:Temp:Abs-Feuchte:Windchill:Wind:
Aussen-T/F 2476 22-11-2010 22:34:01 4.5 C 4.93 g/m*3 4.5 C 0 km/h
2477 22-11-2010 22:47:03 4.5 C 4.86 g/m*3 4.5 C 0 km/h
2478 22-11-2010 22:59:03 4.5 C 4.93 g/m*3 4.5 C 0 km/h
2479 22-11-2010 23:11:03 4.4 C 4.9 g/m*3 4.4 C 0 km/h
2480 22-11-2010 23:23:03 4.5 C 4.93 g/m*3 4.5 C 0 km/h
2481 22-11-2010 23:35:03 4.4 C 4.96 g/m*3 4.4 C 0 km/h
2482 22-11-2010 23:47:04 4.3 C 4.93 g/m*3 4.3 C 0 km/h
2483 22-11-2010 23:59:04 4.4 C 4.96 g/m*3 4.4 C 0 km/h
2484 23-11-2010 00:11:04 4.4 C 4.96 g/m*3 4.4 C 0 km/h
2485 23-11-2010 00:23:04 4.4 C 4.96 g/m*3 4.4 C 0 km/h
2486 23-11-2010 00:35:04 4.5 C 4.93 g/m*3 4.5 C 0 km/h
2487 23-11-2010 00:47:04 4.5 C 4.93 g/m*3 4.5 C 0 km/h
2488 23-11-2010 00:59:04 4.4 C 4.9 g/m*3 4.4 C 0 km/h
2489 23-11-2010 01:11:04 4.5 C 4.93 g/m*3 4.5 C 0 km/h
2490 23-11-2010 01:23:04 4.5 C 4.86 g/m*3 4.5 C 0 km/h
2491 23-11-2010 01:35:04 4.5 C 4.86 g/m*3 4.5 C 0 km/h
2492 23-11-2010 01:47:04 4.4 C 4.83 g/m*3 4.4 C 0 km/h
2493 23-11-2010 01:59:04 4.4 C 4.77 g/m*3 4.4 C 0 km/h
2494 23-11-2010 02:11:04 4.3 C 4.74 g/m*3 4.3 C 0 km/h
2495 23-11-2010 02:23:04 4.3 C 4.8 g/m*3 4.3 C 0 km/h
2496 23-11-2010 02:35:04 4.3 C 4.61 g/m*3 4.3 C 0 km/h
2497 23-11-2010 02:47:04 4.2 C 4.51 g/m*3 4.2 C 0 km/h
2498 23-11-2010 02:59:04 4.2 C 4.45 g/m*3 4.2 C 0 km/h
2499 23-11-2010 03:11:04 4.2 C 4.45 g/m*3 4.2 C 0 km/h
2500 23-11-2010 03:23:04 4.1 C 4.42 g/m*3 4.1 C 0 km/h
Sensor: Nr:Datum:Temp:Abs-Feuchte:Windchill:Wind:
Aussen-T/F 2501 23-11-2010 03:35:04 4.2 C 4.38 g/m*3 4.2 C 0 km/h
2502 23-11-2010 03:47:04 4 C 4.39 g/m*3 4 C 0 km/h
2503 23-11-2010 03:59:04 3.9 C 4.48 g/m*3 3.9 C 0 km/h
2504 23-11-2010 04:11:04 3.8 C 4.39 g/m*3 3.8 C 0 km/h
2505 23-11-2010 04:23:05 3.8 C 4.45 g/m*3 3.8 C 0 km/h
2506 23-11-2010 04:35:05 3.7 C 4.55 g/m*3 3.7 C 0 km/h
2507 23-11-2010 04:47:05 3.6 C 4.58 g/m*3 3.6 C 0 km/h
2508 23-11-2010 04:59:05 3.5 C 4.61 g/m*3 3.5 C 0 km/h
2509 23-11-2010 05:11:05 3.5 C 4.55 g/m*3 3.5 C 0 km/h
2510 23-11-2010 05:23:05 3.5 C 4.61 g/m*3 3.5 C 0 km/h
2511 23-11-2010 05:35:05 3.4 C 4.58 g/m*3 3.4 C 0 km/h
2512 23-11-2010 05:47:05 2.9 C 4.67 g/m*3 2.9 C 0 km/h
2513 23-11-2010 05:59:05 2.7 C 4.84 g/m*3 2.7 C 0 km/h
2514 23-11-2010 06:11:05 2.6 C 4.92 g/m*3 2.6 C 0 km/h
2515 23-11-2010 06:23:05 2.7 C 4.95 g/m*3 2.7 C 0 km/h
2516 23-11-2010 06:35:05 2.6 C 5.03 g/m*3 2.6 C 0 km/h
2517 23-11-2010 06:47:05 2.7 C 5.07 g/m*3 2.7 C 0 km/h
2518 23-11-2010 06:59:05 2.7 C 5.07 g/m*3 2.7 C 0 km/h
2519 23-11-2010 07:11:05 2.6 C 5.09 g/m*3 2.6 C 0 km/h
2520 23-11-2010 07:23:02 2.8 C 5.16 g/m*3 2.8 C 0 km/h
2521 23-11-2010 07:35:03 3.1 C 5.09 g/m*3 3.1 C 0 km/h
2522 23-11-2010 07:47:02 3.2 C 5.06 g/m*3 3.2 C 0 km/h
2523 23-11-2010 07:59:02 3.1 C 4.97 g/m*3 3.1 C 0 km/h
2524 23-11-2010 08:11:02 3.1 C 4.91 g/m*3 3.1 C 0 km/h
2525 23-11-2010 08:23:01 3 C 4.88 g/m*3 3 C 0 km/h
Sensor: Nr:Datum:Temp:Abs-Feuchte:Windchill:Wind:
Aussen-T/F 2526 23-11-2010 08:35:02 3.1 C 4.97 g/m*3 3.1 C 0 km/h
2527 23-11-2010 08:47:02 3.3 C 4.85 g/m*3 3.3 C 0 km/h
2528 23-11-2010 08:59:02 3.4 C 4.83 g/m*3 3.4 C 0 km/h
2529 23-11-2010 09:11:03 3.6 C 4.77 g/m*3 3.6 C 0 km/h
2530 23-11-2010 09:23:02 3.7 C 4.74 g/m*3 3.7 C 0 km/h
2531 23-11-2010 09:35:02 3.6 C 4.77 g/m*3 3.6 C 0 km/h
2532 23-11-2010 09:47:01 3.7 C 4.8 g/m*3 3.7 C 0 km/h
2533 23-11-2010 09:59:01 3.8 C 4.71 g/m*3 3.8 C 0 km/h
2534 23-11-2010 10:11:02 4 C 4.64 g/m*3 4 C 0 km/h
2535 23-11-2010 10:23:01 4.1 C 4.61 g/m*3 4.1 C 0 km/h
2536 23-11-2010 10:35:01 4.3 C 4.54 g/m*3 4.3 C 0 km/h
2537 23-11-2010 10:47:01 4.4 C 4.57 g/m*3 4.4 C 0 km/h
2538 23-11-2010 10:59:01 4.5 C 4.54 g/m*3 4.5 C 0 km/h
2539 23-11-2010 11:11:02 4.4 C 4.57 g/m*3 4.4 C 0 km/h
2540 23-11-2010 11:23:02 4.7 C 4.73 g/m*3 4.7 C 0 km/h
2541 23-11-2010 11:35:01 4.8 C 4.76 g/m*3 4.8 C 0 km/h
2542 23-11-2010 11:47:01 4.9 C 4.66 g/m*3 4.9 C 0 km/h
2543 23-11-2010 11:59:01 4.8 C 4.56 g/m*3 4.8 C 0 km/h
2544 23-11-2010 12:11:01 5.2 C 4.61 g/m*3 5.2 C 0 km/h
2545 23-11-2010 12:23:01 5.2 C 4.48 g/m*3 5.2 C 0 km/h
2546 23-11-2010 12:35:01 5.1 C 4.38 g/m*3 5.1 C 0 km/h
2547 23-11-2010 12:47:01 5.4 C 4.47 g/m*3 5.4 C 0 km/h
2548 23-11-2010 12:59:01 5.5 C 4.42 g/m*3 5.5 C 0 km/h
2549 23-11-2010 13:11:02 5.8 C 4.44 g/m*3 5.8 C 0 km/h
2550 23-11-2010 13:23:01 6 C 4.43 g/m*3 6 C 0 km/h
Sensor: Nr:Datum:Temp:Abs-Feuchte:Windchill:Wind:
Aussen-T/F 2551 23-11-2010 13:35:02 6.2 C 4.34 g/m*3 6.2 C 0 km/h
2552 23-11-2010 13:47:01 6.1 C 4.31 g/m*3 6.1 C 0 km/h
2553 23-11-2010 13:59:01 6.1 C 4.31 g/m*3 6.1 C 0 km/h
2554 23-11-2010 14:11:02 5.9 C 4.25 g/m*3 5.9 C 0 km/h
2555 23-11-2010 14:23:01 5.8 C 4.23 g/m*3 5.8 C 0 km/h
2556 23-11-2010 14:35:02 5.7 C 4.27 g/m*3 5.7 C 0 km/h
2557 23-11-2010 14:47:01 5.7 C 4.27 g/m*3 5.7 C 0 km/h
2558 23-11-2010 14:59:01 5.6 C 4.24 g/m*3 5.6 C 0 km/h
2559 23-11-2010 15:11:02 5.7 C 4.2 g/m*3 5.7 C 0 km/h
2560 23-11-2010 15:23:02 5.6 C 4.17 g/m*3 5.6 C 0 km/h
2561 23-11-2010 15:35:01 5.6 C 4.24 g/m*3 5.6 C 0 km/h
2562 23-11-2010 15:47:02 5.5 C 4.28 g/m*3 5.5 C 0 km/h
2563 23-11-2010 15:59:02 5.3 C 4.37 g/m*3 5.3 C 0 km/h
2564 23-11-2010 16:11:01 5.3 C 4.44 g/m*3 5.3 C 0 km/h
2565 23-11-2010 16:23:02 5.4 C 4.47 g/m*3 5.4 C 0 km/h
2566 23-11-2010 16:35:01 5.4 C 4.47 g/m*3 5.4 C 0 km/h
2567 23-11-2010 16:47:03 5.5 C 4.49 g/m*3 5.5 C 0 km/h
2568 23-11-2010 16:59:03 5.3 C 4.51 g/m*3 5.3 C 0 km/h
2569 23-11-2010 17:11:02 5.3 C 4.51 g/m*3 5.3 C 0 km/h
2570 23-11-2010 17:23:02 5.3 C 4.51 g/m*3 5.3 C 0 km/h
2571 23-11-2010 17:35:02 5.3 C 4.44 g/m*3 5.3 C 0 km/h
2572 23-11-2010 17:47:02 5.4 C 4.4 g/m*3 5.4 C 0 km/h
2573 23-11-2010 17:59:03 5.3 C 4.44 g/m*3 5.3 C 0 km/h
2574 23-11-2010 18:11:01 5.2 C 4.48 g/m*3 5.2 C 0 km/h
2575 23-11-2010 18:23:02 5.4 C 4.47 g/m*3 5.4 C 0 km/h
Sensor: Nr:Datum:Temp:Abs-Feuchte:Windchill:Wind:
Aussen-T/F 2576 23-11-2010 18:35:02 5.2 C 4.41 g/m*3 5.2 C 0 km/h
2577 23-11-2010 18:47:02 5.4 C 4.33 g/m*3 5.4 C 0 km/h
2578 23-11-2010 18:59:02 5.2 C 4.41 g/m*3 5.2 C 0 km/h
2579 23-11-2010 19:11:03 5.2 C 4.48 g/m*3 5.2 C 0 km/h
2580 23-11-2010 19:23:02 5.3 C 4.51 g/m*3 5.3 C 0 km/h
2581 23-11-2010 19:35:02 5.2 C 4.48 g/m*3 5.2 C 0 km/h
2582 23-11-2010 19:47:01 5.1 C 4.51 g/m*3 5.1 C 0 km/h
2583 23-11-2010 19:59:01 5.2 C 4.54 g/m*3 5.2 C 0 km/h
2584 23-11-2010 20:11:02 5 C 4.48 g/m*3 5 C 0 km/h
2585 23-11-2010 20:23:01 5.2 C 4.48 g/m*3 5.2 C 0 km/h
2586 23-11-2010 20:35:02 5.2 C 4.41 g/m*3 5.2 C 0 km/h
2587 23-11-2010 20:47:01 5.2 C 4.34 g/m*3 5.2 C 0 km/h
2588 23-11-2010 20:59:01 5.1 C 4.58 g/m*3 5.1 C 0 km/h
2589 23-11-2010 21:11:02 4.8 C 4.49 g/m*3 4.8 C 0 km/h
2590 23-11-2010 21:23:01 5.1 C 4.31 g/m*3 5.1 C 0 km/h
2591 23-11-2010 21:35:02 5 C 4.28 g/m*3 5 C 0 km/h
2592 23-11-2010 21:47:01 5 C 4.28 g/m*3 5 C 0 km/h
2593 23-11-2010 21:59:01 5 C 4.28 g/m*3 5 C 0 km/h
2594 23-11-2010 22:12:03 5 C 4.28 g/m*3 5 C 0 km/h
2595 23-11-2010 22:24:03 5 C 4.28 g/m*3 5 C 0 km/h
2596 23-11-2010 22:36:03 4.9 C 4.39 g/m*3 4.9 C 0 km/h
2597 23-11-2010 22:48:03 4.9 C 4.39 g/m*3 4.9 C 0 km/h
2598 23-11-2010 23:00:03 4.8 C 4.36 g/m*3 4.8 C 0 km/h
2599 23-11-2010 23:12:03 4.8 C 4.36 g/m*3 4.8 C 0 km/h
2600 23-11-2010 23:24:03 4.6 C 4.37 g/m*3 4.6 C 0 km/h
Sensor: Nr:Datum:Temp:Abs-Feuchte:Windchill:Wind:
Aussen-T/F 2601 23-11-2010 23:36:03 4.6 C 4.43 g/m*3 4.6 C 0 km/h
2602 23-11-2010 23:48:03 4.4 C 4.44 g/m*3 4.4 C 0 km/h
2603 24-11-2010 00:00:03 4.2 C 4.45 g/m*3 4.2 C 0 km/h
2604 24-11-2010 00:12:03 4.4 C 4.51 g/m*3 4.4 C 0 km/h
2605 24-11-2010 00:24:03 4.4 C 4.44 g/m*3 4.4 C 0 km/h
2606 24-11-2010 00:36:03 4.3 C 4.41 g/m*3 4.3 C 0 km/h
2607 24-11-2010 00:48:04 4.3 C 4.41 g/m*3 4.3 C 0 km/h
2608 24-11-2010 01:00:04 4.3 C 4.41 g/m*3 4.3 C 0 km/h
2609 24-11-2010 01:12:04 4.3 C 4.41 g/m*3 4.3 C 0 km/h
2610 24-11-2010 01:24:04 3.6 C 4.39 g/m*3 3.6 C 0 km/h
2611 24-11-2010 01:36:04 3.6 C 4.52 g/m*3 3.6 C 0 km/h
2612 24-11-2010 01:48:04 4 C 4.58 g/m*3 4 C 0 km/h
2613 24-11-2010 02:00:04 3.5 C 4.49 g/m*3 3.5 C 0 km/h
2614 24-11-2010 02:12:04 3.4 C 4.52 g/m*3 3.4 C 0 km/h
2615 24-11-2010 02:24:04 3.5 C 4.55 g/m*3 3.5 C 0 km/h
2616 24-11-2010 02:36:04 3.3 C 4.43 g/m*3 3.3 C 0 km/h
2617 24-11-2010 02:48:04 3.4 C 4.52 g/m*3 3.4 C 0 km/h
2618 24-11-2010 03:00:04 3.5 C 4.49 g/m*3 3.5 C 0 km/h
2619 24-11-2010 03:12:04 3.5 C 4.61 g/m*3 3.5 C 0 km/h
2620 24-11-2010 03:24:04 3.5 C 4.61 g/m*3 3.5 C 0 km/h
2621 24-11-2010 03:36:04 3.5 C 4.67 g/m*3 3.5 C 0 km/h
2622 24-11-2010 03:48:04 3.6 C 4.7 g/m*3 3.6 C 0 km/h
2623 24-11-2010 04:00:04 3.6 C 4.7 g/m*3 3.6 C 0 km/h
2624 24-11-2010 04:12:04 3.5 C 4.67 g/m*3 3.5 C 0 km/h
2625 24-11-2010 04:24:04 3.5 C 4.73 g/m*3 3.5 C 0 km/h
Sensor: Nr:Datum:Temp:Abs-Feuchte:Windchill:Wind:
Aussen-T/F 2626 24-11-2010 04:36:04 3.4 C 4.7 g/m*3 3.4 C 0 km/h
2627 24-11-2010 04:48:05 3.3 C 4.79 g/m*3 3.3 C 0 km/h
2628 24-11-2010 05:00:05 3.1 C 4.85 g/m*3 3.1 C 0 km/h
2629 24-11-2010 05:12:05 2.9 C 4.96 g/m*3 2.9 C 0 km/h
2630 24-11-2010 05:24:05 2.9 C 5.02 g/m*3 2.9 C 0 km/h
2631 24-11-2010 05:36:05 2.8 C 5.04 g/m*3 2.8 C 0 km/h
2632 24-11-2010 05:48:05 2.9 C 5.14 g/m*3 2.9 C 0 km/h
2633 24-11-2010 06:00:05 3 C 5.11 g/m*3 3 C 0 km/h
2634 24-11-2010 06:12:05 3.2 C 5.12 g/m*3 3.2 C 0 km/h
2635 24-11-2010 06:24:05 3.2 C 5.06 g/m*3 3.2 C 0 km/h
2636 24-11-2010 06:36:05 3.3 C 5.04 g/m*3 3.3 C 0 km/h
2637 24-11-2010 06:48:05 3.3 C 5.04 g/m*3 3.3 C 0 km/h
2638 24-11-2010 07:00:05 3.4 C 5.01 g/m*3 3.4 C 0 km/h
2639 24-11-2010 07:12:02 3.4 C 5.01 g/m*3 3.4 C 0 km/h
2640 24-11-2010 07:24:03 3.3 C 5.04 g/m*3 3.3 C 0 km/h
2641 24-11-2010 07:36:03 3.2 C 5 g/m*3 3.2 C 0 km/h
2642 24-11-2010 07:48:01 3.4 C 5.01 g/m*3 3.4 C 0 km/h
2643 24-11-2010 08:00:01 3.5 C 5.04 g/m*3 3.5 C 0 km/h
2644 24-11-2010 08:12:01 3.4 C 4.95 g/m*3 3.4 C 0 km/h
2645 24-11-2010 08:24:01 3.3 C 5.04 g/m*3 3.3 C 0 km/h
2646 24-11-2010 08:36:02 3.3 C 5.1 g/m*3 3.3 C 0 km/h
2647 24-11-2010 08:48:02 3.6 C 5.26 g/m*3 3.6 C 0 km/h
2648 24-11-2010 09:00:02 3.6 C 5.14 g/m*3 3.6 C 0 km/h
2649 24-11-2010 09:12:02 4.1 C 5.06 g/m*3 4.1 C 0 km/h
2650 24-11-2010 09:24:01 4.3 C 4.93 g/m*3 4.3 C 0 km/h
Sensor: Nr:Datum:Temp:Abs-Feuchte:Windchill:Wind:
Aussen-T/F 2651 24-11-2010 09:36:02 4.5 C 4.93 g/m*3 4.5 C 0 km/h
2652 24-11-2010 09:48:02 4.6 C 4.9 g/m*3 4.6 C 0 km/h
2653 24-11-2010 10:00:02 4.8 C 4.83 g/m*3 4.8 C 0 km/h
2654 24-11-2010 10:12:02 5.1 C 4.72 g/m*3 5.1 C 0 km/h
2655 24-11-2010 10:24:02 5.2 C 4.68 g/m*3 5.2 C 0 km/h
2656 24-11-2010 10:36:01 5.4 C 4.67 g/m*3 5.4 C 0 km/h
2657 24-11-2010 10:48:02 5.6 C 4.6 g/m*3 5.6 C 0 km/h
2658 24-11-2010 11:00:02 5.7 C 4.63 g/m*3 5.7 C 0 km/h
2659 24-11-2010 11:12:01 4.9 C 4.73 g/m*3 4.9 C 0 km/h
2660 24-11-2010 11:24:01 4.9 C 4.86 g/m*3 4.9 C 0 km/h
2661 24-11-2010 11:36:02 5 C 4.89 g/m*3 5 C 0 km/h
2662 24-11-2010 11:48:02 5.6 C 4.81 g/m*3 5.6 C 0 km/h
2663 24-11-2010 12:00:02 5.6 C 4.6 g/m*3 5.6 C 0 km/h
2664 24-11-2010 12:12:01 5.8 C 4.58 g/m*3 5.8 C 0 km/h
2665 24-11-2010 12:24:02 6.1 C 4.53 g/m*3 6.1 C 0 km/h
2666 24-11-2010 12:36:02 5.9 C 4.61 g/m*3 5.9 C 0 km/h
2667 24-11-2010 12:48:01 5.6 C 4.52 g/m*3 5.6 C 0 km/h
2668 24-11-2010 13:00:01 5.6 C 4.6 g/m*3 5.6 C 0 km/h
2669 24-11-2010 13:12:02 5.6 C 4.67 g/m*3 5.6 C 0 km/h
2670 24-11-2010 13:24:01 5.4 C 4.54 g/m*3 5.4 C 0 km/h
2671 24-11-2010 13:36:01 5.1 C 4.58 g/m*3 5.1 C 0 km/h
2672 24-11-2010 13:48:01 5.1 C 4.65 g/m*3 5.1 C 0 km/h
2673 24-11-2010 14:00:01 4.9 C 4.73 g/m*3 4.9 C 0 km/h
2674 24-11-2010 14:12:02 4.7 C 5 g/m*3 4.7 C 0 km/h
2675 24-11-2010 14:24:01 4.5 C 5.19 g/m*3 4.5 C 0 km/h
Sensor: Nr:Datum:Temp:Abs-Feuchte:Windchill:Wind:
Aussen-T/F 2676 24-11-2010 14:36:01 4.3 C 5.25 g/m*3 4.3 C 0 km/h
2677 24-11-2010 14:48:01 4 C 5.21 g/m*3 4 C 0 km/h
2678 24-11-2010 15:00:01 3.5 C 5.04 g/m*3 3.5 C 0 km/h
2679 24-11-2010 15:12:02 3.4 C 5.13 g/m*3 3.4 C 0 km/h
2680 24-11-2010 15:24:02 3.5 C 5.29 g/m*3 3.5 C 0 km/h
2681 24-11-2010 15:36:01 3.5 C 5.35 g/m*3 3.5 C 0 km/h
2682 24-11-2010 15:48:02 3.5 C 5.41 g/m*3 3.5 C 0 km/h
2683 24-11-2010 16:00:02 3.5 C 5.41 g/m*3 3.5 C 0 km/h
2684 24-11-2010 16:12:01 3.5 C 5.35 g/m*3 3.5 C 0 km/h
2685 24-11-2010 16:24:02 3.3 C 5.16 g/m*3 3.3 C 0 km/h
2686 24-11-2010 16:36:01 3.1 C 5.09 g/m*3 3.1 C 0 km/h
2687 24-11-2010 16:48:02 3.1 C 5.09 g/m*3 3.1 C 0 km/h
2688 24-11-2010 17:00:02 3 C 5.05 g/m*3 3 C 0 km/h
2689 24-11-2010 17:12:02 3 C 5.05 g/m*3 3 C 0 km/h
2690 24-11-2010 17:24:02 2.4 C 4.91 g/m*3 2.4 C 0 km/h
2691 24-11-2010 17:36:02 1.6 C 4.7 g/m*3 1.6 C 0 km/h
2692 24-11-2010 17:48:02 1.4 C 4.69 g/m*3 1.4 C 0 km/h
2693 24-11-2010 18:00:02 1.4 C 4.75 g/m*3 1.4 C 0 km/h
2694 24-11-2010 18:12:01 1.5 C 4.83 g/m*3 1.5 C 0 km/h
2695 24-11-2010 18:24:01 1.6 C 4.92 g/m*3 1.6 C 0 km/h
2696 24-11-2010 18:36:02 1.7 C 4.95 g/m*3 1.7 C 0 km/h
2697 24-11-2010 18:48:02 2 C 5.06 g/m*3 2 C 0 km/h
2698 24-11-2010 19:00:02 2 C 5.06 g/m*3 2 C 0 km/h
2699 24-11-2010 19:12:02 2.2 C 5.13 g/m*3 2.2 C 0 km/h
2700 24-11-2010 19:24:02 2.1 C 5.09 g/m*3 2.1 C 0 km/h
Sensor: Nr:Datum:Temp:Abs-Feuchte:Windchill:Wind:
Aussen-T/F 2701 24-11-2010 19:36:02 1.9 C 5.08 g/m*3 1.9 C 0 km/h
2702 24-11-2010 19:48:02 1.9 C 5.08 g/m*3 1.9 C 0 km/h
2703 24-11-2010 20:00:02 1.5 C 4.94 g/m*3 1.5 C 0 km/h
2704 24-11-2010 20:12:02 1.3 C 4.87 g/m*3 1.3 C 0 km/h
2705 24-11-2010 20:24:02 1.4 C 4.91 g/m*3 1.4 C 0 km/h
2706 24-11-2010 20:36:02 1.3 C 4.87 g/m*3 1.3 C 0 km/h
2707 24-11-2010 20:48:02 1.6 C 4.97 g/m*3 1.6 C 0 km/h
2708 24-11-2010 21:00:02 1.9 C 5.08 g/m*3 1.9 C 0 km/h
2709 24-11-2010 21:12:02 1.3 C 4.87 g/m*3 1.3 C 0 km/h
2710 24-11-2010 21:24:02 1 C 4.78 g/m*3 1 C 0 km/h
2711 24-11-2010 21:36:03 1.2 C 4.84 g/m*3 1.2 C 0 km/h
2712 24-11-2010 21:49:04 1.7 C 5.01 g/m*3 1.7 C 0 km/h
2713 24-11-2010 22:01:04 2 C 5.11 g/m*3 2 C 0 km/h
2714 24-11-2010 22:13:04 2.2 C 5.18 g/m*3 2.2 C 0 km/h
2715 24-11-2010 22:25:04 2.3 C 5.22 g/m*3 2.3 C 0 km/h
2716 24-11-2010 22:37:05 2.1 C 5.09 g/m*3 2.1 C 0 km/h
2717 24-11-2010 22:49:05 2.1 C 5.04 g/m*3 2.1 C 0 km/h
2718 24-11-2010 23:01:05 2.1 C 5.04 g/m*3 2.1 C 0 km/h
2719 24-11-2010 23:13:05 2.1 C 4.98 g/m*3 2.1 C 0 km/h
2720 24-11-2010 23:25:05 2.6 C 5.15 g/m*3 2.6 C 0 km/h
2721 24-11-2010 23:37:05 2.6 C 5.09 g/m*3 2.6 C 0 km/h
2722 24-11-2010 23:49:05 2.6 C 5.03 g/m*3 2.6 C 0 km/h
2723 25-11-2010 00:01:05 2.4 C 4.91 g/m*3 2.4 C 0 km/h
2724 25-11-2010 00:13:05 2.6 C 4.98 g/m*3 2.6 C 0 km/h
2725 25-11-2010 00:25:05 2.4 C 4.91 g/m*3 2.4 C 0 km/h
Sensor: Nr:Datum:Temp:Abs-Feuchte:Windchill:Wind:
Aussen-T/F 2726 25-11-2010 00:37:05 2.5 C 4.94 g/m*3 2.5 C 0 km/h
2727 25-11-2010 00:49:05 2.6 C 4.92 g/m*3 2.6 C 0 km/h
2728 25-11-2010 01:01:05 2.6 C 4.92 g/m*3 2.6 C 0 km/h
2729 25-11-2010 01:13:05 3.1 C 4.97 g/m*3 3.1 C 0 km/h
2730 25-11-2010 01:25:05 3 C 4.76 g/m*3 3 C 0 km/h
2731 25-11-2010 01:37:05 2.9 C 4.78 g/m*3 2.9 C 0 km/h
2732 25-11-2010 01:49:05 3.1 C 4.67 g/m*3 3.1 C 0 km/h
2733 25-11-2010 02:01:05 3 C 4.52 g/m*3 3 C 0 km/h
2734 25-11-2010 02:13:05 2.9 C 4.55 g/m*3 2.9 C 0 km/h
2735 25-11-2010 02:25:05 2.7 C 4.54 g/m*3 2.7 C 0 km/h
2736 25-11-2010 02:37:05 2.6 C 4.57 g/m*3 2.6 C 0 km/h
2737 25-11-2010 02:49:06 2.6 C 4.57 g/m*3 2.6 C 0 km/h
2738 25-11-2010 03:01:06 2.5 C 4.6 g/m*3 2.5 C 0 km/h
2739 25-11-2010 03:13:06 3 C 4.52 g/m*3 3 C 0 km/h
2740 25-11-2010 03:25:06 3.1 C 4.37 g/m*3 3.1 C 0 km/h
2741 25-11-2010 03:37:06 2.9 C 4.31 g/m*3 2.9 C 0 km/h
2742 25-11-2010 03:49:06 2.6 C 4.34 g/m*3 2.6 C 0 km/h
2743 25-11-2010 04:01:06 2.5 C 4.31 g/m*3 2.5 C 0 km/h
2744 25-11-2010 04:13:06 2 C 4.17 g/m*3 2 C 0 km/h
2745 25-11-2010 04:25:06 1.9 C 4.19 g/m*3 1.9 C 0 km/h
2746 25-11-2010 04:37:06 1.7 C 4.14 g/m*3 1.7 C 0 km/h
2747 25-11-2010 04:49:06 2 C 4.17 g/m*3 2 C 0 km/h
2748 25-11-2010 05:01:06 1.5 C 4.03 g/m*3 1.5 C 0 km/h
2749 25-11-2010 05:13:06 1.4 C 4.11 g/m*3 1.4 C 0 km/h
2750 25-11-2010 05:25:06 1.7 C 4.19 g/m*3 1.7 C 0 km/h
Sensor: Nr:Datum:Temp:Abs-Feuchte:Windchill:Wind:
Aussen-T/F 2751 25-11-2010 05:37:06 0.9 C 4.02 g/m*3 0.9 C 0 km/h
2752 25-11-2010 05:49:06 1 C 4.05 g/m*3 1 C 0 km/h
2753 25-11-2010 06:01:06 0.9 C 4.02 g/m*3 0.9 C 0 km/h
2754 25-11-2010 06:13:06 1.4 C 4.21 g/m*3 1.4 C 0 km/h
2755 25-11-2010 06:25:06 0.7 C 4.12 g/m*3 0.7 C 0 km/h
2756 25-11-2010 06:37:06 0.1 C 4.05 g/m*3 0.1 C 0 km/h
2757 25-11-2010 06:49:06 0.2 C 4.18 g/m*3 0.2 C 0 km/h
2758 25-11-2010 07:01:07 0.3 C 4.25 g/m*3 0.3 C 0 km/h
2759 25-11-2010 07:13:07 0.3 C 4.3 g/m*3 0.3 C 0 km/h
2760 25-11-2010 07:25:04 0.2 C 4.27 g/m*3 0.2 C 0 km/h
2761 25-11-2010 07:37:04 -0.2 C 4.21 g/m*3 -0.2 C 0 km/h
2762 25-11-2010 07:49:02 -0.3 C 4.18 g/m*3 -0.3 C 0 km/h
2763 25-11-2010 08:01:01 -0.4 C 4.15 g/m*3 -0.4 C 0 km/h
2764 25-11-2010 08:13:01 -0.2 C 4.25 g/m*3 -0.2 C 0 km/h
2765 25-11-2010 08:25:02 -0.4 C 4.19 g/m*3 -0.4 C 0 km/h
2766 25-11-2010 08:37:02 -0.4 C 4.19 g/m*3 -0.4 C 0 km/h
2767 25-11-2010 08:49:02 0 C 4.36 g/m*3 0 C 0 km/h
2768 25-11-2010 09:01:02 0.4 C 4.48 g/m*3 0.4 C 0 km/h
2769 25-11-2010 09:13:02 0.5 C 4.46 g/m*3 0.5 C 0 km/h
2770 25-11-2010 09:25:01 0.7 C 4.47 g/m*3 0.7 C 0 km/h
2771 25-11-2010 09:37:01 0.7 C 4.42 g/m*3 0.7 C 0 km/h
2772 25-11-2010 09:49:03 0.6 C 4.39 g/m*3 0.6 C 0 km/h
2773 25-11-2010 10:01:02 0.4 C 4.28 g/m*3 0.4 C 0 km/h
2774 25-11-2010 10:13:02 0.6 C 4.39 g/m*3 0.6 C 0 km/h
2775 25-11-2010 10:25:02 0.9 C 4.48 g/m*3 0.9 C 0 km/h
Sensor: Nr:Datum:Temp:Abs-Feuchte:Windchill:Wind:
Aussen-T/F 2776 25-11-2010 10:37:02 1 C 4.46 g/m*3 1 C 0 km/h
2777 25-11-2010 10:49:02 1.1 C 4.49 g/m*3 1.1 C 0 km/h
2778 25-11-2010 11:01:01 1.2 C 4.47 g/m*3 1.2 C 0 km/h
2779 25-11-2010 11:13:01 1.4 C 4.53 g/m*3 1.4 C 0 km/h
2780 25-11-2010 11:25:02 1.9 C 4.58 g/m*3 1.9 C 0 km/h
2781 25-11-2010 11:37:02 2.2 C 4.56 g/m*3 2.2 C 0 km/h
2782 25-11-2010 11:49:02 2.1 C 4.48 g/m*3 2.1 C 0 km/h
2783 25-11-2010 12:01:02 1.7 C 4.41 g/m*3 1.7 C 0 km/h
2784 25-11-2010 12:13:02 1.5 C 4.4 g/m*3 1.5 C 0 km/h
2785 25-11-2010 12:25:02 1.4 C 4.43 g/m*3 1.4 C 0 km/h
2786 25-11-2010 12:37:02 2.4 C 4.74 g/m*3 2.4 C 0 km/h
2787 25-11-2010 12:49:01 3 C 4.58 g/m*3 3 C 0 km/h
2788 25-11-2010 13:01:02 3.3 C 4.43 g/m*3 3.3 C 0 km/h
2789 25-11-2010 13:13:03 3.4 C 4.28 g/m*3 3.4 C 0 km/h
2790 25-11-2010 13:25:01 3.6 C 4.15 g/m*3 3.6 C 0 km/h
2791 25-11-2010 13:37:01 3.5 C 4.12 g/m*3 3.5 C 0 km/h
2792 25-11-2010 13:49:01 3.6 C 4.15 g/m*3 3.6 C 0 km/h
2793 25-11-2010 14:01:01 3.6 C 4.09 g/m*3 3.6 C 0 km/h
2794 25-11-2010 14:13:01 3.7 C 4.11 g/m*3 3.7 C 0 km/h
2795 25-11-2010 14:25:02 3.7 C 4.05 g/m*3 3.7 C 0 km/h
2796 25-11-2010 14:37:01 3.6 C 4.09 g/m*3 3.6 C 0 km/h
2797 25-11-2010 14:49:02 3.7 C 3.8 g/m*3 3.7 C 0 km/h
2798 25-11-2010 15:01:01 3.8 C 3.89 g/m*3 3.8 C 0 km/h
2799 25-11-2010 15:13:01 3.8 C 3.89 g/m*3 3.8 C 0 km/h
2800 25-11-2010 15:25:01 3.5 C 3.75 g/m*3 3.5 C 0 km/h
Sensor: Nr:Datum:Temp:Abs-Feuchte:Windchill:Wind:
Aussen-T/F 2801 25-11-2010 15:37:01 2.9 C 4.07 g/m*3 2.9 C 0 km/h
2802 25-11-2010 15:49:02 2.4 C 4.17 g/m*3 2.4 C 0 km/h
2803 25-11-2010 16:01:02 2.2 C 4.17 g/m*3 2.2 C 0 km/h
2804 25-11-2010 16:13:02 2 C 4.17 g/m*3 2 C 0 km/h
2805 25-11-2010 16:25:02 1.8 C 4.22 g/m*3 1.8 C 0 km/h
2806 25-11-2010 16:37:02 2.1 C 4.25 g/m*3 2.1 C 0 km/h
2807 25-11-2010 16:49:02 2.1 C 4.25 g/m*3 2.1 C 0 km/h
2808 25-11-2010 17:01:02 2.1 C 4.25 g/m*3 2.1 C 0 km/h
2809 25-11-2010 17:13:02 2.1 C 4.36 g/m*3 2.1 C 0 km/h
2810 25-11-2010 17:25:01 2 C 4.39 g/m*3 2 C 0 km/h
2811 25-11-2010 17:37:02 2 C 4.33 g/m*3 2 C 0 km/h
2812 25-11-2010 17:49:02 2 C 4.39 g/m*3 2 C 0 km/h
2813 25-11-2010 18:01:02 2 C 4.39 g/m*3 2 C 0 km/h
2814 25-11-2010 18:13:02 1.8 C 4.39 g/m*3 1.8 C 0 km/h
2815 25-11-2010 18:25:02 1.9 C 4.53 g/m*3 1.9 C 0 km/h
2816 25-11-2010 18:37:02 1.8 C 4.49 g/m*3 1.8 C 0 km/h
2817 25-11-2010 18:49:02 1.2 C 4.31 g/m*3 1.2 C 0 km/h
2818 25-11-2010 19:01:02 0.9 C 4.28 g/m*3 0.9 C 0 km/h
2819 25-11-2010 19:13:02 0.8 C 4.3 g/m*3 0.8 C 0 km/h
2820 25-11-2010 19:25:01 0.9 C 4.38 g/m*3 0.9 C 0 km/h
2821 25-11-2010 19:37:02 1.1 C 4.49 g/m*3 1.1 C 0 km/h
2822 25-11-2010 19:49:01 1.2 C 4.47 g/m*3 1.2 C 0 km/h
2823 25-11-2010 20:01:02 0.8 C 4.4 g/m*3 0.8 C 0 km/h
2824 25-11-2010 20:13:03 0.8 C 4.4 g/m*3 0.8 C 0 km/h
2825 25-11-2010 20:25:01 0.7 C 4.42 g/m*3 0.7 C 0 km/h
Sensor: Nr:Datum:Temp:Abs-Feuchte:Windchill:Wind:
Aussen-T/F 2826 25-11-2010 20:37:02 0.5 C 4.36 g/m*3 0.5 C 0 km/h
2827 25-11-2010 20:50:04 0.7 C 4.42 g/m*3 0.7 C 0 km/h
2828 25-11-2010 21:02:04 0.9 C 4.48 g/m*3 0.9 C 0 km/h
2829 25-11-2010 21:14:04 1.2 C 4.53 g/m*3 1.2 C 0 km/h
2830 25-11-2010 21:26:04 1.4 C 4.53 g/m*3 1.4 C 0 km/h
2831 25-11-2010 21:38:04 1.4 C 4.48 g/m*3 1.4 C 0 km/h
2832 25-11-2010 21:50:04 1.3 C 4.45 g/m*3 1.3 C 0 km/h
2833 25-11-2010 22:02:04 1.4 C 4.48 g/m*3 1.4 C 0 km/h
2834 25-11-2010 22:14:04 1.3 C 4.45 g/m*3 1.3 C 0 km/h
2835 25-11-2010 22:26:04 1.3 C 4.5 g/m*3 1.3 C 0 km/h
2836 25-11-2010 22:38:05 1.3 C 4.5 g/m*3 1.3 C 0 km/h
2837 25-11-2010 22:50:05 1.4 C 4.53 g/m*3 1.4 C 0 km/h
2838 25-11-2010 23:02:05 1.2 C 4.47 g/m*3 1.2 C 0 km/h
2839 25-11-2010 23:14:05 1.3 C 4.5 g/m*3 1.3 C 0 km/h
2840 25-11-2010 23:26:05 1.4 C 4.53 g/m*3 1.4 C 0 km/h
2841 25-11-2010 23:38:05 1.5 C 4.57 g/m*3 1.5 C 0 km/h
2842 25-11-2010 23:50:05 1.4 C 4.53 g/m*3 1.4 C 0 km/h
2843 26-11-2010 00:02:05 1.4 C 4.53 g/m*3 1.4 C 0 km/h
2844 26-11-2010 00:14:05 1.6 C 4.6 g/m*3 1.6 C 0 km/h
2845 26-11-2010 00:26:05 1.6 C 4.6 g/m*3 1.6 C 0 km/h
2846 26-11-2010 00:38:05 1.4 C 4.48 g/m*3 1.4 C 0 km/h
2847 26-11-2010 00:50:05 1 C 4.36 g/m*3 1 C 0 km/h
2848 26-11-2010 01:02:05 0.9 C 4.43 g/m*3 0.9 C 0 km/h
2849 26-11-2010 01:14:05 1.1 C 4.49 g/m*3 1.1 C 0 km/h
2850 26-11-2010 01:26:05 1.1 C 4.55 g/m*3 1.1 C 0 km/h
Sensor: Nr:Datum:Temp:Abs-Feuchte:Windchill:Wind:
Aussen-T/F 2851 26-11-2010 01:38:05 1.2 C 4.53 g/m*3 1.2 C 0 km/h
2852 26-11-2010 01:50:05 1 C 4.46 g/m*3 1 C 0 km/h
2853 26-11-2010 02:02:05 1 C 4.46 g/m*3 1 C 0 km/h
2854 26-11-2010 02:14:05 1.1 C 4.49 g/m*3 1.1 C 0 km/h
2855 26-11-2010 02:26:05 1 C 4.46 g/m*3 1 C 0 km/h
2856 26-11-2010 02:38:05 1.1 C 4.49 g/m*3 1.1 C 0 km/h
2857 26-11-2010 02:50:06 1.1 C 4.44 g/m*3 1.1 C 0 km/h
2858 26-11-2010 03:02:06 1.1 C 4.49 g/m*3 1.1 C 0 km/h
2859 26-11-2010 03:14:06 1.2 C 4.47 g/m*3 1.2 C 0 km/h
2860 26-11-2010 03:26:06 0.6 C 4.29 g/m*3 0.6 C 0 km/h
2861 26-11-2010 03:38:06 0.4 C 4.28 g/m*3 0.4 C 0 km/h
2862 26-11-2010 03:50:06 0.4 C 4.33 g/m*3 0.4 C 0 km/h
2863 26-11-2010 04:02:06 0.4 C 4.38 g/m*3 0.4 C 0 km/h
2864 26-11-2010 04:14:06 0.3 C 4.35 g/m*3 0.3 C 0 km/h
2865 26-11-2010 04:26:06 0.3 C 4.4 g/m*3 0.3 C 0 km/h
2866 26-11-2010 04:38:06 0.3 C 4.4 g/m*3 0.3 C 0 km/h
2867 26-11-2010 04:50:06 0.3 C 4.45 g/m*3 0.3 C 0 km/h
2868 26-11-2010 05:02:06 0.3 C 4.45 g/m*3 0.3 C 0 km/h
2869 26-11-2010 05:14:06 0.1 C 4.39 g/m*3 0.1 C 0 km/h
2870 26-11-2010 05:26:06 0.2 C 4.47 g/m*3 0.2 C 0 km/h
2871 26-11-2010 05:38:06 0.3 C 4.5 g/m*3 0.3 C 0 km/h
2872 26-11-2010 05:50:06 0.4 C 4.53 g/m*3 0.4 C 0 km/h
2873 26-11-2010 06:02:06 0.4 C 4.53 g/m*3 0.4 C 0 km/h
2874 26-11-2010 06:14:06 0.4 C 4.53 g/m*3 0.4 C 0 km/h
2875 26-11-2010 06:26:06 0.2 C 4.47 g/m*3 0.2 C 0 km/h
Sensor: Nr:Datum:Temp:Abs-Feuchte:Windchill:Wind:
Aussen-T/F 2876 26-11-2010 06:38:06 0.1 C 4.44 g/m*3 0.1 C 0 km/h
2877 26-11-2010 06:50:07 0 C 4.46 g/m*3 0 C 0 km/h
2878 26-11-2010 07:02:03 0 C 4.46 g/m*3 0 C 0 km/h
2879 26-11-2010 07:14:03 0 C 4.46 g/m*3 0 C 0 km/h
2880 26-11-2010 07:26:03 0 C 4.46 g/m*3 0 C 0 km/h
2881 26-11-2010 07:38:03 0 C 4.46 g/m*3 0 C 0 km/h
2882 26-11-2010 07:50:01 0 C 4.46 g/m*3 0 C 0 km/h
2883 26-11-2010 08:02:02 0 C 4.46 g/m*3 0 C 0 km/h
2884 26-11-2010 08:14:02 0 C 4.46 g/m*3 0 C 0 km/h
2885 26-11-2010 08:26:01 0 C 4.46 g/m*3 0 C 0 km/h
2886 26-11-2010 08:38:01 0.1 C 4.54 g/m*3 0.1 C 0 km/h
2887 26-11-2010 08:50:01 0.1 C 4.54 g/m*3 0.1 C 0 km/h
2888 26-11-2010 09:02:01 0.1 C 4.54 g/m*3 0.1 C 0 km/h
2889 26-11-2010 09:14:01 0.1 C 4.54 g/m*3 0.1 C 0 km/h
2890 26-11-2010 09:26:01 0.1 C 4.54 g/m*3 0.1 C 0 km/h
2891 26-11-2010 09:38:02 0.2 C 4.57 g/m*3 0.2 C 0 km/h
2892 26-11-2010 09:50:02 0.2 C 4.57 g/m*3 0.2 C 0 km/h
2893 26-11-2010 10:02:01 0.4 C 4.63 g/m*3 0.4 C 0 km/h
2894 26-11-2010 10:14:01 0.4 C 4.63 g/m*3 0.4 C 0 km/h
2895 26-11-2010 10:26:02 0.5 C 4.61 g/m*3 0.5 C 0 km/h
2896 26-11-2010 10:38:02 0.7 C 4.68 g/m*3 0.7 C 0 km/h
2897 26-11-2010 10:50:01 0.9 C 4.74 g/m*3 0.9 C 0 km/h
2898 26-11-2010 11:02:02 1 C 4.67 g/m*3 1 C 0 km/h
2899 26-11-2010 11:14:02 1 C 4.62 g/m*3 1 C 0 km/h
2900 26-11-2010 11:26:01 1.2 C 4.63 g/m*3 1.2 C 0 km/h
Sensor: Nr:Datum:Temp:Abs-Feuchte:Windchill:Wind:
Aussen-T/F 2901 26-11-2010 11:38:01 1.2 C 4.58 g/m*3 1.2 C 0 km/h
2902 26-11-2010 11:50:01 1.2 C 4.53 g/m*3 1.2 C 0 km/h
2903 26-11-2010 12:02:02 1.1 C 4.49 g/m*3 1.1 C 0 km/h
2904 26-11-2010 12:14:02 1.1 C 4.49 g/m*3 1.1 C 0 km/h
2905 26-11-2010 12:26:01 0.8 C 4.4 g/m*3 0.8 C 0 km/h
2906 26-11-2010 12:38:02 0.7 C 4.37 g/m*3 0.7 C 0 km/h
2907 26-11-2010 12:50:01 0.5 C 4.31 g/m*3 0.5 C 0 km/h
2908 26-11-2010 13:02:02 0.4 C 4.28 g/m*3 0.4 C 0 km/h
2909 26-11-2010 13:14:02 0.6 C 4.34 g/m*3 0.6 C 0 km/h
2910 26-11-2010 13:26:02 1 C 4.46 g/m*3 1 C 0 km/h
2911 26-11-2010 13:38:01 1.3 C 4.5 g/m*3 1.3 C 0 km/h
2912 26-11-2010 13:50:01 1.2 C 4.26 g/m*3 1.2 C 0 km/h
2913 26-11-2010 14:02:01 1.4 C 4.21 g/m*3 1.4 C 0 km/h
2914 26-11-2010 14:14:01 1.5 C 4.19 g/m*3 1.5 C 0 km/h
2915 26-11-2010 14:26:02 1.5 C 4.14 g/m*3 1.5 C 0 km/h
2916 26-11-2010 14:38:01 1.8 C 4.17 g/m*3 1.8 C 0 km/h
2917 26-11-2010 14:50:03 1.8 C 4.17 g/m*3 1.8 C 0 km/h
2918 26-11-2010 15:02:02 1.4 C 3.79 g/m*3 1.4 C 0 km/h
2919 26-11-2010 15:14:02 1 C 3.74 g/m*3 1 C 0 km/h
2920 26-11-2010 15:26:02 0.9 C 3.81 g/m*3 0.9 C 0 km/h
2921 26-11-2010 15:38:02 0.7 C 3.86 g/m*3 0.7 C 0 km/h
2922 26-11-2010 15:50:02 0 C 3.78 g/m*3 0 C 0 km/h
2923 26-11-2010 16:02:01 -0.8 C 3.71 g/m*3 -0.8 C 0 km/h
2924 26-11-2010 16:14:01 -1.1 C 3.73 g/m*3 -1.1 C 0 km/h
2925 26-11-2010 16:26:02 -1.6 C 3.68 g/m*3 -1.6 C 0 km/h
Sensor: Nr:Datum:Temp:Abs-Feuchte:Windchill:Wind:
Aussen-T/F 2926 26-11-2010 16:38:02 -1.8 C 3.68 g/m*3 -1.8 C 0 km/h
2927 26-11-2010 16:50:02 -2.1 C 3.64 g/m*3 -2.1 C 0 km/h
2928 26-11-2010 17:02:03 -2.2 C 3.66 g/m*3 -2.2 C 0 km/h
2929 26-11-2010 17:14:03 -2.4 C 3.61 g/m*3 -2.4 C 0 km/h
2930 26-11-2010 17:26:02 -2.5 C 3.62 g/m*3 -2.5 C 0 km/h
2931 26-11-2010 17:38:02 -2.5 C 3.62 g/m*3 -2.5 C 0 km/h
2932 26-11-2010 17:50:01 -2.2 C 3.74 g/m*3 -2.2 C 0 km/h
2933 26-11-2010 18:02:02 -1.5 C 3.93 g/m*3 -1.5 C 0 km/h
2934 26-11-2010 18:14:02 -1.3 C 4.03 g/m*3 -1.3 C 0 km/h
2935 26-11-2010 18:26:01 -1.3 C 4.03 g/m*3 -1.3 C 0 km/h
2936 26-11-2010 18:38:01 -1.4 C 4 g/m*3 -1.4 C 0 km/h
2937 26-11-2010 18:50:01 -1.4 C 4 g/m*3 -1.4 C 0 km/h
2938 26-11-2010 19:02:02 -1.4 C 4 g/m*3 -1.4 C 0 km/h
2939 26-11-2010 19:14:02 -1.4 C 4 g/m*3 -1.4 C 0 km/h
2940 26-11-2010 19:26:01 -1.4 C 4 g/m*3 -1.4 C 0 km/h
2941 26-11-2010 19:38:01 -1.6 C 3.94 g/m*3 -1.6 C 0 km/h
2942 26-11-2010 19:50:02 -1.9 C 3.86 g/m*3 -1.9 C 0 km/h
2943 26-11-2010 20:02:02 -1.8 C 3.89 g/m*3 -1.8 C 0 km/h
2944 26-11-2010 20:14:02 -1.9 C 3.86 g/m*3 -1.9 C 0 km/h
2945 26-11-2010 20:26:02 -1.7 C 3.92 g/m*3 -1.7 C 0 km/h
2946 26-11-2010 20:38:02 -1.9 C 3.86 g/m*3 -1.9 C 0 km/h
2947 26-11-2010 20:50:02 -2.5 C 3.7 g/m*3 -2.5 C 0 km/h
2948 26-11-2010 21:02:01 -2.2 C 3.78 g/m*3 -2.2 C 0 km/h
2949 26-11-2010 21:14:01 -2 C 3.84 g/m*3 -2 C 0 km/h
2950 26-11-2010 21:26:02 -2.3 C 3.76 g/m*3 -2.3 C 0 km/h
Sensor: Nr:Datum:Temp:Abs-Feuchte:Windchill:Wind:
Aussen-T/F 2951 26-11-2010 21:38:02 -2.6 C 3.68 g/m*3 -2.6 C 0 km/h
2952 26-11-2010 21:50:02 -2.6 C 3.68 g/m*3 -2.6 C 0 km/h
2953 26-11-2010 22:02:02 -3 C 3.57 g/m*3 -3 C 0 km/h
2954 26-11-2010 22:14:02 -3.3 C 3.46 g/m*3 -3.3 C 0 km/h
2955 26-11-2010 22:26:02 -3.1 C 3.55 g/m*3 -3.1 C 0 km/h
2956 26-11-2010 22:38:02 -3.2 C 3.52 g/m*3 -3.2 C 0 km/h
2957 26-11-2010 22:50:02 -3.6 C 3.39 g/m*3 -3.6 C 0 km/h
2958 26-11-2010 23:03:02 -3.8 C 3.34 g/m*3 -3.8 C 0 km/h
2959 26-11-2010 23:15:02 -3.8 C 3.34 g/m*3 -3.8 C 0 km/h
2960 26-11-2010 23:27:02 -3.9 C 3.32 g/m*3 -3.9 C 0 km/h
2961 26-11-2010 23:39:02 -3.7 C 3.36 g/m*3 -3.7 C 0 km/h
2962 26-11-2010 23:51:02 -3.6 C 3.39 g/m*3 -3.6 C 0 km/h
2963 27-11-2010 00:03:02 -4 C 3.29 g/m*3 -4 C 0 km/h
2964 27-11-2010 00:15:02 -4.1 C 3.27 g/m*3 -4.1 C 0 km/h
2965 27-11-2010 00:27:02 -4.2 C 3.25 g/m*3 -4.2 C 0 km/h
2966 27-11-2010 00:39:02 -4.1 C 3.27 g/m*3 -4.1 C 0 km/h
2967 27-11-2010 00:51:02 -4 C 3.29 g/m*3 -4 C 0 km/h
2968 27-11-2010 01:03:02 -3.1 C 3.51 g/m*3 -3.1 C 0 km/h
2969 27-11-2010 01:15:02 -2.7 C 3.61 g/m*3 -2.7 C 0 km/h
2970 27-11-2010 01:27:02 -3.7 C 3.36 g/m*3 -3.7 C 0 km/h
2971 27-11-2010 01:39:02 -4.3 C 3.19 g/m*3 -4.3 C 0 km/h
2972 27-11-2010 01:51:03 -3.9 C 3.28 g/m*3 -3.9 C 0 km/h
2973 27-11-2010 02:03:03 -3.9 C 3.28 g/m*3 -3.9 C 0 km/h
2974 27-11-2010 02:15:03 -4.1 C 3.2 g/m*3 -4.1 C 0 km/h
2975 27-11-2010 02:27:03 -4.5 C 3.11 g/m*3 -4.5 C 0 km/h
Sensor: Nr:Datum:Temp:Abs-Feuchte:Windchill:Wind:
Aussen-T/F 2976 27-11-2010 02:39:03 -4 C 3.22 g/m*3 -4 C 0 km/h
2977 27-11-2010 02:51:03 -3.2 C 3.45 g/m*3 -3.2 C 0 km/h
2978 27-11-2010 03:03:03 -2.8 C 3.55 g/m*3 -2.8 C 0 km/h
2979 27-11-2010 03:15:03 -2.7 C 3.61 g/m*3 -2.7 C 0 km/h
2980 27-11-2010 03:27:03 -2.9 C 3.52 g/m*3 -2.9 C 0 km/h
2981 27-11-2010 03:39:03 -3.5 C 3.37 g/m*3 -3.5 C 0 km/h
2982 27-11-2010 03:51:03 -3.9 C 3.24 g/m*3 -3.9 C 0 km/h
2983 27-11-2010 04:03:03 -4.1 C 3.2 g/m*3 -4.1 C 0 km/h
2984 27-11-2010 04:15:03 -4 C 3.22 g/m*3 -4 C 0 km/h
2985 27-11-2010 04:27:03 -4.1 C 3.2 g/m*3 -4.1 C 0 km/h
2986 27-11-2010 04:39:03 -4 C 3.22 g/m*3 -4 C 0 km/h
2987 27-11-2010 04:51:03 -4.4 C 3.13 g/m*3 -4.4 C 0 km/h
2988 27-11-2010 05:03:03 -4.5 C 3.11 g/m*3 -4.5 C 0 km/h
2989 27-11-2010 05:15:03 -4.7 C 3.03 g/m*3 -4.7 C 0 km/h
2990 27-11-2010 05:27:03 -4.4 C 3.13 g/m*3 -4.4 C 0 km/h
2991 27-11-2010 05:39:03 -4 C 3.22 g/m*3 -4 C 0 km/h
2992 27-11-2010 05:51:03 -3.8 C 3.27 g/m*3 -3.8 C 0 km/h
2993 27-11-2010 06:03:04 -3.7 C 3.29 g/m*3 -3.7 C 0 km/h
2994 27-11-2010 06:15:04 -3.4 C 3.4 g/m*3 -3.4 C 0 km/h
2995 27-11-2010 06:27:04 -3.4 C 3.4 g/m*3 -3.4 C 0 km/h
2996 27-11-2010 06:39:04 -3.5 C 3.34 g/m*3 -3.5 C 0 km/h
2997 27-11-2010 06:51:04 -3.6 C 3.31 g/m*3 -3.6 C 0 km/h
2998 27-11-2010 07:03:04 -3.8 C 3.27 g/m*3 -3.8 C 0 km/h
2999 27-11-2010 07:15:04 -3.4 C 3.36 g/m*3 -3.4 C 0 km/h
3000 27-11-2010 07:27:04 -3.5 C 3.34 g/m*3 -3.5 C 0 km/h
Sensor: Nr:Datum:Temp:Abs-Feuchte:Windchill:Wind:
Aussen-T/F 3001 27-11-2010 07:39:04 -3.6 C 3.31 g/m*3 -3.6 C 0 km/h
3002 27-11-2010 07:51:04 -3.4 C 3.36 g/m*3 -3.4 C 0 km/h
3003 27-11-2010 08:03:04 -3.5 C 3.34 g/m*3 -3.5 C 0 km/h
3004 27-11-2010 08:15:04 -3.4 C 3.36 g/m*3 -3.4 C 0 km/h
3005 27-11-2010 08:27:04 -2.9 C 3.52 g/m*3 -2.9 C 0 km/h
3006 27-11-2010 08:39:04 -2.6 C 3.6 g/m*3 -2.6 C 0 km/h
3007 27-11-2010 08:51:04 -2.6 C 3.6 g/m*3 -2.6 C 0 km/h
3008 27-11-2010 09:03:04 -2.3 C 3.67 g/m*3 -2.3 C 0 km/h
3009 27-11-2010 09:15:04 -2 C 3.75 g/m*3 -2 C 0 km/h
3010 27-11-2010 09:27:04 -1.9 C 3.78 g/m*3 -1.9 C 0 km/h
3011 27-11-2010 09:39:04 -1.7 C 3.83 g/m*3 -1.7 C 0 km/h
3012 27-11-2010 09:51:04 -1.1 C 4 g/m*3 -1.1 C 0 km/h
3013 27-11-2010 10:03:02 -0.8 C 4.13 g/m*3 -0.8 C 0 km/h
3014 27-11-2010 10:15:02 -0.8 C 4.08 g/m*3 -0.8 C 0 km/h
3015 27-11-2010 10:27:02 -1 C 4.02 g/m*3 -1 C 0 km/h
3016 27-11-2010 10:39:01 -1 C 3.98 g/m*3 -1 C 0 km/h
3017 27-11-2010 10:51:02 -0.6 C 4.09 g/m*3 -0.6 C 0 km/h
3018 27-11-2010 11:03:01 -0.4 C 4.15 g/m*3 -0.4 C 0 km/h
3019 27-11-2010 11:15:02 -0.4 C 4.15 g/m*3 -0.4 C 0 km/h
3020 27-11-2010 11:27:02 -0.3 C 4.18 g/m*3 -0.3 C 0 km/h
3021 27-11-2010 11:39:01 0 C 4.26 g/m*3 0 C 0 km/h
3022 27-11-2010 11:51:02 0.1 C 4.2 g/m*3 0.1 C 0 km/h
3023 27-11-2010 12:03:02 0.2 C 4.13 g/m*3 0.2 C 0 km/h
3024 27-11-2010 12:15:02 0.3 C 4.06 g/m*3 0.3 C 0 km/h
3025 27-11-2010 12:27:02 0.4 C 4.03 g/m*3 0.4 C 0 km/h
Sensor: Nr:Datum:Temp:Abs-Feuchte:Windchill:Wind:
Aussen-T/F 3026 27-11-2010 12:39:03 0.6 C 3.99 g/m*3 0.6 C 0 km/h
3027 27-11-2010 12:51:02 0.4 C 3.79 g/m*3 0.4 C 0 km/h
3028 27-11-2010 13:03:02 0.7 C 3.86 g/m*3 0.7 C 0 km/h
3029 27-11-2010 13:15:02 0.7 C 3.86 g/m*3 0.7 C 0 km/h
3030 27-11-2010 13:27:02 0.7 C 3.92 g/m*3 0.7 C 0 km/h
3031 27-11-2010 13:39:02 1 C 4 g/m*3 1 C 0 km/h
3032 27-11-2010 13:51:02 1.2 C 3.89 g/m*3 1.2 C 0 km/h
3033 27-11-2010 14:03:02 1.4 C 3.95 g/m*3 1.4 C 0 km/h
3034 27-11-2010 14:15:02 1.5 C 3.87 g/m*3 1.5 C 0 km/h
3035 27-11-2010 14:27:02 1.5 C 3.71 g/m*3 1.5 C 0 km/h
3036 27-11-2010 14:39:02 1.7 C 3.7 g/m*3 1.7 C 0 km/h
3037 27-11-2010 14:51:01 1.3 C 3.71 g/m*3 1.3 C 0 km/h
3038 27-11-2010 15:03:02 1 C 3.74 g/m*3 1 C 0 km/h
3039 27-11-2010 15:15:01 1 C 3.84 g/m*3 1 C 0 km/h
3040 27-11-2010 15:27:01 0.8 C 3.79 g/m*3 0.8 C 0 km/h
3041 27-11-2010 15:39:01 0.7 C 3.81 g/m*3 0.7 C 0 km/h
3042 27-11-2010 15:51:01 0.3 C 3.81 g/m*3 0.3 C 0 km/h
3043 27-11-2010 16:03:01 -0.3 C 3.56 g/m*3 -0.3 C 0 km/h
3044 27-11-2010 16:15:02 -0.5 C 3.6 g/m*3 -0.5 C 0 km/h
3045 27-11-2010 16:27:02 -0.7 C 3.6 g/m*3 -0.7 C 0 km/h
3046 27-11-2010 16:39:01 -1 C 3.57 g/m*3 -1 C 0 km/h
3047 27-11-2010 16:51:02 -1.1 C 3.59 g/m*3 -1.1 C 0 km/h
3048 27-11-2010 17:03:01 -1 C 3.66 g/m*3 -1 C 0 km/h
3049 27-11-2010 17:15:02 -0.7 C 3.69 g/m*3 -0.7 C 0 km/h
3050 27-11-2010 17:27:02 -0.7 C 3.65 g/m*3 -0.7 C 0 km/h
Sensor: Nr:Datum:Temp:Abs-Feuchte:Windchill:Wind:
Aussen-T/F 3051 27-11-2010 17:39:01 -0.8 C 3.67 g/m*3 -0.8 C 0 km/h
3052 27-11-2010 17:51:02 -1.1 C 3.59 g/m*3 -1.1 C 0 km/h
3053 27-11-2010 18:03:02 -1.6 C 3.51 g/m*3 -1.6 C 0 km/h
3054 27-11-2010 18:15:02 -1.8 C 3.51 g/m*3 -1.8 C 0 km/h
3055 27-11-2010 18:27:02 -1.8 C 3.55 g/m*3 -1.8 C 0 km/h
3056 27-11-2010 18:39:02 -1.7 C 3.62 g/m*3 -1.7 C 0 km/h
3057 27-11-2010 18:51:02 -1 C 3.8 g/m*3 -1 C 0 km/h
3058 27-11-2010 19:03:01 -0.9 C 3.78 g/m*3 -0.9 C 0 km/h
3059 27-11-2010 19:15:02 -1 C 3.71 g/m*3 -1 C 0 km/h
3060 27-11-2010 19:27:02 -1.1 C 3.73 g/m*3 -1.1 C 0 km/h
3061 27-11-2010 19:39:02 -0.9 C 3.78 g/m*3 -0.9 C 0 km/h
3062 27-11-2010 19:51:02 -0.7 C 3.78 g/m*3 -0.7 C 0 km/h
3063 27-11-2010 20:03:03 -0.7 C 3.78 g/m*3 -0.7 C 0 km/h
3064 27-11-2010 20:15:02 -0.7 C 3.74 g/m*3 -0.7 C 0 km/h
3065 27-11-2010 20:27:02 -1.2 C 3.52 g/m*3 -1.2 C 0 km/h
3066 27-11-2010 20:39:02 -2.2 C 3.33 g/m*3 -2.2 C 0 km/h
3067 27-11-2010 20:51:01 -2.7 C 3.25 g/m*3 -2.7 C 0 km/h
3068 27-11-2010 21:03:02 -3 C 3.22 g/m*3 -3 C 0 km/h
3069 27-11-2010 21:15:01 -3 C 3.3 g/m*3 -3 C 0 km/h
3070 27-11-2010 21:27:01 -3 C 3.3 g/m*3 -3 C 0 km/h
3071 27-11-2010 21:39:01 -3.2 C 3.25 g/m*3 -3.2 C 0 km/h
3072 27-11-2010 21:51:01 -3.3 C 3.27 g/m*3 -3.3 C 0 km/h
3073 27-11-2010 22:03:02 -3.8 C 3.15 g/m*3 -3.8 C 0 km/h
3074 27-11-2010 22:15:01 -3.8 C 3.19 g/m*3 -3.8 C 0 km/h
3075 27-11-2010 22:27:01 -3.2 C 3.37 g/m*3 -3.2 C 0 km/h
Sensor: Nr:Datum:Temp:Abs-Feuchte:Windchill:Wind:
Aussen-T/F 3076 27-11-2010 22:40:03 -3.3 C 3.31 g/m*3 -3.3 C 0 km/h
3077 27-11-2010 22:52:03 -2.7 C 3.49 g/m*3 -2.7 C 0 km/h
3078 27-11-2010 23:04:03 -2.8 C 3.43 g/m*3 -2.8 C 0 km/h
3079 27-11-2010 23:16:03 -2.8 C 3.43 g/m*3 -2.8 C 0 km/h
3080 27-11-2010 23:28:03 -3 C 3.38 g/m*3 -3 C 0 km/h
3081 27-11-2010 23:40:03 -3.6 C 3.2 g/m*3 -3.6 C 0 km/h
3082 27-11-2010 23:52:03 -3.9 C 3.13 g/m*3 -3.9 C 0 km/h
3083 28-11-2010 00:04:03 -3.9 C 3.17 g/m*3 -3.9 C 0 km/h
3084 28-11-2010 00:16:03 -3.8 C 3.19 g/m*3 -3.8 C 0 km/h
3085 28-11-2010 00:28:03 -3.7 C 3.21 g/m*3 -3.7 C 0 km/h
3086 28-11-2010 00:40:03 -3.8 C 3.19 g/m*3 -3.8 C 0 km/h
3087 28-11-2010 00:52:03 -3.6 C 3.24 g/m*3 -3.6 C 0 km/h
3088 28-11-2010 01:04:03 -3.4 C 3.32 g/m*3 -3.4 C 0 km/h
3089 28-11-2010 01:16:03 -3 C 3.42 g/m*3 -3 C 0 km/h
3090 28-11-2010 01:28:03 -2.7 C 3.53 g/m*3 -2.7 C 0 km/h
3091 28-11-2010 01:40:03 -2.4 C 3.61 g/m*3 -2.4 C 0 km/h
3092 28-11-2010 01:52:03 -2.3 C 3.63 g/m*3 -2.3 C 0 km/h
3093 28-11-2010 02:04:03 -2.1 C 3.64 g/m*3 -2.1 C 0 km/h
3094 28-11-2010 02:16:03 -2.2 C 3.62 g/m*3 -2.2 C 0 km/h
3095 28-11-2010 02:28:04 -2.1 C 3.64 g/m*3 -2.1 C 0 km/h
3096 28-11-2010 02:40:04 -2.1 C 3.6 g/m*3 -2.1 C 0 km/h
3097 28-11-2010 02:52:04 -2.4 C 3.52 g/m*3 -2.4 C 0 km/h
3098 28-11-2010 03:04:04 -2.6 C 3.43 g/m*3 -2.6 C 0 km/h
3099 28-11-2010 03:16:04 -3.3 C 3.23 g/m*3 -3.3 C 0 km/h
3100 28-11-2010 03:28:04 -3.8 C 3.12 g/m*3 -3.8 C 0 km/h
Sensor: Nr:Datum:Temp:Abs-Feuchte:Windchill:Wind:
Aussen-T/F 3101 28-11-2010 03:40:04 -3.6 C 3.16 g/m*3 -3.6 C 0 km/h
3102 28-11-2010 03:52:04 -3.7 C 3.18 g/m*3 -3.7 C 0 km/h
3103 28-11-2010 04:04:04 -3.2 C 3.33 g/m*3 -3.2 C 0 km/h
3104 28-11-2010 04:16:04 -2.8 C 3.43 g/m*3 -2.8 C 0 km/h
3105 28-11-2010 04:28:04 -2.5 C 3.5 g/m*3 -2.5 C 0 km/h
3106 28-11-2010 04:40:04 -2.4 C 3.52 g/m*3 -2.4 C 0 km/h
3107 28-11-2010 04:52:04 -2.3 C 3.55 g/m*3 -2.3 C 0 km/h
3108 28-11-2010 05:04:04 -2.3 C 3.55 g/m*3 -2.3 C 0 km/h
3109 28-11-2010 05:16:04 -2.6 C 3.48 g/m*3 -2.6 C 0 km/h
3110 28-11-2010 05:28:04 -3 C 3.34 g/m*3 -3 C 0 km/h
3111 28-11-2010 05:40:04 -3 C 3.34 g/m*3 -3 C 0 km/h
3112 28-11-2010 05:52:04 -2.7 C 3.41 g/m*3 -2.7 C 0 km/h
3113 28-11-2010 06:04:04 -2.5 C 3.5 g/m*3 -2.5 C 0 km/h
3114 28-11-2010 06:16:04 -2.3 C 3.55 g/m*3 -2.3 C 0 km/h
3115 28-11-2010 06:28:04 -2.1 C 3.6 g/m*3 -2.1 C 0 km/h
3116 28-11-2010 06:40:04 -2 C 3.58 g/m*3 -2 C 0 km/h
3117 28-11-2010 06:52:05 -2 C 3.58 g/m*3 -2 C 0 km/h
3118 28-11-2010 07:04:05 -2 C 3.58 g/m*3 -2 C 0 km/h
3119 28-11-2010 07:16:05 -1.9 C 3.57 g/m*3 -1.9 C 0 km/h
3120 28-11-2010 07:28:05 -1.9 C 3.57 g/m*3 -1.9 C 0 km/h
3121 28-11-2010 07:40:05 -1.8 C 3.59 g/m*3 -1.8 C 0 km/h
3122 28-11-2010 07:52:05 -1.8 C 3.59 g/m*3 -1.8 C 0 km/h
3123 28-11-2010 08:04:05 -1.8 C 3.55 g/m*3 -1.8 C 0 km/h
3124 28-11-2010 08:16:05 -1.7 C 3.62 g/m*3 -1.7 C 0 km/h
3125 28-11-2010 08:28:05 -1.6 C 3.64 g/m*3 -1.6 C 0 km/h
Sensor: Nr:Datum:Temp:Abs-Feuchte:Windchill:Wind:
Aussen-T/F 3126 28-11-2010 08:40:05 -1.6 C 3.6 g/m*3 -1.6 C 0 km/h
3127 28-11-2010 08:52:05 -1.6 C 3.6 g/m*3 -1.6 C 0 km/h
3128 28-11-2010 09:04:05 -1.4 C 3.6 g/m*3 -1.4 C 0 km/h
3129 28-11-2010 09:16:05 -1.3 C 3.63 g/m*3 -1.3 C 0 km/h
3130 28-11-2010 09:28:05 -1.2 C 3.61 g/m*3 -1.2 C 0 km/h
3131 28-11-2010 09:40:03 -1.1 C 3.59 g/m*3 -1.1 C 0 km/h
3132 28-11-2010 09:52:01 -0.9 C 3.64 g/m*3 -0.9 C 0 km/h
3133 28-11-2010 10:04:02 -0.4 C 3.72 g/m*3 -0.4 C 0 km/h
3134 28-11-2010 10:16:02 -0.5 C 3.6 g/m*3 -0.5 C 0 km/h
3135 28-11-2010 10:28:02 -0.4 C 3.63 g/m*3 -0.4 C 0 km/h
3136 28-11-2010 10:40:02 -0.4 C 3.58 g/m*3 -0.4 C 0 km/h
3137 28-11-2010 10:52:02 -0.2 C 3.63 g/m*3 -0.2 C 0 km/h
3138 28-11-2010 11:04:01 -0.1 C 3.61 g/m*3 -0.1 C 0 km/h
3139 28-11-2010 11:16:02 -0.2 C 3.54 g/m*3 -0.2 C 0 km/h
3140 28-11-2010 11:28:02 -0.3 C 3.51 g/m*3 -0.3 C 0 km/h
3141 28-11-2010 11:40:01 -0.1 C 3.56 g/m*3 -0.1 C 0 km/h
3142 28-11-2010 11:52:02 -0.2 C 3.54 g/m*3 -0.2 C 0 km/h
3143 28-11-2010 12:04:01 0 C 3.59 g/m*3 0 C 0 km/h
3144 28-11-2010 12:16:01 0.1 C 3.61 g/m*3 0.1 C 0 km/h
3145 28-11-2010 12:28:01 0 C 3.59 g/m*3 0 C 0 km/h
3146 28-11-2010 12:40:02 0 C 3.59 g/m*3 0 C 0 km/h
3147 28-11-2010 12:52:02 0 C 3.59 g/m*3 0 C 0 km/h
3148 28-11-2010 13:04:02 0 C 3.59 g/m*3 0 C 0 km/h
3149 28-11-2010 13:16:02 0.1 C 3.61 g/m*3 0.1 C 0 km/h
3150 28-11-2010 13:28:02 0.1 C 3.66 g/m*3 0.1 C 0 km/h
Sensor: Nr:Datum:Temp:Abs-Feuchte:Windchill:Wind:
Aussen-T/F 3151 28-11-2010 13:40:02 0.2 C 3.64 g/m*3 0.2 C 0 km/h
3152 28-11-2010 13:52:02 0.3 C 3.66 g/m*3 0.3 C 0 km/h
3153 28-11-2010 14:04:02 0.2 C 3.64 g/m*3 0.2 C 0 km/h
3154 28-11-2010 14:16:02 0.3 C 3.66 g/m*3 0.3 C 0 km/h
3155 28-11-2010 14:28:02 0.5 C 3.71 g/m*3 0.5 C 0 km/h
3156 28-11-2010 14:40:02 0.7 C 3.71 g/m*3 0.7 C 0 km/h
3157 28-11-2010 14:52:01 0.8 C 3.74 g/m*3 0.8 C 0 km/h
3158 28-11-2010 15:04:02 0.7 C 3.71 g/m*3 0.7 C 0 km/h
3159 28-11-2010 15:16:01 0.7 C 3.71 g/m*3 0.7 C 0 km/h
3160 28-11-2010 15:28:01 0.6 C 3.74 g/m*3 0.6 C 0 km/h
3161 28-11-2010 15:40:01 0.5 C 3.71 g/m*3 0.5 C 0 km/h
3162 28-11-2010 15:52:01 0.2 C 3.68 g/m*3 0.2 C 0 km/h
3163 28-11-2010 16:04:01 0 C 3.68 g/m*3 0 C 0 km/h
3164 28-11-2010 16:16:02 -0.3 C 3.65 g/m*3 -0.3 C 0 km/h
3165 28-11-2010 16:28:02 -0.6 C 3.63 g/m*3 -0.6 C 0 km/h
3166 28-11-2010 16:40:01 -0.5 C 3.7 g/m*3 -0.5 C 0 km/h
3167 28-11-2010 16:52:03 -0.3 C 3.75 g/m*3 -0.3 C 0 km/h
3168 28-11-2010 17:04:02 -0.3 C 3.75 g/m*3 -0.3 C 0 km/h
3169 28-11-2010 17:16:02 -0.3 C 3.75 g/m*3 -0.3 C 0 km/h
3170 28-11-2010 17:28:02 -0.6 C 3.67 g/m*3 -0.6 C 0 km/h
3171 28-11-2010 17:40:02 -0.9 C 3.6 g/m*3 -0.9 C 0 km/h
3172 28-11-2010 17:52:02 -1.1 C 3.59 g/m*3 -1.1 C 0 km/h
3173 28-11-2010 18:04:02 -1.8 C 3.42 g/m*3 -1.8 C 0 km/h
3174 28-11-2010 18:16:02 -1.4 C 3.65 g/m*3 -1.4 C 0 km/h
3175 28-11-2010 18:28:02 -1 C 3.8 g/m*3 -1 C 0 km/h
Sensor: Nr:Datum:Temp:Abs-Feuchte:Windchill:Wind:
Aussen-T/F 3176 28-11-2010 18:40:02 -0.7 C 3.88 g/m*3 -0.7 C 0 km/h
3177 28-11-2010 18:52:02 -0.6 C 3.81 g/m*3 -0.6 C 0 km/h
3178 28-11-2010 19:04:02 -0.6 C 3.76 g/m*3 -0.6 C 0 km/h
3179 28-11-2010 19:16:01 -0.6 C 3.76 g/m*3 -0.6 C 0 km/h
3180 28-11-2010 19:28:01 -0.8 C 3.67 g/m*3 -0.8 C 0 km/h
3181 28-11-2010 19:40:02 -0.8 C 3.67 g/m*3 -0.8 C 0 km/h
3182 28-11-2010 19:52:02 -0.7 C 3.65 g/m*3 -0.7 C 0 km/h
3183 28-11-2010 20:04:02 -1.1 C 3.55 g/m*3 -1.1 C 0 km/h
3184 28-11-2010 20:16:02 -0.9 C 3.6 g/m*3 -0.9 C 0 km/h
3185 28-11-2010 20:28:02 -0.7 C 3.6 g/m*3 -0.7 C 0 km/h
3186 28-11-2010 20:40:02 -0.6 C 3.53 g/m*3 -0.6 C 0 km/h
3187 28-11-2010 20:52:02 -0.7 C 3.46 g/m*3 -0.7 C 0 km/h
3188 28-11-2010 21:04:02 -0.7 C 3.46 g/m*3 -0.7 C 0 km/h
3189 28-11-2010 21:16:02 -0.9 C 3.46 g/m*3 -0.9 C 0 km/h
3190 28-11-2010 21:28:02 -0.9 C 3.46 g/m*3 -0.9 C 0 km/h
3191 28-11-2010 21:40:02 -0.9 C 3.46 g/m*3 -0.9 C 0 km/h
3192 28-11-2010 21:52:02 -0.9 C 3.46 g/m*3 -0.9 C 0 km/h
3193 28-11-2010 22:04:02 -1 C 3.44 g/m*3 -1 C 0 km/h
3194 28-11-2010 22:16:02 -1 C 3.44 g/m*3 -1 C 0 km/h
3195 28-11-2010 22:28:02 -1.4 C 3.39 g/m*3 -1.4 C 0 km/h
3196 28-11-2010 22:40:03 -2.2 C 3.24 g/m*3 -2.2 C 0 km/h
3197 28-11-2010 22:52:02 -2.4 C 3.28 g/m*3 -2.4 C 0 km/h
3198 28-11-2010 23:04:01 -2.7 C 3.25 g/m*3 -2.7 C 0 km/h
3199 28-11-2010 23:16:02 -2.6 C 3.35 g/m*3 -2.6 C 0 km/h
3200 28-11-2010 23:28:02 -2 C 3.54 g/m*3 -2 C 0 km/h
Sensor: Nr:Datum:Temp:Abs-Feuchte:Windchill:Wind:
Aussen-T/F 3201 28-11-2010 23:40:02 -1.5 C 3.54 g/m*3 -1.5 C 0 km/h
3202 28-11-2010 23:52:02 -1.4 C 3.43 g/m*3 -1.4 C 0 km/h
3203 29-11-2010 00:04:02 -1.4 C 3.34 g/m*3 -1.4 C 0 km/h
3204 29-11-2010 00:16:02 -1.4 C 3.34 g/m*3 -1.4 C 0 km/h
3205 29-11-2010 00:28:02 -1.4 C 3.43 g/m*3 -1.4 C 0 km/h
3206 29-11-2010 00:40:02 -1.5 C 3.41 g/m*3 -1.5 C 0 km/h
3207 29-11-2010 00:52:01 -1.7 C 3.31 g/m*3 -1.7 C 0 km/h
3208 29-11-2010 01:04:02 -1.8 C 3.29 g/m*3 -1.8 C 0 km/h
3209 29-11-2010 01:16:01 -1.9 C 3.27 g/m*3 -1.9 C 0 km/h
3210 29-11-2010 01:28:01 -1.8 C 3.33 g/m*3 -1.8 C 0 km/h
3211 29-11-2010 01:40:02 -1.7 C 3.36 g/m*3 -1.7 C 0 km/h
3212 29-11-2010 01:52:01 -1.8 C 3.29 g/m*3 -1.8 C 0 km/h
3213 29-11-2010 02:04:02 -1.8 C 3.29 g/m*3 -1.8 C 0 km/h
3214 29-11-2010 02:16:02 -1.9 C 3.27 g/m*3 -1.9 C 0 km/h
3215 29-11-2010 02:28:02 -1.9 C 3.27 g/m*3 -1.9 C 0 km/h
3216 29-11-2010 02:40:02 -1.9 C 3.27 g/m*3 -1.9 C 0 km/h
3217 29-11-2010 02:52:01 -1.9 C 3.23 g/m*3 -1.9 C 0 km/h
3218 29-11-2010 03:04:01 -2 C 3.2 g/m*3 -2 C 0 km/h
3219 29-11-2010 03:16:01 -1.9 C 3.23 g/m*3 -1.9 C 0 km/h
3220 29-11-2010 03:28:01 -2 C 3.2 g/m*3 -2 C 0 km/h
3221 29-11-2010 03:40:01 -2 C 3.2 g/m*3 -2 C 0 km/h
3222 29-11-2010 03:52:01 -2.1 C 3.22 g/m*3 -2.1 C 0 km/h
3223 29-11-2010 04:04:01 -2.1 C 3.18 g/m*3 -2.1 C 0 km/h
3224 29-11-2010 04:16:02 -2 C 3.25 g/m*3 -2 C 0 km/h
3225 29-11-2010 04:28:02 -2 C 3.2 g/m*3 -2 C 0 km/h
Sensor: Nr:Datum:Temp:Abs-Feuchte:Windchill:Wind:
Aussen-T/F 3226 29-11-2010 04:40:01 -2 C 3.2 g/m*3 -2 C 0 km/h
3227 29-11-2010 04:52:01 -1.9 C 3.27 g/m*3 -1.9 C 0 km/h
3228 29-11-2010 05:04:01 -1.9 C 3.27 g/m*3 -1.9 C 0 km/h
3229 29-11-2010 05:16:02 -1.8 C 3.29 g/m*3 -1.8 C 0 km/h
3230 29-11-2010 05:28:02 -1.8 C 3.29 g/m*3 -1.8 C 0 km/h
3231 29-11-2010 05:40:01 -1.8 C 3.25 g/m*3 -1.8 C 0 km/h
3232 29-11-2010 05:52:02 -1.8 C 3.25 g/m*3 -1.8 C 0 km/h
3233 29-11-2010 06:04:01 -1.7 C 3.27 g/m*3 -1.7 C 0 km/h
3234 29-11-2010 06:16:01 -1.7 C 3.31 g/m*3 -1.7 C 0 km/h
3235 29-11-2010 06:28:01 -1.7 C 3.31 g/m*3 -1.7 C 0 km/h
3236 29-11-2010 06:40:01 -1.7 C 3.31 g/m*3 -1.7 C 0 km/h
3237 29-11-2010 06:52:01 -1.6 C 3.34 g/m*3 -1.6 C 0 km/h
3238 29-11-2010 07:04:01 -1.6 C 3.34 g/m*3 -1.6 C 0 km/h
3239 29-11-2010 07:16:01 -1.7 C 3.27 g/m*3 -1.7 C 0 km/h
3240 29-11-2010 07:28:01 -1.7 C 3.27 g/m*3 -1.7 C 0 km/h
3241 29-11-2010 07:40:02 -1.7 C 3.27 g/m*3 -1.7 C 0 km/h
3242 29-11-2010 07:52:01 -1.6 C 3.29 g/m*3 -1.6 C 0 km/h
3243 29-11-2010 08:04:02 -1.7 C 3.27 g/m*3 -1.7 C 0 km/h
3244 29-11-2010 08:16:01 -1.6 C 3.34 g/m*3 -1.6 C 0 km/h
3245 29-11-2010 08:28:01 -1.7 C 3.31 g/m*3